Provisional Data: Snake Creek near Lawsville Center, PA


Please select a monitoring station.
Please select start date.
Please select start date.

Toggle Unit: C/F Toggle Unit: C/F
Sample Time Temperature (C) Temperature (F) Specific Conductivity (mS/cm) pH   Turbidity (NTU+) DO (mg/L)
3/23/2021 12:00:00 AM 4.71 40.478 0.071 6.98 11.06 12.1
3/23/2021 12:15:00 AM 4.61 40.298 0.071 6.97 9.49 12.13
3/23/2021 12:30:00 AM 4.51 40.118 0.071 6.97 9.45 12.15
3/23/2021 12:45:00 AM 4.43 39.974 0.071 6.98 10.11 12.19
3/23/2021 1:00:00 AM 4.33 39.794 0.071 6.98 10.07 12.23
3/23/2021 1:15:00 AM 4.25 39.65 0.071 6.97 9.4 12.25
3/23/2021 1:30:00 AM 4.16 39.488 0.071 6.98 9.19 12.28
3/23/2021 1:45:00 AM 4.08 39.344 0.071 6.98 8.36 12.32
3/23/2021 2:00:00 AM 4 39.2 0.071 6.97 8.8 12.35
3/23/2021 2:15:00 AM 3.92 39.056 0.071 6.97 8.33 12.38
3/23/2021 2:30:00 AM 3.86 38.948 0.071 6.98 8.47 12.39
3/23/2021 2:45:00 AM 3.78 38.804 0.071 6.98 7.85 12.43
3/23/2021 3:00:00 AM 3.7 38.66 0.072 6.98 8.42 12.46
3/23/2021 3:15:00 AM 3.63 38.534 0.072 6.98 7.61 12.47
3/23/2021 3:30:00 AM 3.57 38.426 0.072 6.98 8.01 12.51
3/23/2021 3:45:00 AM 3.5 38.3 0.072 6.98 7.52 12.53
3/23/2021 4:00:00 AM 3.43 38.174 0.072 6.98 7.48 12.55
3/23/2021 4:15:00 AM 3.37 38.066 0.072 6.98 7.9 12.57
3/23/2021 4:30:00 AM 3.3 37.94 0.072 6.98 8.29 12.6
3/23/2021 4:45:00 AM 3.24 37.832 0.072 6.98 7.79 12.62
3/23/2021 5:00:00 AM 3.19 37.742 0.072 6.98 7.93 12.64
3/23/2021 5:15:00 AM 3.13 37.634 0.072 6.98 7.41 12.66
3/23/2021 5:30:00 AM 3.07 37.526 0.072 6.98 7.37 12.67
3/23/2021 5:45:00 AM 3.01 37.418 0.072 6.98 7.62 12.7
3/23/2021 6:00:00 AM 2.96 37.328 0.072 6.98 6.96 12.72
3/23/2021 6:15:00 AM 2.9 37.22 0.072 6.98 7.47 12.75
3/23/2021 6:30:00 AM 2.85 37.13 0.072 6.99 6.9 12.77
3/23/2021 6:45:00 AM 2.8 37.04 0.072 6.98 7.01 12.77
3/23/2021 7:00:00 AM 2.74 36.932 0.072 6.98 7.45 12.8
3/23/2021 7:15:00 AM 2.69 36.842 0.072 6.98 6.89 12.82
3/23/2021 7:30:00 AM 2.64 36.752 0.072 6.98 7.08 12.87
3/23/2021 7:45:00 AM 2.6 36.68 0.072 7 7.01 12.92
3/23/2021 8:00:00 AM 2.56 36.608 0.073 7 7.1 12.98
3/23/2021 8:15:00 AM 2.53 36.554 0.073 7.01 6.91 13.04
3/23/2021 8:30:00 AM 2.5 36.5 0.073 7.02 6.65 13.1
3/23/2021 8:45:00 AM 2.49 36.482 0.073 7.03 6.27 13.16
3/23/2021 9:00:00 AM 2.48 36.464 0.072 7.05 6.22 13.23
3/23/2021 9:15:00 AM 2.5 36.5 0.072 7.05 6.3 13.28
3/23/2021 9:30:00 AM 2.53 36.554 0.072 7.08 6.12 13.33
3/23/2021 9:45:00 AM 2.59 36.662 0.072 7.09 6.4 13.36
3/23/2021 10:00:00 AM 2.67 36.806 0.072 7.11 6.08 13.37
3/23/2021 10:15:00 AM 2.77 36.986 0.072 7.13 6.11 13.39
3/23/2021 10:30:00 AM 2.89 37.202 0.072 7.14 6.03 13.38
3/23/2021 10:45:00 AM 3.04 37.472 0.072 7.16 6.34 13.38
3/23/2021 11:00:00 AM 3.22 37.796 0.071 7.18 6.18 13.35
3/23/2021 11:15:00 AM 3.4 38.12 0.072 7.18 6.25 13.33
3/23/2021 11:30:00 AM 3.63 38.534 0.071 7.18 6.17 13.28
3/23/2021 11:45:00 AM 3.88 38.984 0.071 7.21 5.97 13.24
3/23/2021 12:00:00 PM 4.13 39.434 0.071 7.21 5.86 13.18
3/23/2021 12:15:00 PM 4.42 39.956 0.071 7.23 6.07 13.11
3/23/2021 12:30:00 PM 4.73 40.514 0.071 7.24 5.87 13.05
3/23/2021 12:45:00 PM 5.07 41.126 0.071 7.25 5.78 12.96
3/23/2021 1:00:00 PM 5.36 41.648 0.071 7.26 6.22 12.88
3/23/2021 1:15:00 PM 5.7 42.26 0.071 7.28 6.48 12.78
3/23/2021 1:30:00 PM 5.98 42.764 0.071 7.29 6.92 12.7
3/23/2021 1:45:00 PM 6.22 43.196 0.071 7.3 6.32 12.64
3/23/2021 2:00:00 PM 6.54 43.772 0.07 7.29 6.53 12.54
3/23/2021 2:15:00 PM 6.78 44.204 0.07 7.31 6.31 12.48
3/23/2021 2:30:00 PM 7.02 44.636 0.07 7.3 6.08 12.4
3/23/2021 2:45:00 PM 7.25 45.05 0.07 7.32 6.82 12.34
3/23/2021 3:00:00 PM 7.45 45.41 0.07 7.33 6.57 12.27
3/23/2021 3:15:00 PM 7.58 45.644 0.07 7.34 6.61 12.23
3/23/2021 3:30:00 PM 7.7 45.86 0.07 7.35 6.75 12.16
3/23/2021 3:45:00 PM 7.76 45.968 0.07 7.36 6.71 12.12
3/23/2021 4:00:00 PM 7.85 46.13 0.07 7.36 7.2 12.06
3/23/2021 4:15:00 PM 7.89 46.202 0.07 7.36 7.33 12.03
3/23/2021 4:30:00 PM 7.9 46.22 0.07 7.36 7.41 12.01
3/23/2021 4:45:00 PM 7.91 46.238 0.069 7.35 7.6 11.98
3/23/2021 5:00:00 PM 7.9 46.22 0.07 7.35 7.94 11.95
3/23/2021 5:15:00 PM 7.87 46.166 0.069 7.35 7.88 11.94
3/23/2021 5:30:00 PM 7.84 46.112 0.069 7.35 7.96 11.91
3/23/2021 5:45:00 PM 7.81 46.058 0.069 7.32 7.93 11.89
3/23/2021 6:00:00 PM 7.76 45.968 0.069 7.32 8.44 11.87
3/23/2021 6:15:00 PM 7.7 45.86 0.069 7.3 8.96 11.83
3/23/2021 6:30:00 PM 7.63 45.734 0.07 7.28 8.68 11.78
3/23/2021 6:45:00 PM 7.56 45.608 0.07 7.24 9.28 11.71
3/23/2021 7:00:00 PM 7.49 45.482 0.069 7.21 9.14 11.63
3/23/2021 7:15:00 PM 7.42 45.356 0.07 7.18 9.61 11.56
3/23/2021 7:30:00 PM 7.34 45.212 0.07 7.14 9.74 11.5
3/23/2021 7:45:00 PM 7.26 45.068 0.07 7.11 9.38 11.45
3/23/2021 8:00:00 PM 7.18 44.924 0.07 7.08 9.61 11.4
3/23/2021 8:15:00 PM 7.1 44.78 0.07 7.06 10.02 11.39
3/23/2021 8:30:00 PM 7.02 44.636 0.07 7.05 10.19 11.38
3/23/2021 8:45:00 PM 6.93 44.474 0.07 7.03 10.56 11.37
3/23/2021 9:00:00 PM 6.83 44.294 0.07 7.02 10.02 11.41
3/23/2021 9:15:00 PM 6.75 44.15 0.07 7.01 10.12 11.41
3/23/2021 9:30:00 PM 6.66 43.988 0.07 7.01 10.52 11.44
3/23/2021 9:45:00 PM 6.57 43.826 0.07 7 10.07 11.44
3/23/2021 10:00:00 PM 6.49 43.682 0.07 7 9.76 11.47
3/23/2021 10:15:00 PM 6.4 43.52 0.07 7 9.95 11.51
3/23/2021 10:30:00 PM 6.31 43.358 0.07 7 10.28 11.52
3/23/2021 10:45:00 PM 6.23 43.214 0.07 6.99 9.72 11.55
3/23/2021 11:00:00 PM 6.15 43.07 0.069 6.99 9.84 11.58
3/23/2021 11:15:00 PM 6.07 42.926 0.069 6.99 9.86 11.61
3/23/2021 11:30:00 PM 6 42.8 0.069 6.99 9.94 11.61
3/23/2021 11:45:00 PM 5.92 42.656 0.069 6.99 9.5 11.64
3/24/2021 12:00:00 AM 5.84 42.512 0.069 6.98 9.25 11.67
3/24/2021 12:15:00 AM 5.77 42.386 0.069 6.99 9.77 11.7
3/24/2021 12:30:00 AM 5.7 42.26 0.069 6.99 9.93 11.72
3/24/2021 12:45:00 AM 5.63 42.134 0.069 6.98 50.15 11.75
3/24/2021 1:00:00 AM 5.58 42.044 0.069 6.99 14.09 11.74
3/24/2021 1:15:00 AM 5.52 41.936 0.069 6.99 10.31 11.77
3/24/2021 1:30:00 AM 5.48 41.864 0.069 7 10.59 11.8
3/24/2021 1:45:00 AM 5.44 41.792 0.069 7 9.3 11.81
3/24/2021 2:00:00 AM 5.41 41.738 0.069 7 9.05 11.82
3/24/2021 2:15:00 AM 5.39 41.702 0.069 7 9.65 11.83
3/24/2021 2:30:00 AM 5.35 41.63 0.07 7 9.45 11.85
3/24/2021 2:45:00 AM 5.32 41.576 0.07 7 9.23 11.84
3/24/2021 3:00:00 AM 5.28 41.504 0.069 7 9.29 11.86
3/24/2021 3:15:00 AM 5.25 41.45 0.07 7 8.77 11.87
3/24/2021 3:30:00 AM 5.21 41.378 0.07 7.01 8.96 11.89
3/24/2021 3:45:00 AM 5.18 41.324 0.07 7 9.03 11.9
3/24/2021 4:00:00 AM 5.15 41.27 0.07 7.01 8.91 11.9
3/24/2021 4:15:00 AM 5.13 41.234 0.07 7.01 8.76 11.9
3/24/2021 4:30:00 AM 5.12 41.216 0.07 7.01 8.69 11.91
3/24/2021 4:45:00 AM 5.11 41.198 0.07 7.01 9.01 11.92
3/24/2021 5:00:00 AM 5.1 41.18 0.07 7.01 8.86 11.93
3/24/2021 5:15:00 AM 5.09 41.162 0.07 7.01 8.61 11.93
3/24/2021 5:30:00 AM 5.08 41.144 0.069 7.01 8.55 11.94
3/24/2021 5:45:00 AM 5.07 41.126 0.07 7.01 8.63 11.94
3/24/2021 6:00:00 AM 5.06 41.108 0.07 7.01 8.38 11.94
3/24/2021 6:15:00 AM 5.06 41.108 0.07 7.01 8.3 11.96
3/24/2021 6:30:00 AM 5.05 41.09 0.07 7.02 8.93 11.95
3/24/2021 6:45:00 AM 5.05 41.09 0.072 7.02 9.1 11.95
3/24/2021 7:00:00 AM 5.05 41.09 0.07 7.02 8.97 11.97
3/24/2021 7:15:00 AM 5.05 41.09 0.07 7.02 8.68 11.94
3/24/2021 7:30:00 AM 5.05 41.09 0.07 7.02 8.48 11.95
3/24/2021 7:45:00 AM 5.06 41.108 0.07 7.02 8.37 11.96
3/24/2021 8:00:00 AM 5.06 41.108 0.07 7.03 9.13 12
3/24/2021 8:15:00 AM 5.07 41.126 0.07 7.03 9.36 12.01
3/24/2021 8:30:00 AM 5.08 41.144 0.07 7.04 9.86 12.05
3/24/2021 8:45:00 AM 5.09 41.162 0.07 7.05 10.31 12.07
3/24/2021 9:00:00 AM 5.1 41.18 0.07 7.06 9.61 12.14
3/24/2021 9:15:00 AM 5.12 41.216 0.07 7.07 9.56 12.18
3/24/2021 9:30:00 AM 5.15 41.27 0.07 7.09 9.67 12.2
3/24/2021 9:45:00 AM 5.17 41.306 0.07 7.1 10.08 12.24
3/24/2021 10:00:00 AM 5.2 41.36 0.069 7.11 10.4 12.26
3/24/2021 10:15:00 AM 5.22 41.396 0.069 7.12 12.47 12.28
3/24/2021 10:30:00 AM 5.26 41.468 0.069 7.13 11.14 12.28
3/24/2021 10:45:00 AM 5.3 41.54 0.069 7.15 11.03 12.3
3/24/2021 11:00:00 AM 5.35 41.63 0.069 7.17 12.6 12.34
3/24/2021 11:15:00 AM 5.42 41.756 0.068 7.18 13.63 12.37
3/24/2021 11:30:00 AM 5.49 41.882 0.068 7.21 14.49 12.4
3/24/2021 11:45:00 AM 5.56 42.008 0.068 7.23 14.62 12.4
3/24/2021 12:00:00 PM 5.63 42.134 0.068 7.25 16.87 12.42
3/24/2021 12:15:00 PM 5.7 42.26 0.068 7.27 16.29 12.42
3/24/2021 12:30:00 PM 5.78 42.404 0.068 7.28 17.86 12.42
3/24/2021 12:45:00 PM 5.86 42.548 0.068 7.3 17.97 12.41
3/24/2021 1:00:00 PM 5.94 42.692 0.067 7.31 16.68 12.39
3/24/2021 1:15:00 PM 6.02 42.836 0.067 7.32 18.51 12.38
3/24/2021 1:30:00 PM 6.12 43.016 0.067 7.33 17.66 12.36
3/24/2021 1:45:00 PM 6.19 43.142 0.067 7.34 21.01 12.33
3/24/2021 2:00:00 PM 6.26 43.268 0.068 7.34 23.9 12.28
3/24/2021 2:15:00 PM 6.34 43.412 0.067 7.34 22.73 12.25
3/24/2021 2:30:00 PM 6.42 43.556 0.068 7.33 26 12.2
3/24/2021 2:45:00 PM 6.48 43.664 0.068 7.32 25.51 12.15
3/24/2021 3:00:00 PM 6.52 43.736 0.068 7.3 25.58 12.06
3/24/2021 3:15:00 PM 6.56 43.808 0.068 7.28 23.3 12.01
3/24/2021 3:30:00 PM 6.6 43.88 0.068 7.26 31.03 11.94
3/24/2021 3:45:00 PM 6.63 43.934 0.068 7.24 29.58 11.88
3/24/2021 4:00:00 PM 6.66 43.988 0.068 7.22 29.71 11.84
3/24/2021 4:15:00 PM 6.68 44.024 0.068 7.19 43.38 11.79
3/24/2021 4:30:00 PM 6.69 44.042 0.068 7.18 30 11.74
3/24/2021 4:45:00 PM 6.7 44.06 0.069 7.16 41.53 11.71
3/24/2021 5:00:00 PM 6.72 44.096 0.069 7.15 40.92 11.69
3/24/2021 5:15:00 PM 6.73 44.114 0.069 7.14 41.45 11.66
3/24/2021 5:30:00 PM 6.74 44.132 0.069 7.13 39.92 11.63
3/24/2021 5:45:00 PM 6.74 44.132 0.07 7.12 49.87 11.62
3/24/2021 6:00:00 PM 6.75 44.15 0.07 7.12 56.62 11.62
3/24/2021 6:15:00 PM 6.75 44.15 0.07 7.1 58.37 11.6
3/24/2021 6:30:00 PM 6.75 44.15 0.07 7.1 50.33 11.6
3/24/2021 6:45:00 PM 6.74 44.132 0.07 7.09 38.87 11.59
3/24/2021 7:00:00 PM 6.73 44.114 0.07 7.08 53.26 11.57
3/24/2021 7:15:00 PM 6.73 44.114 0.071 7.08 52.17 11.56
3/24/2021 7:30:00 PM 6.72 44.096 0.071 7.07 48.35 11.55
3/24/2021 7:45:00 PM 6.72 44.096 0.071 7.07 47.47 11.55
3/24/2021 8:00:00 PM 6.71 44.078 0.07 7.06 34.17 11.52
3/24/2021 8:15:00 PM 6.7 44.06 0.07 7.06 47.37 11.54
3/24/2021 8:30:00 PM 6.69 44.042 0.07 7.05 38.63 11.53
3/24/2021 8:45:00 PM 6.67 44.006 0.07 7.05 42.27 11.53
3/24/2021 9:00:00 PM 6.66 43.988 0.07 7.04 41.17 11.53
3/24/2021 9:15:00 PM 6.64 43.952 0.07 7.04 36.47 11.51
3/24/2021 9:30:00 PM 6.63 43.934 0.07 7.04 39.23 11.54
3/24/2021 9:45:00 PM 6.62 43.916 0.07 7.04 41.35 11.53
3/24/2021 10:00:00 PM 6.62 43.916 0.069 7.04 35.14 11.54
3/24/2021 10:15:00 PM 6.61 43.898 0.07 7.04 34.14 11.55
3/24/2021 10:30:00 PM 6.6 43.88 0.069 7.04 38.24 11.54
3/24/2021 10:45:00 PM 6.6 43.88 0.069 7.04 25.92 11.54
3/24/2021 11:00:00 PM 6.59 43.862 0.069 7.04 24.11 11.54
3/24/2021 11:15:00 PM 6.58 43.844 0.069 7.03 31.35 11.53
3/24/2021 11:30:00 PM 6.58 43.844 0.07 7.04 25.13 11.53
3/24/2021 11:45:00 PM 6.57 43.826 0.07 7.04 23.97 11.53
3/25/2021 12:00:00 AM 6.57 43.826 0.07 7.04 23.46 11.53
3/25/2021 12:15:00 AM 6.56 43.808 0.07 7.03 24.52 11.53
3/25/2021 12:30:00 AM 6.56 43.808 0.07 7.03 20.86 11.53
3/25/2021 12:45:00 AM 6.56 43.808 0.07 7.03 22.54 11.53
3/25/2021 1:00:00 AM 6.55 43.79 0.07 7.03 23.39 11.54
3/25/2021 1:15:00 AM 6.54 43.772 0.07 7.03 21.32 11.53
3/25/2021 1:30:00 AM 6.54 43.772 0.071 7.03 20.76 11.54
3/25/2021 1:45:00 AM 6.53 43.754 0.07 7.03 20.51 11.54
3/25/2021 2:00:00 AM 6.52 43.736 0.071 7.03 20.01 11.54
3/25/2021 2:15:00 AM 6.51 43.718 0.071 7.03 21.53 11.53
3/25/2021 2:30:00 AM 6.5 43.7 0.071 7.02 24.08 11.54
3/25/2021 2:45:00 AM 6.5 43.7 0.071 7.03 19.46 11.54
3/25/2021 3:00:00 AM 6.5 43.7 0.071 7.03 19.31 11.55
3/25/2021 3:15:00 AM 6.49 43.682 0.071 7.02 24.76 11.52
3/25/2021 3:30:00 AM 6.48 43.664 0.071 7.02 19.65 11.55
3/25/2021 3:45:00 AM 6.48 43.664 0.071 7.02 19.99 11.55
3/25/2021 4:00:00 AM 6.48 43.664 0.071 7.02 19.25 11.55
3/25/2021 4:15:00 AM 6.47 43.646 0.071 7.02 19.07 11.55
3/25/2021 4:30:00 AM 6.46 43.628 0.071 7.02 19.71 11.55
3/25/2021 4:45:00 AM 6.46 43.628 0.071 7.02 18.61 11.56
3/25/2021 5:00:00 AM 6.45 43.61 0.071 7.02 17.6 11.56
3/25/2021 5:15:00 AM 6.44 43.592 0.071 7.02 18.66 11.52
3/25/2021 5:30:00 AM 6.44 43.592 0.071 7.02 52.59 11.55
3/25/2021 5:45:00 AM 6.43 43.574 0.071 7.01 56.7 11.54
3/25/2021 6:00:00 AM 6.43 43.574 0.071 7.01 26.9 11.55
3/25/2021 6:15:00 AM 6.42 43.556 0.071 7.02 24.4 11.57
3/25/2021 6:30:00 AM 6.41 43.538 0.071 7 20.2 11.56
3/25/2021 6:45:00 AM 6.4 43.52 0.071 7.01 30.6 11.52
3/25/2021 7:00:00 AM 6.39 43.502 0.071 7 32.28 11.56
3/25/2021 7:15:00 AM 6.4 43.52 0.07 7 37.05 11.59
3/25/2021 7:30:00 AM 6.4 43.52 0.07 7.01 18.1 11.55
3/25/2021 7:45:00 AM 6.41 43.538 0.071 7.02 19.25 11.53
3/25/2021 8:00:00 AM 6.4 43.52 0.07 7.02 21.29 11.6
3/25/2021 8:15:00 AM 6.41 43.538 0.07 7.04 23 11.62
3/25/2021 8:30:00 AM 6.44 43.592 0.071 7.05 20.16 11.72
3/25/2021 8:45:00 AM 6.47 43.646 0.07 7.08 18.91 11.77
3/25/2021 9:00:00 AM 6.5 43.7 0.07 7.1 17.17 11.8
3/25/2021 9:15:00 AM 6.54 43.772 0.07 7.12 18.74 11.87
3/25/2021 9:30:00 AM 6.59 43.862 0.07 7.14 16.92 11.9
3/25/2021 9:45:00 AM 6.64 43.952 0.07 7.16 16.14 11.88
3/25/2021 10:00:00 AM 6.7 44.06 0.07 7.18 16.36 11.9
3/25/2021 10:15:00 AM 6.8 44.24 0.07 7.21 16.92 11.92
3/25/2021 10:30:00 AM 6.91 44.438 0.069 7.24 15.49 11.95
3/25/2021 10:45:00 AM 7.05 44.69 0.069 7.27 15.22 11.96
3/25/2021 11:00:00 AM 7.15 44.87 0.069 7.28 17.26 12
3/25/2021 11:15:00 AM 7.31 45.158 0.069 7.29 17.97 11.93
3/25/2021 11:30:00 AM 7.46 45.428 0.069 7.32 16.11 11.9
3/25/2021 11:45:00 AM 7.69 45.842 0.069 7.35 15.92 11.89
3/25/2021 12:00:00 PM 7.86 46.148 0.069 7.35 15.52 11.86
3/25/2021 12:15:00 PM 8.02 46.436 0.069 7.37 14.91 11.82
3/25/2021 12:30:00 PM 8.27 46.886 0.069 7.39 14.29 11.81
3/25/2021 12:45:00 PM 8.52 47.336 0.069 7.4 14.55 11.72
3/25/2021 1:00:00 PM 8.78 47.804 0.068 7.41 14.23 11.65
3/25/2021 1:15:00 PM 9.01 48.218 0.068 7.42 14.07 11.62
3/25/2021 1:30:00 PM 9.26 48.668 0.068 7.43 15.7 11.57
3/25/2021 1:45:00 PM 9.48 49.064 0.068 7.45 14.76 11.52
3/25/2021 2:00:00 PM 9.69 49.442 0.068 7.46 14.75 11.48
3/25/2021 2:15:00 PM 9.9 49.82 0.068 7.46 15.58 11.4
3/25/2021 2:30:00 PM 10.1 50.18 0.068 7.48 14.95 11.37
3/25/2021 2:45:00 PM 10.29 50.522 0.068 7.49 15.51 11.34
3/25/2021 3:00:00 PM 10.46 50.828 0.068 7.5 15.16 11.3
3/25/2021 3:15:00 PM 10.61 51.098 0.067 7.5 15.27 11.2
3/25/2021 3:30:00 PM 10.73 51.314 0.067 7.52 17.03 11.19
3/25/2021 3:45:00 PM 10.82 51.476 0.067 7.52 15.73 11.18
3/25/2021 4:00:00 PM 10.87 51.566 0.067 7.51 15.38 11.09
3/25/2021 4:15:00 PM 10.88 51.584 0.067 7.49 14.01 11.04
3/25/2021 4:30:00 PM 10.88 51.584 0.067 7.48 14.52 11.03
3/25/2021 4:45:00 PM 10.87 51.566 0.067 7.46 15.24 11
3/25/2021 5:00:00 PM 10.86 51.548 0.067 7.45 14.62 10.96
3/25/2021 5:15:00 PM 10.84 51.512 0.067 7.42 14.63 10.93
3/25/2021 5:30:00 PM 10.81 51.458 0.067 7.4 14.68 10.87
3/25/2021 5:45:00 PM 10.76 51.368 0.067 7.35 15.07 10.82
3/25/2021 6:00:00 PM 10.72 51.296 0.067 7.32 15.52 10.77
3/25/2021 6:15:00 PM 10.67 51.206 0.067 7.29 15.43 10.73
3/25/2021 6:30:00 PM 10.61 51.098 0.068 7.26 15.3 10.7
3/25/2021 6:45:00 PM 10.54 50.972 0.068 7.22 15.14 10.64
3/25/2021 7:00:00 PM 10.46 50.828 0.068 7.19 15.08 10.57
3/25/2021 7:15:00 PM 10.37 50.666 0.068 7.16 17.86 10.49
3/25/2021 7:30:00 PM 10.28 50.504 0.068 7.12 16.49 9.98
3/25/2021 7:45:00 PM 10.18 50.324 0.068 7.09 16.47 10.4
3/25/2021 8:00:00 PM 10.09 50.162 0.068 7.07 16.28 10.4
3/25/2021 8:15:00 PM 9.99 49.982 0.069 7.04 14.92 10.39
3/25/2021 8:30:00 PM 9.9 49.82 0.069 7.02 15.09 10.39
3/25/2021 8:45:00 PM 9.8 49.64 0.069 7.01 17.7 10.43
3/25/2021 9:00:00 PM 9.71 49.478 0.069 7 16.32 10.44
3/25/2021 9:15:00 PM 9.63 49.334 0.069 6.99 14.82 10.44
3/25/2021 9:30:00 PM 9.55 49.19 0.069 6.99 18.02 10.52
3/25/2021 9:45:00 PM 9.49 49.082 0.069 6.99 15.7 10.47
3/25/2021 10:00:00 PM 9.45 49.01 0.069 6.99 15.37 10.46
3/25/2021 10:15:00 PM 9.41 48.938 0.069 7 15.26 10.48
3/25/2021 10:30:00 PM 9.37 48.866 0.069 7 13.99 10.48
3/25/2021 10:45:00 PM 9.32 48.776 0.069 7 15.22 10.49
3/25/2021 11:00:00 PM 9.28 48.704 0.069 7 14.61 10.5
3/25/2021 11:15:00 PM 9.25 48.65 0.069 7.01 14.27 10.5
3/25/2021 11:30:00 PM 9.22 48.596 0.069 7.01 14.33 10.52
3/25/2021 11:45:00 PM 9.19 48.542 0.069 7.01 13.43 10.49
3/26/2021 12:00:00 AM 9.17 48.506 0.069 7.01 13.83 10.5
3/26/2021 12:15:00 AM 9.14 48.452 0.069 7.01 14.93 10.57
3/26/2021 12:30:00 AM 9.12 48.416 0.069 7.01 16.5 10.62
3/26/2021 12:45:00 AM 9.09 48.362 0.069 7.01 17.2 10.5
3/26/2021 1:00:00 AM 9.06 48.308 0.068 7 16.29 10.54
3/26/2021 1:15:00 AM 9.05 48.29 0.069 7.01 15.73 10.54
3/26/2021 1:30:00 AM 9.04 48.272 0.069 7.01 17.22 10.6
3/26/2021 1:45:00 AM 9.01 48.218 0.069 7.01 16.58 10.58
3/26/2021 2:00:00 AM 8.98 48.164 0.069 7.01 15.6 10.58
3/26/2021 2:15:00 AM 8.96 48.128 0.068 7.01 14.57 10.6
3/26/2021 2:30:00 AM 8.94 48.092 0.069 7.01 15.72 10.59
3/26/2021 2:45:00 AM 8.92 48.056 0.068 7.01 15.22 10.62
3/26/2021 3:00:00 AM 8.9 48.02 0.068 7.01 15.76 10.63
3/26/2021 3:15:00 AM 8.88 47.984 0.068 7 43.41 10.7
3/26/2021 3:30:00 AM 8.86 47.948 0.068 7.01 18.5 10.62
3/26/2021 3:45:00 AM 8.84 47.912 0.068 7 17.51 10.59
3/26/2021 4:00:00 AM 8.83 47.894 0.068 7.01 15.84 10.65
3/26/2021 4:15:00 AM 8.83 47.894 0.068 7.01 17.18 10.71
3/26/2021 4:30:00 AM 8.83 47.894 0.068 6.99 25.35 10.66
3/26/2021 4:45:00 AM 8.82 47.876 0.068 7 20.9 10.62
3/26/2021 5:00:00 AM 8.81 47.858 0.068 7.01 15.55 10.62
3/26/2021 5:15:00 AM 8.81 47.858 0.068 7 15.37 10.66
3/26/2021 5:30:00 AM 8.8 47.84 0.068 7.01 14.58 10.35
3/26/2021 5:45:00 AM 8.79 47.822 0.068 7.02 14.46 10.65
3/26/2021 6:00:00 AM 8.79 47.822 0.068 7.02 13.98 10.56
3/26/2021 6:15:00 AM 8.78 47.804 0.068 7.02 17.39 10.62
3/26/2021 6:30:00 AM 8.78 47.804 0.068 7.02 12.95 10.59
3/26/2021 6:45:00 AM 8.79 47.822 0.068 7.02 12.64 10.54
3/26/2021 7:00:00 AM 8.8 47.84 0.068 7.02 12.55 10.55
3/26/2021 7:15:00 AM 8.81 47.858 0.068 7.02 12.72 10.54
3/26/2021 7:30:00 AM 8.82 47.876 0.068 7.02 12.33 10.56
3/26/2021 7:45:00 AM 8.84 47.912 0.068 7.03 13.17 10.58
3/26/2021 8:00:00 AM 8.86 47.948 0.068 7.04 13.44 10.56
3/26/2021 8:15:00 AM 8.87 47.966 0.068 7.05 11.82 10.61
3/26/2021 8:30:00 AM 8.89 48.002 0.068 7.07 11.95 10.66
3/26/2021 8:45:00 AM 8.93 48.074 0.068 7.11 11.76 10.79
3/26/2021 9:00:00 AM 8.96 48.128 0.068 7.13 11.63 10.84
3/26/2021 9:15:00 AM 9.01 48.218 0.068 7.16 12.24 10.91
3/26/2021 9:30:00 AM 9.07 48.326 0.068 7.19 12.16 10.98
3/26/2021 9:45:00 AM 9.15 48.47 0.068 7.21 11.55 10.98
3/26/2021 10:00:00 AM 9.23 48.614 0.068 7.24 11.67 11.05
3/26/2021 10:15:00 AM 9.35 48.83 0.067 7.26 11.52 11.02
3/26/2021 10:30:00 AM 9.5 49.1 0.067 7.29 11.76 11.09
3/26/2021 10:45:00 AM 9.59 49.262 0.067 7.32 11.29 11.1
3/26/2021 11:00:00 AM 9.76 49.568 0.067 7.32 11.33 11.03
3/26/2021 11:15:00 AM 9.87 49.766 0.067 7.35 10.93 11.1
3/26/2021 11:30:00 AM 10.02 50.036 0.067 7.36 11.37 11.07
3/26/2021 11:45:00 AM 10.19 50.342 0.067 7.38 12.76 11.03
3/26/2021 12:00:00 PM 10.3 50.54 0.067 7.38 12.21 10.96
3/26/2021 12:15:00 PM 10.44 50.792 0.068 7.42 12.2 10.86
3/26/2021 12:30:00 PM 10.55 50.99 0.067 7.41 11.49 10.82
3/26/2021 12:45:00 PM 10.63 51.134 0.067 7.44 11.26 10.88
3/26/2021 1:00:00 PM 10.75 51.35 0.067 7.41 11.12 10.88
3/26/2021 1:15:00 PM 10.79 51.422 0.067 7.39 13.36 10.83
3/26/2021 1:30:00 PM 10.8 51.44 0.067 7.42 10.53 10.76
3/26/2021 1:45:00 PM 10.82 51.476 0.068 7.41 12.13 10.8
3/26/2021 2:00:00 PM 10.87 51.566 0.068 7.4 11 10.81
3/26/2021 2:15:00 PM 10.9 51.62 0.068 7.42 10.57 10.71
3/26/2021 2:30:00 PM 10.9 51.62 0.068 7.4 10.58 10.77
3/26/2021 2:45:00 PM 10.93 51.674 0.068 7.42 10.89 10.75
3/26/2021 3:00:00 PM 10.94 51.692 0.068 7.45 10.87 10.81
3/26/2021 3:15:00 PM 10.9 51.62 0.068 7.39 10.62 10.81
3/26/2021 3:30:00 PM 10.85 51.53 0.068 7.38 10.31 10.83
3/26/2021 3:45:00 PM 10.79 51.422 0.068 7.35 9.67 10.65
3/26/2021 4:00:00 PM 10.75 51.35 0.068 7.35 9.85 10.66
3/26/2021 4:15:00 PM 10.75 51.35 0.068 7.37 9.57 10.71
3/26/2021 4:30:00 PM 10.72 51.296 0.068 7.38 9.43 10.75
3/26/2021 4:45:00 PM 10.65 51.17 0.068 7.34 9.15 10.76
3/26/2021 5:00:00 PM 10.61 51.098 0.068 7.35 9.02 10.75
3/26/2021 5:15:00 PM 10.57 51.026 0.068 7.34 8.9 10.78
3/26/2021 5:30:00 PM 10.5 50.9 0.068 7.37 9.04 10.79
3/26/2021 5:45:00 PM 10.42 50.756 0.068 7.34 8.82 10.78
3/26/2021 6:00:00 PM 10.32 50.576 0.068 7.28 8.8 10.67
3/26/2021 6:15:00 PM 10.23 50.414 0.068 7.26 9.31 10.69
3/26/2021 6:30:00 PM 10.14 50.252 0.068 7.25 8.66 10.68
3/26/2021 6:45:00 PM 10.05 50.09 0.068 7.23 11.42 10.69
3/26/2021 7:00:00 PM 9.97 49.946 0.068 7.19 9.3 10.64
3/26/2021 7:15:00 PM 9.87 49.766 0.068 7.16 9.58 10.56
3/26/2021 7:30:00 PM 9.78 49.604 0.068 7.13 9.09 10.49
3/26/2021 7:45:00 PM 9.68 49.424 0.068 7.1 11.63 10.52
3/26/2021 8:00:00 PM 9.6 49.28 0.068 7.08 9.4 10.44
3/26/2021 8:15:00 PM 9.5 49.1 0.068 7.07 9.16 10.46
3/26/2021 8:30:00 PM 9.41 48.938 0.068 7.06 8.66 10.46
3/26/2021 8:45:00 PM 9.32 48.776 0.068 7.04 8.58 10.47
3/26/2021 9:00:00 PM 9.23 48.614 0.068 7.05 17.29 10.47
3/26/2021 9:15:00 PM 9.16 48.488 0.068 7.03 9.29 10.54
3/26/2021 9:30:00 PM 9.09 48.362 0.068 7.03 8.94 10.52
3/26/2021 9:45:00 PM 9.02 48.236 0.068 7.02 8.66 10.54
3/26/2021 10:00:00 PM 8.93 48.074 0.068 7.03 13.73 10.67
3/26/2021 10:15:00 PM 8.89 48.002 0.068 7.02 9.36 10.6
3/26/2021 10:30:00 PM 8.81 47.858 0.068 7.03 13.79 10.72
3/26/2021 10:45:00 PM 8.75 47.75 0.068 7.02 15.29 10.69
3/26/2021 11:00:00 PM 8.7 47.66 0.068 7.02 8.61 10.65
3/26/2021 11:15:00 PM 8.64 47.552 0.068 7.01 9.58 10.73
3/26/2021 11:30:00 PM 8.59 47.462 0.068 7.01 9.22 10.68
3/26/2021 11:45:00 PM 8.54 47.372 0.068 7.01 8.6 10.68
3/27/2021 12:00:00 AM 8.49 47.282 0.068 7.01 8.2 10.68
3/27/2021 12:15:00 AM 8.43 47.174 0.068 7.01 8.01 10.74
3/27/2021 12:30:00 AM 8.37 47.066 0.068 7.01 9.67 10.78
3/27/2021 12:45:00 AM 8.29 46.922 0.068 7.02 8.69 10.78
3/27/2021 1:00:00 AM 8.24 46.832 0.069 7 8.94 10.76
3/27/2021 1:15:00 AM 8.19 46.742 0.069 7 10.47 10.73
3/27/2021 1:30:00 AM 8.12 46.616 0.069 7.02 12.05 10.78
3/27/2021 1:45:00 AM 8.06 46.508 0.069 7.02 8.69 10.8
3/27/2021 2:00:00 AM 7.99 46.382 0.069 7.01 9.71 10.86
3/27/2021 2:15:00 AM 7.91 46.238 0.069 7.02 8.83 10.9
3/27/2021 2:30:00 AM 7.83 46.094 0.069 7.01 7.76 10.89
3/27/2021 2:45:00 AM 7.76 45.968 0.069 7.02 8.38 10.95
3/27/2021 3:00:00 AM 7.68 45.824 0.069 7.01 7.8 10.92
3/27/2021 3:15:00 AM 7.57 45.626 0.069 7.01 21.82 11.06
3/27/2021 3:30:00 AM 7.52 45.536 0.069 7.01 10.14 10.97
3/27/2021 3:45:00 AM 7.47 45.446 0.069 7.01 11.18 11.02
3/27/2021 4:00:00 AM 7.42 45.356 0.069 7.01 7.82 10.96
3/27/2021 4:15:00 AM 7.37 45.266 0.069 7.01 8.84 10.99
3/27/2021 4:30:00 AM 7.32 45.176 0.069 7.01 9.05 10.97
3/27/2021 4:45:00 AM 7.27 45.086 0.069 7.01 7.65 11.03
3/27/2021 5:00:00 AM 7.23 45.014 0.069 7.01 7.14 11.07
3/27/2021 5:15:00 AM 7.19 44.942 0.069 7.01 7.23 11.06
3/27/2021 5:30:00 AM 7.16 44.888 0.069 7.01 7.97 11.07
3/27/2021 5:45:00 AM 7.13 44.834 0.07 7.01 7.48 11.09
3/27/2021 6:00:00 AM 7.1 44.78 0.07 7.02 6.76 11.08
3/27/2021 6:15:00 AM 7.08 44.744 0.07 7.02 6.92 11.1
3/27/2021 6:30:00 AM 7.06 44.708 0.07 7.02 7.17 11.11
3/27/2021 6:45:00 AM 7.04 44.672 0.07 7.02 10.18 11.16
3/27/2021 7:00:00 AM 7.02 44.636 0.07 7.03 7.37 11.12
3/27/2021 7:15:00 AM 7.01 44.618 0.07 7.03 8.96 11.2
3/27/2021 7:30:00 AM 6.99 44.582 0.07 7.03 7.41 11.13
3/27/2021 7:45:00 AM 6.98 44.564 0.07 7.04 7.11 11.23
3/27/2021 8:00:00 AM 6.97 44.546 0.07 7.04 6.88 11.3
3/27/2021 8:15:00 AM 6.96 44.528 0.07 7.06 6.62 11.36
3/27/2021 8:30:00 AM 6.96 44.528 0.07 7.07 6.31 11.41
3/27/2021 8:45:00 AM 6.96 44.528 0.07 7.09 6.4 11.42
3/27/2021 9:00:00 AM 6.97 44.546 0.07 7.1 6.07 11.54
3/27/2021 9:15:00 AM 6.98 44.564 0.07 7.13 6.15 11.66
3/27/2021 9:30:00 AM 6.99 44.582 0.07 7.15 5.78 11.7
3/27/2021 9:45:00 AM 7.01 44.618 0.07 7.18 5.97 11.81
3/27/2021 10:00:00 AM 7.04 44.672 0.069 7.2 5.83 11.82
3/27/2021 10:15:00 AM 7.06 44.708 0.069 7.23 5.69 11.84
3/27/2021 10:30:00 AM 7.09 44.762 0.069 7.24 5.66 11.87
3/27/2021 10:45:00 AM 7.13 44.834 0.069 7.27 5.61 11.92
3/27/2021 11:00:00 AM 7.21 44.978 0.069 7.3 5.82 11.97
3/27/2021 11:15:00 AM 7.32 45.176 0.069 7.35 5.61 12.05
3/27/2021 11:30:00 AM 7.41 45.338 0.069 7.36 5.75 12.1
3/27/2021 11:45:00 AM 7.52 45.536 0.069 7.39 5.62 12.13
3/27/2021 12:00:00 PM 7.64 45.752 0.069 7.42 5.62 12.16
3/27/2021 12:15:00 PM 7.76 45.968 0.069 7.44 5.43 12.15
3/27/2021 12:30:00 PM 7.95 46.31 0.069 7.48 5.6 12.13
3/27/2021 12:45:00 PM 8.12 46.616 0.069 7.5 5.47 12.08
3/27/2021 1:00:00 PM 8.29 46.922 0.069 7.5 5.6 12.08
3/27/2021 1:15:00 PM 8.51 47.318 0.068 7.51 5.48 11.98
3/27/2021 1:30:00 PM 8.66 47.588 0.068 7.51 5.49 11.96
3/27/2021 1:45:00 PM 8.85 47.93 0.068 7.52 5.41 11.87
3/27/2021 2:00:00 PM 9.02 48.236 0.068 7.53 5.48 11.83
3/27/2021 2:15:00 PM 9.13 48.434 0.068 7.54 5.47 11.79
3/27/2021 2:30:00 PM 9.28 48.704 0.068 7.51 9.46 11.79
3/27/2021 2:45:00 PM 9.49 49.082 0.068 7.55 6.11 11.66
3/27/2021 3:00:00 PM 9.79 49.622 0.068 7.6 5.89 11.62
3/27/2021 3:15:00 PM 10.05 50.09 0.068 7.54 5.68 11.54
3/27/2021 3:30:00 PM 10.2 50.36 0.068 7.63 5.86 11.52
3/27/2021 3:45:00 PM 10.34 50.612 0.068 7.61 8.07 11.44
3/27/2021 4:00:00 PM 10.41 50.738 0.068 7.59 7.01 11.46
3/27/2021 4:15:00 PM 10.44 50.792 0.068 7.6 6.84 11.42
3/27/2021 4:30:00 PM 10.44 50.792 0.068 7.6 5.71 11.29
3/27/2021 4:45:00 PM 10.43 50.774 0.068 7.63 5.71 11.3
3/27/2021 5:00:00 PM 10.4 50.72 0.068 7.61 6.45 11.31
3/27/2021 5:15:00 PM 10.36 50.648 0.068 7.59 6.44 11.26
3/27/2021 5:30:00 PM 10.31 50.558 0.068 7.58 6.26 11.26
3/27/2021 5:45:00 PM 10.26 50.468 0.068 7.59 6.18 11.13
3/27/2021 6:00:00 PM 10.23 50.414 0.068 7.56 5.79 11.14
3/27/2021 6:15:00 PM 10.18 50.324 0.068 7.49 5.93 11.13
3/27/2021 6:30:00 PM 10.13 50.234 0.068 7.47 5.67 11.11
3/27/2021 6:45:00 PM 10.07 50.126 0.068 7.42 5.68 11.07
3/27/2021 7:00:00 PM 10.01 50.018 0.068 7.36 5.69 10.99
3/27/2021 7:15:00 PM 9.93 49.874 0.069 7.33 12.45 10.97
3/27/2021 7:30:00 PM 9.85 49.73 0.069 7.27 6.28 10.81
3/27/2021 7:45:00 PM 9.75 49.55 0.069 7.19 6.45 10.72
3/27/2021 8:00:00 PM 9.68 49.424 0.069 7.18 6.37 10.63
3/27/2021 8:15:00 PM 9.59 49.262 0.07 7.13 13.53 10.61
3/27/2021 8:30:00 PM 9.54 49.172 0.07 7.11 7.01 10.5
3/27/2021 8:45:00 PM 9.47 49.046 0.07 7.09 6.15 10.45
3/27/2021 9:00:00 PM 9.39 48.902 0.07 7.06 6.15 10.42
3/27/2021 9:15:00 PM 9.31 48.758 0.07 7.05 6.19 10.45
3/27/2021 9:30:00 PM 9.2 48.56 0.07 7.04 8.08 10.52
3/27/2021 9:45:00 PM 9.13 48.434 0.071 7.03 6.3 10.48
3/27/2021 10:00:00 PM 9.04 48.272 0.071 7.02 6.04 10.48
3/27/2021 10:15:00 PM 8.93 48.074 0.071 7.01 9.92 10.55
3/27/2021 10:30:00 PM 8.87 47.966 0.071 7.02 6.34 10.5
3/27/2021 10:45:00 PM 8.77 47.786 0.071 7.01 6.73 10.65
3/27/2021 11:00:00 PM 8.7 47.66 0.072 7.01 6.14 10.55
3/27/2021 11:15:00 PM 8.62 47.516 0.072 7.01 5.98 10.58
3/27/2021 11:30:00 PM 8.54 47.372 0.072 7 5.95 10.63
3/27/2021 11:45:00 PM 8.46 47.228 0.072 7.01 5.97 10.69
3/28/2021 12:00:00 AM 8.36 47.048 0.072 7.01 13.3 10.68
3/28/2021 12:15:00 AM 8.29 46.922 0.072 7.01 12.01 10.78
3/28/2021 12:30:00 AM 8.23 46.814 0.072 7.01 8.3 10.77
3/28/2021 12:45:00 AM 8.16 46.688 0.072 7.01 6.43 10.82
3/28/2021 1:00:00 AM 8.09 46.562 0.072 7.01 6.93 10.83
3/28/2021 1:15:00 AM 8.04 46.472 0.073 7.02 6.61 10.82
3/28/2021 1:30:00 AM 8 46.4 0.072 7.03 6.78 10.83
3/28/2021 1:45:00 AM 7.95 46.31 0.073 7.02 6.91 10.85
3/28/2021 2:00:00 AM 7.91 46.238 0.073 7 5.98 10.8
3/28/2021 2:15:00 AM 7.86 46.148 0.073 7.03 5.78 10.82
3/28/2021 2:30:00 AM 7.81 46.058 0.073 7.04 5.99 10.93
3/28/2021 2:45:00 AM 7.77 45.986 0.073 7.04 5.99 10.95
3/28/2021 3:00:00 AM 7.73 45.914 0.073 7.03 5.86 10.87
3/28/2021 3:15:00 AM 7.69 45.842 0.073 7.02 5.79 10.94
3/28/2021 3:30:00 AM 7.64 45.752 0.073 7.04 6.6 10.92
3/28/2021 3:45:00 AM 7.6 45.68 0.073 7.03 6.46 10.87
3/28/2021 4:00:00 AM 7.56 45.608 0.073 7.02 6.26 10.95
3/28/2021 4:15:00 AM 7.52 45.536 0.073 7.01 5.92 10.92
3/28/2021 4:30:00 AM 7.47 45.446 0.073 7.02 5.82 10.88
3/28/2021 4:45:00 AM 7.43 45.374 0.073 7.01 5.84 10.9
3/28/2021 5:00:00 AM 7.4 45.32 0.073 7.02 5.61 10.93
3/28/2021 5:15:00 AM 7.37 45.266 0.073 7.02 5.58 10.93
3/28/2021 5:30:00 AM 7.36 45.248 0.073 7.02 5.65 10.93
3/28/2021 5:45:00 AM 7.34 45.212 0.073 7.02 6.24 10.9
3/28/2021 6:00:00 AM 7.34 45.212 0.073 7.02 5.75 10.95
3/28/2021 6:15:00 AM 7.34 45.212 0.073 7.02 6.04 10.98
3/28/2021 6:30:00 AM 7.36 45.248 0.073 7.03 5.72 10.93
3/28/2021 6:45:00 AM 7.37 45.266 0.073 7.03 5.83 10.93
3/28/2021 7:00:00 AM 7.39 45.302 0.073 7.03 6.9 10.93
3/28/2021 7:15:00 AM 7.42 45.356 0.073 7.03 6.4 10.91
3/28/2021 7:30:00 AM 7.44 45.392 0.073 7.04 5.88 10.83
3/28/2021 7:45:00 AM 7.46 45.428 0.073 7.03 5.76 10.8
3/28/2021 8:00:00 AM 7.48 45.464 0.073 7.05 5.72 10.86
3/28/2021 8:15:00 AM 7.5 45.5 0.073 7.05 5.47 10.91
3/28/2021 8:30:00 AM 7.52 45.536 0.073 7.06 5.28 10.91
3/28/2021 8:45:00 AM 7.54 45.572 0.073 7.06 5.24 10.89
3/28/2021 9:00:00 AM 7.57 45.626 0.073 7.07 5.3 10.93
3/28/2021 9:15:00 AM 7.59 45.662 0.073 7.06 6.83 11.01
3/28/2021 9:30:00 AM 7.62 45.716 0.073 7.09 5.8 11.07
3/28/2021 9:45:00 AM 7.65 45.77 0.073 7.1 5.47 11.11
3/28/2021 10:00:00 AM 7.68 45.824 0.073 7.13 5.54 11.17
3/28/2021 10:15:00 AM 7.71 45.878 0.072 7.14 5.83 11.19
3/28/2021 10:30:00 AM 7.74 45.932 0.072 7.18 6.12 11.24
3/28/2021 10:45:00 AM 7.77 45.986 0.072 7.18 5.8 11.34
3/28/2021 11:00:00 AM 7.81 46.058 0.072 7.19 5.74 11.39
3/28/2021 11:15:00 AM 7.85 46.13 0.072 7.23 6.45 11.39
3/28/2021 11:30:00 AM 7.89 46.202 0.072 7.24 6.64 11.41
3/28/2021 11:45:00 AM 7.93 46.274 0.071 7.28 6.35 11.47
3/28/2021 12:00:00 PM 7.97 46.346 0.071 7.29 6.03 11.49
3/28/2021 12:15:00 PM 8.01 46.418 0.071 7.31 6.06 11.49
3/28/2021 12:30:00 PM 8.04 46.472 0.071 7.31 5.6 11.5
3/28/2021 12:45:00 PM 8.11 46.598 0.071 7.35 5.64 11.5
3/28/2021 1:00:00 PM 8.2 46.76 0.071 7.4 5.43 11.57
3/28/2021 1:15:00 PM 8.24 46.832 0.071 7.39 5.54 11.59
3/28/2021 1:30:00 PM 8.27 46.886 0.071 7.39 5.63 11.52
3/28/2021 1:45:00 PM 8.31 46.958 0.071 7.38 5.53 11.45
3/28/2021 2:00:00 PM 8.35 47.03 0.071 7.38 5.66 11.41
3/28/2021 2:15:00 PM 8.4 47.12 0.071 7.4 5.44 11.41
3/28/2021 2:30:00 PM 8.45 47.21 0.071 7.39 5.63 11.4
3/28/2021 2:45:00 PM 8.49 47.282 0.071 7.43 5.51 11.36
3/28/2021 3:00:00 PM 8.53 47.354 0.071 7.44 5.5 11.39
3/28/2021 3:15:00 PM 8.58 47.444 0.071 7.45 5.67 11.42
3/28/2021 3:30:00 PM 8.66 47.588 0.071 7.48 5.41 11.45
3/28/2021 3:45:00 PM 8.75 47.75 0.071 7.51 5.61 11.52
3/28/2021 4:00:00 PM 8.82 47.876 0.071 7.52 5.79 11.51
3/28/2021 4:15:00 PM 8.85 47.93 0.071 7.51 5.47 11.45
3/28/2021 4:30:00 PM 8.86 47.948 0.071 7.47 6.1 11.35
3/28/2021 4:45:00 PM 8.87 47.966 0.071 7.43 5.51 11.19
3/28/2021 5:00:00 PM 8.87 47.966 0.071 7.37 5.46 11.07
3/28/2021 5:15:00 PM 8.89 48.002 0.07 7.33 5.44 10.97
3/28/2021 5:30:00 PM 8.88 47.984 0.07 7.29 8.05 10.9
3/28/2021 5:45:00 PM 8.86 47.948 0.071 7.25 21.36 10.86
3/28/2021 6:00:00 PM 8.85 47.93 0.071 7.22 17.24 10.76
3/28/2021 6:15:00 PM 8.84 47.912 0.07 7.22 19 10.82
3/28/2021 6:30:00 PM 8.83 47.894 0.07 7.2 33.11 10.75
3/28/2021 6:45:00 PM 8.81 47.858 0.07 7.18 27.12 10.7
3/28/2021 7:00:00 PM 8.79 47.822 0.071 7.17 29 10.66
3/28/2021 7:15:00 PM 8.75 47.75 0.071 7.17 32.62 10.69
3/28/2021 7:30:00 PM 8.7 47.66 0.072 7.15 36.45 10.66
3/28/2021 7:45:00 PM 8.66 47.588 0.073 7.15 46.89 10.65
3/28/2021 8:00:00 PM 8.62 47.516 0.073 7.15 35.52 10.66
3/28/2021 8:15:00 PM 8.6 47.48 0.073 7.15 42.65 10.67
3/28/2021 8:30:00 PM 8.55 47.39 0.072 7.15 46.83 10.68
3/28/2021 8:45:00 PM 8.48 47.264 0.072 7.13 41.43 10.73
3/28/2021 9:00:00 PM 8.42 47.156 0.072 7.13 40.3 10.73
3/28/2021 9:15:00 PM 8.34 47.012 0.072 7.13 41 10.75
3/28/2021 9:30:00 PM 8.24 46.832 0.072 7.11 245.06 10.78
3/28/2021 9:45:00 PM 8.2 46.76 0.073 7.12 33.96 10.78
3/28/2021 10:00:00 PM 8.13 46.634 0.073 7.11 35.98 10.81
3/28/2021 10:15:00 PM 8.05 46.49 0.073 7.1 31.35 10.84
3/28/2021 10:30:00 PM 7.99 46.382 0.073 7.1 28.33 10.83
3/28/2021 10:45:00 PM 7.91 46.238 0.073 7.09 35.58 10.88
3/28/2021 11:00:00 PM 7.86 46.148 0.073 7.1 29.29 10.87
3/28/2021 11:15:00 PM 7.76 45.968 0.073 7.09 28.09 10.89
3/28/2021 11:30:00 PM 7.71 45.878 0.072 7.08 24.01 10.82
3/28/2021 11:45:00 PM 7.62 45.716 0.072 7.09 22.13 10.92
3/29/2021 12:00:00 AM 7.56 45.608 0.072 7.09 19.73 10.97
3/29/2021 12:15:00 AM 7.46 45.428 0.072 7.08 22.31 10.99
3/29/2021 12:30:00 AM 7.37 45.266 0.073 7.07 18.56 10.95
3/29/2021 12:45:00 AM 7.29 45.122 0.073 7.07 19.34 10.99
3/29/2021 1:00:00 AM 7.22 44.996 0.073 7.07 17.79 10.95
3/29/2021 1:15:00 AM 7.15 44.87 0.073 7.08 17.63 11.04
3/29/2021 1:30:00 AM 7.09 44.762 0.073 7.07 16.55 10.99
3/29/2021 1:45:00 AM 7.04 44.672 0.073 7.07 16.49 10.98
3/29/2021 2:00:00 AM 6.95 44.51 0.074 7.07 15.25 11.02
3/29/2021 2:15:00 AM 6.86 44.348 0.073 7.07 14.49 11.06
3/29/2021 2:30:00 AM 6.76 44.168 0.074 7.07 14.37 11.16
3/29/2021 2:45:00 AM 6.68 44.024 0.074 7.07 13.49 11.15
3/29/2021 3:00:00 AM 6.6 43.88 0.074 7.06 13.23 11.17
3/29/2021 3:15:00 AM 6.52 43.736 0.074 7.06 12.82 11.19
3/29/2021 3:30:00 AM 6.45 43.61 0.074 7.06 12.2 11.21
3/29/2021 3:45:00 AM 6.38 43.484 0.074 7.06 12.26 11.25
3/29/2021 4:00:00 AM 6.31 43.358 0.075 7.06 11.83 11.28
3/29/2021 4:15:00 AM 6.24 43.232 0.075 7.06 11.32 11.23
3/29/2021 4:30:00 AM 6.17 43.106 0.075 7.06 11.06 11.31
3/29/2021 4:45:00 AM 6.1 42.98 0.075 7.06 11.48 11.28
3/29/2021 5:00:00 AM 6.05 42.89 0.075 7.06 11.46 11.35
3/29/2021 5:15:00 AM 5.99 42.782 0.075 7.06 11.04 11.32
3/29/2021 5:30:00 AM 5.93 42.674 0.075 7.06 10.9 11.4
3/29/2021 5:45:00 AM 5.87 42.566 0.075 7.06 10.34 11.4
3/29/2021 6:00:00 AM 5.83 42.494 0.075 7.07 10.04 11.45
3/29/2021 6:15:00 AM 5.78 42.404 0.075 7.06 10.2 11.44
3/29/2021 6:30:00 AM 5.72 42.296 0.075 7.07 10.15 11.5
3/29/2021 6:45:00 AM 5.66 42.188 0.075 7.06 9.41 11.48
3/29/2021 7:00:00 AM 5.62 42.116 0.075 7.05 9.08 11.51
3/29/2021 7:15:00 AM 5.58 42.044 0.075 7.05 9.39 11.52
3/29/2021 7:30:00 AM 5.53 41.954 0.075 7.06 9.15 11.53
3/29/2021 7:45:00 AM 5.48 41.864 0.076 7.06 10.34 11.56
3/29/2021 8:00:00 AM 5.44 41.792 0.076 7.07 9.65 11.64
3/29/2021 8:15:00 AM 5.4 41.72 0.076 7.08 9.14 11.71
3/29/2021 8:30:00 AM 5.36 41.648 0.076 7.09 10.22 11.73
3/29/2021 8:45:00 AM 5.33 41.594 0.076 7.1 8.59 11.83
3/29/2021 9:00:00 AM 5.31 41.558 0.076 7.11 8.27 11.92
3/29/2021 9:15:00 AM 5.29 41.522 0.076 7.13 7.97 12.01
3/29/2021 9:30:00 AM 5.28 41.504 0.076 7.15 8.05 12.14
3/29/2021 9:45:00 AM 5.28 41.504 0.076 7.19 7.43 12.21
3/29/2021 10:00:00 AM 5.27 41.486 0.076 7.2 7.78 12.28
3/29/2021 10:15:00 AM 5.27 41.486 0.076 7.22 7.6 12.34
3/29/2021 10:30:00 AM 5.28 41.504 0.076 7.25 7.31 12.42
3/29/2021 10:45:00 AM 5.3 41.54 0.076 7.26 7.19 12.43
3/29/2021 11:00:00 AM 5.32 41.576 0.076 7.29 6.92 12.49
3/29/2021 11:15:00 AM 5.35 41.63 0.076 7.32 6.85 12.51
3/29/2021 11:30:00 AM 5.4 41.72 0.076 7.34 6.52 12.62
3/29/2021 11:45:00 AM 5.42 41.756 0.076 7.36 6.95 12.61
3/29/2021 12:00:00 PM 5.47 41.846 0.076 7.38 6.35 12.57
3/29/2021 12:15:00 PM 5.62 42.116 0.076 7.4 6.51 12.65
3/29/2021 12:30:00 PM 5.79 42.422 0.076 7.43 6.31 12.71
3/29/2021 12:45:00 PM 6 42.8 0.077 7.44 6.32 12.58
3/29/2021 1:00:00 PM 6.19 43.142 0.077 7.45 6.04 12.57
3/29/2021 1:15:00 PM 6.42 43.556 0.076 7.46 6.12 12.54
3/29/2021 1:30:00 PM 6.68 44.024 0.076 7.48 6.11 12.5
3/29/2021 1:45:00 PM 6.9 44.42 0.077 7.49 5.89 12.42
3/29/2021 2:00:00 PM 7.11 44.798 0.076 7.48 5.81 12.4
3/29/2021 2:15:00 PM 7.29 45.122 0.077 7.5 6.04 12.35
3/29/2021 2:30:00 PM 7.47 45.446 0.076 7.5 5.84 12.28
3/29/2021 2:45:00 PM 7.67 45.806 0.077 7.52 6.07 12.25
3/29/2021 3:00:00 PM 7.85 46.13 0.076 7.52 5.79 12.23
3/29/2021 3:15:00 PM 7.99 46.382 0.077 7.52 5.71 12.15
3/29/2021 3:30:00 PM 8.12 46.616 0.076 7.53 5.82 12.11
3/29/2021 3:45:00 PM 8.22 46.796 0.077 7.53 5.73 11.99
3/29/2021 4:00:00 PM 8.28 46.904 0.077 7.54 5.78 12.03
3/29/2021 4:15:00 PM 8.33 46.994 0.077 7.55 5.62 12.01
3/29/2021 4:30:00 PM 8.36 47.048 0.077 7.55 5.46 12.01
3/29/2021 4:45:00 PM 8.36 47.048 0.077 7.55 5.47 11.97
3/29/2021 5:00:00 PM 8.35 47.03 0.077 7.53 5.43 11.92
3/29/2021 5:15:00 PM 8.32 46.976 0.077 7.53 5.35 11.89
3/29/2021 5:30:00 PM 8.27 46.886 0.077 7.52 5.26 11.91
3/29/2021 5:45:00 PM 8.2 46.76 0.077 7.46 5.55 11.75
3/29/2021 6:00:00 PM 8.13 46.634 0.077 7.47 5.41 11.79
3/29/2021 6:15:00 PM 8.04 46.472 0.077 7.46 5.42 11.77
3/29/2021 6:30:00 PM 7.93 46.274 0.077 7.43 5.37 11.72
3/29/2021 6:45:00 PM 7.81 46.058 0.077 7.4 5.29 11.63
3/29/2021 7:00:00 PM 7.68 45.824 0.077 7.35 5.2 11.53
3/29/2021 7:15:00 PM 7.55 45.59 0.077 7.3 5.34 11.44
3/29/2021 7:30:00 PM 7.43 45.374 0.078 7.27 6.04 11.44
3/29/2021 7:45:00 PM 7.32 45.176 0.078 7.22 5.73 11.33
3/29/2021 8:00:00 PM 7.2 44.96 0.078 7.18 5.88 11.34
3/29/2021 8:15:00 PM 7.08 44.744 0.078 7.15 8 11.27
3/29/2021 8:30:00 PM 6.98 44.564 0.078 7.12 7.68 11.25
3/29/2021 8:45:00 PM 6.88 44.384 0.078 7.1 5.81 11.22
3/29/2021 9:00:00 PM 6.76 44.168 0.078 7.09 5.69 11.29
3/29/2021 9:15:00 PM 6.65 43.97 0.078 7.08 5.55 11.3
3/29/2021 9:30:00 PM 6.53 43.754 0.078 7.08 5.76 11.35
3/29/2021 9:45:00 PM 6.4 43.52 0.079 7.07 7.07 11.43
3/29/2021 10:00:00 PM 6.29 43.322 0.079 7.06 7.2 11.44
3/29/2021 10:15:00 PM 6.19 43.142 0.079 7.05 7.03 11.48
3/29/2021 10:30:00 PM 6.09 42.962 0.079 7.06 6.47 11.52
3/29/2021 10:45:00 PM 6 42.8 0.079 7.04 5.68 11.39
3/29/2021 11:00:00 PM 5.9 42.62 0.079 7.06 5.54 11.47
3/29/2021 11:15:00 PM 5.81 42.458 0.079 7.04 5.35 11.46
3/29/2021 11:30:00 PM 5.71 42.278 0.079 7.04 5.85 11.56
3/29/2021 11:45:00 PM 5.62 42.116 0.079 7.05 5.73 11.64
3/30/2021 12:00:00 AM 5.54 41.972 0.079 7.03 5.84 11.53
3/30/2021 12:15:00 AM 5.44 41.792 0.079 7.04 7.21 11.66
3/30/2021 12:30:00 AM 5.37 41.666 0.079 7.04 5.4 11.6
3/30/2021 12:45:00 AM 5.28 41.504 0.079 7.05 5.8 11.71
3/30/2021 1:00:00 AM 5.21 41.378 0.079 7.04 5.68 11.65
3/30/2021 1:15:00 AM 5.14 41.252 0.079 7.03 5.27 11.68
3/30/2021 1:30:00 AM 5.07 41.126 0.08 7.03 5.27 11.72
3/30/2021 1:45:00 AM 5 41 0.079 7.03 6.47 11.75
3/30/2021 2:00:00 AM 4.93 40.874 0.079 7.03 5.48 11.81
3/30/2021 2:15:00 AM 4.87 40.766 0.079 7.04 5.29 11.83
3/30/2021 2:30:00 AM 4.8 40.64 0.079 7.04 5.04 11.86
3/30/2021 2:45:00 AM 4.74 40.532 0.079 7.04 5.15 11.88
3/30/2021 3:00:00 AM 4.67 40.406 0.08 7.04 5.54 11.87
3/30/2021 3:15:00 AM 4.61 40.298 0.08 7.04 5.19 11.92
3/30/2021 3:30:00 AM 4.55 40.19 0.08 7.03 5.31 11.92
3/30/2021 3:45:00 AM 4.49 40.082 0.08 7.03 5.18 11.97
3/30/2021 4:00:00 AM 4.43 39.974 0.08 7.03 5.12 11.96
3/30/2021 4:15:00 AM 4.37 39.866 0.08 7.03 4.97 12.01
3/30/2021 4:30:00 AM 4.31 39.758 0.08 7.03 4.9 12
3/30/2021 4:45:00 AM 4.25 39.65 0.08 7.03 4.92 12.05
3/30/2021 5:00:00 AM 4.2 39.56 0.08 7.03 4.89 12.05
3/30/2021 5:15:00 AM 4.14 39.452 0.08 7.03 4.87 12.07
3/30/2021 5:30:00 AM 4.09 39.362 0.08 7.03 4.86 12.1
3/30/2021 5:45:00 AM 4.03 39.254 0.08 7.03 4.88 12.09
3/30/2021 6:00:00 AM 3.98 39.164 0.08 7.02 4.88 12.16
3/30/2021 6:15:00 AM 3.93 39.074 0.08 7.03 4.87 12.21
3/30/2021 6:30:00 AM 3.87 38.966 0.08 7.03 4.82 12.16
3/30/2021 6:45:00 AM 3.82 38.876 0.08 7.04 5 12.22
3/30/2021 7:00:00 AM 3.77 38.786 0.08 7.03 5.61 12.16
3/30/2021 7:15:00 AM 3.72 38.696 0.08 7.04 15.58 12.31
3/30/2021 7:30:00 AM 3.67 38.606 0.08 7.04 9.46 12.32
3/30/2021 7:45:00 AM 3.64 38.552 0.08 7.05 11.99 12.35
3/30/2021 8:00:00 AM 3.61 38.498 0.08 7.06 18.86 12.57
3/30/2021 8:15:00 AM 3.59 38.462 0.08 7.08 17.96 12.56
3/30/2021 8:30:00 AM 3.57 38.426 0.08 7.09 7.33 12.62
3/30/2021 8:45:00 AM 3.57 38.426 0.08 7.12 8.77 12.83
3/30/2021 9:00:00 AM 3.58 38.444 0.08 7.13 5.19 12.74
3/30/2021 9:15:00 AM 3.61 38.498 0.08 7.15 5.37 12.82
3/30/2021 9:30:00 AM 3.66 38.588 0.079 7.17 7.81 12.89
3/30/2021 9:45:00 AM 3.75 38.75 0.079 7.21 12.58 12.98
3/30/2021 10:00:00 AM 3.85 38.93 0.079 7.22 8.7 12.99
3/30/2021 10:15:00 AM 3.97 39.146 0.079 7.24 5.16 12.98
3/30/2021 10:30:00 AM 4.11 39.398 0.079 7.26 5.2 12.99
3/30/2021 10:45:00 AM 4.28 39.704 0.079 7.28 4.6 12.98
3/30/2021 11:00:00 AM 4.47 40.046 0.078 7.31 4.93 12.98
3/30/2021 11:15:00 AM 4.69 40.442 0.078 7.32 4.79 12.93
3/30/2021 11:30:00 AM 4.92 40.856 0.078 7.34 4.66 12.93
3/30/2021 11:45:00 AM 5.19 41.342 0.078 7.37 4.62 12.89
3/30/2021 12:00:00 PM 5.48 41.864 0.078 7.39 4.79 12.82
3/30/2021 12:15:00 PM 5.79 42.422 0.078 7.39 4.76 12.77
3/30/2021 12:30:00 PM 6.11 42.998 0.078 7.42 5.13 12.69
3/30/2021 12:45:00 PM 6.45 43.61 0.078 7.45 4.85 12.63
3/30/2021 1:00:00 PM 6.79 44.222 0.078 7.47 4.42 12.56
3/30/2021 1:15:00 PM 7.12 44.816 0.078 7.49 4.61 12.47
3/30/2021 1:30:00 PM 7.45 45.41 0.078 7.5 4.57 12.42
3/30/2021 1:45:00 PM 7.77 45.986 0.077 7.51 4.5 12.32
3/30/2021 2:00:00 PM 8.06 46.508 0.077 7.52 4.41 12.24
3/30/2021 2:15:00 PM 8.35 47.03 0.077 7.55 4.37 12.16
3/30/2021 2:30:00 PM 8.61 47.498 0.077 7.55 4.42 12.08
3/30/2021 2:45:00 PM 8.86 47.948 0.077 7.6 4.38 11.99
3/30/2021 3:00:00 PM 9.08 48.344 0.077 7.6 4.26 11.87
3/30/2021 3:15:00 PM 9.27 48.686 0.077 7.62 4.24 11.85
3/30/2021 3:30:00 PM 9.43 48.974 0.077 7.61 4.45 11.82
3/30/2021 3:45:00 PM 9.57 49.226 0.077 7.64 4.39 11.76
3/30/2021 4:00:00 PM 9.69 49.442 0.077 7.62 4.26 11.7
3/30/2021 4:15:00 PM 9.78 49.604 0.077 7.67 4.74 11.66
3/30/2021 4:30:00 PM 9.84 49.712 0.077 7.64 5.04 11.71
3/30/2021 4:45:00 PM 9.86 49.748 0.077 7.64 5.32 11.64
3/30/2021 5:00:00 PM 9.86 49.748 0.077 7.65 5.4 11.57
3/30/2021 5:15:00 PM 9.84 49.712 0.077 7.64 5.36 11.55
3/30/2021 5:30:00 PM 9.79 49.622 0.077 7.63 5.22 11.52
3/30/2021 5:45:00 PM 9.72 49.496 0.077 7.59 4.98 11.47
3/30/2021 6:00:00 PM 9.63 49.334 0.077 7.56 4.79 11.39
3/30/2021 6:15:00 PM 9.55 49.19 0.077 7.51 4.73 11.34
3/30/2021 6:30:00 PM 9.47 49.046 0.077 7.5 4.7 11.31
3/30/2021 6:45:00 PM 9.37 48.866 0.077 7.47 4.6 11.28
3/30/2021 7:00:00 PM 9.25 48.65 0.077 7.4 4.61 11.17
3/30/2021 7:15:00 PM 9.12 48.416 0.077 7.36 5.32 11.22
3/30/2021 7:30:00 PM 9.02 48.236 0.078 7.31 4.85 10.95
3/30/2021 7:45:00 PM 8.89 48.002 0.078 7.24 5.49 10.98
3/30/2021 8:00:00 PM 8.79 47.822 0.078 7.2 5.54 10.91
3/30/2021 8:15:00 PM 8.71 47.678 0.078 7.16 5.27 10.72
3/30/2021 8:30:00 PM 8.62 47.516 0.078 7.13 4.88 10.65
3/30/2021 8:45:00 PM 8.53 47.354 0.078 7.11 4.86 10.63
3/30/2021 9:00:00 PM 8.44 47.192 0.078 7.09 4.85 10.6
3/30/2021 9:15:00 PM 8.34 47.012 0.078 7.07 5.39 10.71
3/30/2021 9:30:00 PM 8.25 46.85 0.078 7.06 5.49 10.65
3/30/2021 9:45:00 PM 8.17 46.706 0.078 7.07 4.98 10.67
3/30/2021 10:00:00 PM 8.09 46.562 0.078 7.05 4.75 10.66
3/30/2021 10:15:00 PM 8 46.4 0.078 7.05 4.68 10.65
3/30/2021 10:30:00 PM 7.92 46.256 0.078 7.05 4.86 10.8
3/30/2021 10:45:00 PM 7.85 46.13 0.078 7.04 4.9 10.8
3/30/2021 11:00:00 PM 7.77 45.986 0.078 7.04 6.08 10.75
3/30/2021 11:15:00 PM 7.71 45.878 0.079 7.05 5.53 10.88
3/30/2021 11:30:00 PM 7.64 45.752 0.078 7.05 5.64 10.9
3/30/2021 11:45:00 PM 7.58 45.644 0.078 7.03 35.54 10.85
3/31/2021 12:00:00 AM 7.52 45.536 0.078 7.06 6.13 10.99
3/31/2021 12:15:00 AM 7.47 45.446 0.078 7.05 5.05 11
3/31/2021 12:30:00 AM 7.41 45.338 0.078 7.05 8.93 11.02
3/31/2021 12:45:00 AM 7.37 45.266 0.078 7.06 8.49 11.02
3/31/2021 1:00:00 AM 7.33 45.194 0.078 7.05 6.09 11
3/31/2021 1:15:00 AM 7.29 45.122 0.078 7.05 5.17 10.88
3/31/2021 1:30:00 AM 7.25 45.05 0.078 7.05 5.69 10.88
3/31/2021 1:45:00 AM 7.21 44.978 0.078 7.05 5.06 10.88
3/31/2021 2:00:00 AM 7.17 44.906 0.078 7.04 4.69 10.89
3/31/2021 2:15:00 AM 7.14 44.852 0.078 7.04 4.65 10.87
3/31/2021 2:30:00 AM 7.1 44.78 0.078 7.04 4.83 10.89
3/31/2021 2:45:00 AM 7.07 44.726 0.078 7.04 4.88 10.87
3/31/2021 3:00:00 AM 7.03 44.654 0.078 7.03 4.67 10.98
3/31/2021 3:15:00 AM 7 44.6 0.078 7.04 4.51 10.94
3/31/2021 3:30:00 AM 6.97 44.546 0.078 7.04 4.67 10.94
3/31/2021 3:45:00 AM 6.94 44.492 0.078 7.04 4.54 10.89
3/31/2021 4:00:00 AM 6.91 44.438 0.078 7.04 4.53 10.96
3/31/2021 4:15:00 AM 6.88 44.384 0.078 7.04 4.68 10.96
3/31/2021 4:30:00 AM 6.86 44.348 0.078 7.05 4.59 10.97
3/31/2021 4:45:00 AM 6.83 44.294 0.078 7.05 4.73 10.99
3/31/2021 5:00:00 AM 6.8 44.24 0.078 7.05 4.71 10.99
3/31/2021 5:15:00 AM 6.78 44.204 0.078 7.05 4.67 11.03
3/31/2021 5:30:00 AM 6.76 44.168 0.078 7.05 4.46 11.04
3/31/2021 5:45:00 AM 6.74 44.132 0.078 7.05 4.5 11.03
3/31/2021 6:00:00 AM 6.73 44.114 0.078 7.05 4.39 11.06
3/31/2021 6:15:00 AM 6.72 44.096 0.078 7.05 4.5 11.05
3/31/2021 6:30:00 AM 6.7 44.06 0.078 7.05 8.04 11.15
3/31/2021 6:45:00 AM 6.69 44.042 0.078 7.05 9.38 11.09
3/31/2021 7:00:00 AM 6.69 44.042 0.078 7.05 4.77 11.06
3/31/2021 7:15:00 AM 6.68 44.024 0.078 7.06 4.79 11.07
3/31/2021 7:30:00 AM 6.68 44.024 0.078 7.06 4.69 11.08
3/31/2021 7:45:00 AM 6.69 44.042 0.077 7.07 5.83 11.19
3/31/2021 8:00:00 AM 6.7 44.06 0.077 7.08 5.69 11.18
3/31/2021 8:15:00 AM 6.71 44.078 0.077 7.09 4.73 11.32
3/31/2021 8:30:00 AM 6.74 44.132 0.077 7.14 8.86 11.47
3/31/2021 8:45:00 AM 6.77 44.186 0.077 7.13 5.05 11.46
3/31/2021 9:00:00 AM 6.81 44.258 0.077 7.17 4.9 11.59
3/31/2021 9:15:00 AM 6.85 44.33 0.077 7.19 4.76 11.77
3/31/2021 9:30:00 AM 6.89 44.402 0.077 7.23 5.15 11.82
3/31/2021 9:45:00 AM 6.93 44.474 0.077 7.27 4.36 11.95
3/31/2021 10:00:00 AM 6.98 44.564 0.076 7.31 4.38 12.04
3/31/2021 10:15:00 AM 7.05 44.69 0.076 7.33 4.18 12.04
3/31/2021 10:30:00 AM 7.12 44.816 0.076 7.36 4.22 12.12
3/31/2021 10:45:00 AM 7.2 44.96 0.076 7.39 4.12 12.18
3/31/2021 11:00:00 AM 7.28 45.104 0.076 7.43 4.12 12.21
3/31/2021 11:15:00 AM 7.36 45.248 0.076 7.47 4.23 12.21
3/31/2021 11:30:00 AM 7.43 45.374 0.076 7.49 4.05 12.2
3/31/2021 11:45:00 AM 7.49 45.482 0.076 7.5 4.11 12.16
3/31/2021 12:00:00 PM 7.54 45.572 0.075 7.51 4.02 12.11
3/31/2021 12:15:00 PM 7.59 45.662 0.076 7.52 4.01 12.11
3/31/2021 12:30:00 PM 7.64 45.752 0.075 7.5 4.07 12.03
3/31/2021 12:45:00 PM 7.69 45.842 0.076 7.52 4.07 12.01
3/31/2021 1:00:00 PM 7.74 45.932 0.075 7.52 4.21 11.99
3/31/2021 1:15:00 PM 7.81 46.058 0.075 7.52 4.12 12.01
3/31/2021 1:30:00 PM 7.86 46.148 0.075 7.54 4.07 12
3/31/2021 1:45:00 PM 7.93 46.274 0.075 7.55 4.18 12.04
3/31/2021 2:00:00 PM 8 46.4 0.075 7.58 4.23 11.98
3/31/2021 2:15:00 PM 8.07 46.526 0.075 7.56 4.37 12.01
3/31/2021 2:30:00 PM 8.13 46.634 0.075 7.61 4.34 11.99
3/31/2021 2:45:00 PM 8.18 46.724 0.075 7.6 4.27 11.95
3/31/2021 3:00:00 PM 8.22 46.796 0.075 7.6 4.27 11.89
3/31/2021 3:15:00 PM 8.26 46.868 0.074 7.55 4.34 11.78
3/31/2021 3:30:00 PM 8.29 46.922 0.074 7.53 4.25 11.68
3/31/2021 3:45:00 PM 8.32 46.976 0.075 7.52 4.33 11.66
3/31/2021 4:00:00 PM 8.34 47.012 0.075 7.47 4.42 11.58
3/31/2021 4:15:00 PM 8.35 47.03 0.075 7.44 4.48 11.46
3/31/2021 4:30:00 PM 8.36 47.048 0.075 7.41 4.53 11.4
3/31/2021 4:45:00 PM 8.36 47.048 0.075 7.38 4.51 11.25
3/31/2021 5:00:00 PM 8.35 47.03 0.075 7.34 4.46 11.17
3/31/2021 5:15:00 PM 8.35 47.03 0.075 7.32 4.37 11.05
3/31/2021 5:30:00 PM 8.34 47.012 0.075 7.29 4.41 10.97
3/31/2021 5:45:00 PM 8.33 46.994 0.075 7.27 4.38 10.91
3/31/2021 6:00:00 PM 8.32 46.976 0.075 7.24 4.43 10.93
3/31/2021 6:15:00 PM 8.31 46.958 0.075 7.22 4.47 10.89
3/31/2021 6:30:00 PM 8.3 46.94 0.075 7.2 4.43 10.78
3/31/2021 6:45:00 PM 8.28 46.904 0.075 7.19 4.48 10.76
3/31/2021 7:00:00 PM 8.27 46.886 0.075 7.17 4.7 10.78
3/31/2021 7:15:00 PM 8.26 46.868 0.076 7.15 4.54 10.77
3/31/2021 7:30:00 PM 8.25 46.85 0.076 7.11 5.09 10.83
3/31/2021 7:45:00 PM 8.23 46.814 0.076 7.1 5.1 10.71
3/31/2021 8:00:00 PM 8.2 46.76 0.076 7.09 8.93 10.8
3/31/2021 8:15:00 PM 8.17 46.706 0.076 7.09 5.38 10.72
3/31/2021 8:30:00 PM 8.13 46.634 0.076 7.08 5.42 10.56
3/31/2021 8:45:00 PM 8.1 46.58 0.076 7.08 5.47 10.56
3/31/2021 9:00:00 PM 8.06 46.508 0.076 7.07 5.18 10.61
3/31/2021 9:15:00 PM 8.01 46.418 0.076 7.07 5.31 10.58
3/31/2021 9:30:00 PM 7.97 46.346 0.076 7.07 5.29 10.58
3/31/2021 9:45:00 PM 7.92 46.256 0.076 7.07 5.28 10.64
3/31/2021 10:00:00 PM 7.87 46.166 0.076 7.07 5.63 10.63
3/31/2021 10:15:00 PM 7.82 46.076 0.076 7.07 5.97 10.64
3/31/2021 10:30:00 PM 7.77 45.986 0.076 7.07 6.39 10.7
3/31/2021 10:45:00 PM 7.71 45.878 0.076 7.07 6.52 10.67
3/31/2021 11:00:00 PM 7.65 45.77 0.076 7.05 10.19 10.84
3/31/2021 11:15:00 PM 7.61 45.698 0.076 7.07 6.9 10.8
3/31/2021 11:30:00 PM 7.56 45.608 0.076 7.08 7 10.95
3/31/2021 11:45:00 PM 7.51 45.518 0.076 7.07 6.23 10.92
4/1/2021 12:00:00 AM 7.46 45.428 0.076 7.09 6.31 10.8
4/1/2021 12:15:00 AM 7.41 45.338 0.076 7.06 6.45 10.94
4/1/2021 12:30:00 AM 7.37 45.266 0.076 7.06 6.42 10.88
4/1/2021 12:45:00 AM 7.32 45.176 0.076 7.07 6.21 10.85
4/1/2021 1:00:00 AM 7.28 45.104 0.077 7.07 6.31 10.88
4/1/2021 1:15:00 AM 7.23 45.014 0.077 7.06 6 10.9
4/1/2021 1:30:00 AM 7.19 44.942 0.077 7.06 5.77 10.87
4/1/2021 1:45:00 AM 7.14 44.852 0.077 7.06 5.83 10.87
4/1/2021 2:00:00 AM 7.09 44.762 0.077 7.07 5.79 10.95
4/1/2021 2:15:00 AM 7.03 44.654 0.077 7.06 5.78 10.92
4/1/2021 2:30:00 AM 6.97 44.546 0.077 7.07 7.93 11.08
4/1/2021 2:45:00 AM 6.92 44.456 0.077 7.07 5.98 11.05
4/1/2021 3:00:00 AM 6.88 44.384 0.077 7.07 5.71 11.06
4/1/2021 3:15:00 AM 6.82 44.276 0.077 7.07 6.22 11.14
4/1/2021 3:30:00 AM 6.76 44.168 0.077 7.06 5.45 11.03
4/1/2021 3:45:00 AM 6.7 44.06 0.077 7.06 5.41 11.02
4/1/2021 4:00:00 AM 6.61 43.898 0.077 7.06 7.4 11.17
4/1/2021 4:15:00 AM 6.51 43.718 0.077 7.04 9.53 11.09
4/1/2021 4:30:00 AM 6.42 43.556 0.078 7.06 7.4 11.07
4/1/2021 4:45:00 AM 6.32 43.376 0.077 7.04 6.94 11.16
4/1/2021 5:00:00 AM 6.21 43.178 0.077 7.07 7.85 11.23
4/1/2021 5:15:00 AM 6.13 43.034 0.077 7.05 6.58 11.16
4/1/2021 5:30:00 AM 6.01 42.818 0.077 7.05 6.11 11.22
4/1/2021 5:45:00 AM 5.89 42.602 0.077 7.05 6.23 11.25
4/1/2021 6:00:00 AM 5.79 42.422 0.077 7.05 6 11.3
4/1/2021 6:15:00 AM 5.7 42.26 0.078 7.05 6.24 11.31
4/1/2021 6:30:00 AM 5.58 42.044 0.078 7.05 6.71 11.35
4/1/2021 6:45:00 AM 5.46 41.828 0.078 7.06 6.94 11.4
4/1/2021 7:00:00 AM 5.35 41.63 0.078 7.05 7.06 11.4
4/1/2021 7:15:00 AM 5.25 41.45 0.078 7.05 6.92 11.46
4/1/2021 7:30:00 AM 5.16 41.288 0.078 7.06 7.26 11.5
4/1/2021 7:45:00 AM 5.09 41.162 0.079 7.06 7 11.54
4/1/2021 8:00:00 AM 5.04 41.072 0.079 7.07 7.2 11.62
4/1/2021 8:15:00 AM 5.01 41.018 0.078 7.09 7.02 11.75
4/1/2021 8:30:00 AM 4.99 40.982 0.078 7.11 6.94 11.85
4/1/2021 8:45:00 AM 4.97 40.946 0.078 7.15 7.01 12.12
4/1/2021 9:00:00 AM 4.96 40.928 0.078 7.17 6.47 12.21
4/1/2021 9:15:00 AM 4.96 40.928 0.078 7.2 6.19 12.35
4/1/2021 9:30:00 AM 4.96 40.928 0.078 7.23 5.98 12.43
4/1/2021 9:45:00 AM 4.97 40.946 0.078 7.26 5.89 12.56
4/1/2021 10:00:00 AM 4.98 40.964 0.079 7.29 5.88 12.6
4/1/2021 10:15:00 AM 5.01 41.018 0.079 7.32 5.85 12.7
4/1/2021 10:30:00 AM 5.04 41.072 0.079 7.35 5.51 12.77
4/1/2021 10:45:00 AM 5.11 41.198 0.079 7.4 5.28 12.81
4/1/2021 11:00:00 AM 5.19 41.342 0.079 7.43 5.14 12.83
4/1/2021 11:15:00 AM 5.31 41.558 0.079 7.46 5.2 12.84
4/1/2021 11:30:00 AM 5.4 41.72 0.079 7.46 5.13 12.83
4/1/2021 11:45:00 AM 5.51 41.918 0.079 7.49 5.11 12.83
4/1/2021 12:00:00 PM 5.67 42.206 0.079 7.49 4.99 12.74
4/1/2021 12:15:00 PM 5.85 42.53 0.079 7.51 4.91 12.72
4/1/2021 12:30:00 PM 6.04 42.872 0.08 7.52 5.08 12.72
4/1/2021 12:45:00 PM 6.26 43.268 0.079 7.54 4.93 12.62
4/1/2021 1:00:00 PM 6.48 43.664 0.08 7.57 4.68 12.58
4/1/2021 1:15:00 PM 6.72 44.096 0.08 7.58 4.96 12.51
4/1/2021 1:30:00 PM 6.85 44.33 0.079 7.57 4.81 12.54
4/1/2021 1:45:00 PM 6.96 44.528 0.08 7.58 4.91 12.49
4/1/2021 2:00:00 PM 7.12 44.816 0.08 7.59 4.88 12.46
4/1/2021 2:15:00 PM 7.3 45.14 0.08 7.64 4.77 12.32
4/1/2021 2:30:00 PM 7.45 45.41 0.08 7.62 5.11 12.34
4/1/2021 2:45:00 PM 7.53 45.554 0.08 7.67 9.28 12.32
4/1/2021 3:00:00 PM 7.56 45.608 0.08 7.72 8.33 12.33
4/1/2021 3:15:00 PM 7.55 45.59 0.08 7.67 5.02 12.27
4/1/2021 3:30:00 PM 7.55 45.59 0.08 7.65 4.81 12.22
4/1/2021 3:45:00 PM 7.58 45.644 0.08 7.67 4.96 12.23
4/1/2021 4:00:00 PM 7.68 45.824 0.08 7.69 4.89 12.21
4/1/2021 4:15:00 PM 7.76 45.968 0.08 7.68 4.98 12.15
4/1/2021 4:30:00 PM 7.76 45.968 0.08 7.67 5.05 12.19
4/1/2021 4:45:00 PM 7.67 45.806 0.08 7.66 4.96 12.08
4/1/2021 5:00:00 PM 7.54 45.572 0.08 7.66 5 12.12
4/1/2021 5:15:00 PM 7.38 45.284 0.08 7.58 5.1 11.92
4/1/2021 5:30:00 PM 7.23 45.014 0.08 7.54 4.98 11.96
4/1/2021 5:45:00 PM 7.13 44.834 0.08 7.54 5.01 12.04
4/1/2021 6:00:00 PM 7.02 44.636 0.08 7.52 5.15 12.01
4/1/2021 6:15:00 PM 6.86 44.348 0.08 7.49 5.17 12
4/1/2021 6:30:00 PM 6.72 44.096 0.08 7.47 4.92 11.94
4/1/2021 6:45:00 PM 6.61 43.898 0.081 7.44 5.15 11.91
4/1/2021 7:00:00 PM 6.49 43.682 0.081 7.37 5.24 11.8
4/1/2021 7:15:00 PM 6.38 43.484 0.081 7.33 5.08 11.78
4/1/2021 7:30:00 PM 6.28 43.304 0.081 7.3 5.3 11.74
4/1/2021 7:45:00 PM 6.16 43.088 0.081 7.26 5.64 11.68
4/1/2021 8:00:00 PM 6.05 42.89 0.081 7.23 5.23 11.62
4/1/2021 8:15:00 PM 5.92 42.656 0.082 7.2 5.57 11.56
4/1/2021 8:30:00 PM 5.8 42.44 0.082 7.17 5.34 11.54
4/1/2021 8:45:00 PM 5.69 42.242 0.082 7.15 5.39 11.53
4/1/2021 9:00:00 PM 5.58 42.044 0.082 7.14 5.36 11.55
4/1/2021 9:15:00 PM 5.45 41.81 0.082 7.12 582.29 11.66
4/1/2021 9:30:00 PM 5.38 41.684 0.082 7.12 7.36 11.68
4/1/2021 9:45:00 PM 5.3 41.54 0.083 7.12 5.57 11.57
4/1/2021 10:00:00 PM 5.22 41.396 0.083 7.11 5.47 11.7
4/1/2021 10:15:00 PM 5.13 41.234 0.083 7.11 5.31 11.65
4/1/2021 10:30:00 PM 5.05 41.09 0.083 7.1 5.79 11.69
4/1/2021 10:45:00 PM 4.97 40.946 0.083 7.1 5.09 11.77
4/1/2021 11:00:00 PM 4.89 40.802 0.083 7.09 5.09 11.69
4/1/2021 11:15:00 PM 4.79 40.622 0.083 7.09 5.2 11.72
4/1/2021 11:30:00 PM 4.7 40.46 0.083 7.09 5.05 11.77
4/1/2021 11:45:00 PM 4.62 40.316 0.083 7.1 6.12 11.82
4/2/2021 12:00:00 AM 4.52 40.136 0.083 7.08 6.56 11.94
4/2/2021 12:15:00 AM 4.46 40.028 0.083 7.08 5.64 11.93
4/2/2021 12:30:00 AM 4.37 39.866 0.083 7.08 5.08 11.89
4/2/2021 12:45:00 AM 4.28 39.704 0.083 7.08 5.09 11.9
4/2/2021 1:00:00 AM 4.21 39.578 0.084 7.08 4.72 11.95
4/2/2021 1:15:00 AM 4.13 39.434 0.083 7.08 4.7 11.96
4/2/2021 1:30:00 AM 4.04 39.272 0.084 7.08 4.66 11.94
4/2/2021 1:45:00 AM 3.96 39.128 0.084 7.08 4.81 11.98
4/2/2021 2:00:00 AM 3.89 39.002 0.084 7.08 4.7 12.03
4/2/2021 2:15:00 AM 3.81 38.858 0.083 7.08 4.62 12.09
4/2/2021 2:30:00 AM 3.7 38.66 0.083 7.07 6.28 12.17
4/2/2021 2:45:00 AM 3.61 38.498 0.083 7.07 5.07 12.2
4/2/2021 3:00:00 AM 3.52 38.336 0.083 7.07 4.59 12.16
4/2/2021 3:15:00 AM 3.43 38.174 0.083 7.07 4.71 12.18
4/2/2021 3:30:00 AM 3.35 38.03 0.083 7.06 4.48 12.2
4/2/2021 3:45:00 AM 3.26 37.868 0.083 7.07 4.58 12.24
4/2/2021 4:00:00 AM 3.19 37.742 0.083 7.07 4.4 12.27
4/2/2021 4:15:00 AM 3.12 37.616 0.083 7.07 4.43 12.3
4/2/2021 4:30:00 AM 3.05 37.49 0.083 7.06 4.3 12.33
4/2/2021 4:45:00 AM 3 37.4 0.083 7.07 4.45 12.38
4/2/2021 5:00:00 AM 2.95 37.31 0.084 7.07 4.36 12.37
4/2/2021 5:15:00 AM 2.9 37.22 0.083 7.06 4.23 12.36
4/2/2021 5:30:00 AM 2.85 37.13 0.083 7.06 4.32 12.46
4/2/2021 5:45:00 AM 2.81 37.058 0.083 7.06 5.4 12.45
4/2/2021 6:00:00 AM 2.76 36.968 0.083 7.06 4.38 12.47
4/2/2021 6:15:00 AM 2.71 36.878 0.083 7.07 4.3 12.46
4/2/2021 6:30:00 AM 2.66 36.788 0.083 7.07 4.85 12.45
4/2/2021 6:45:00 AM 2.6 36.68 0.084 7.06 4.78 12.58
4/2/2021 7:00:00 AM 2.55 36.59 0.084 7.07 4.42 12.54
4/2/2021 7:15:00 AM 2.49 36.482 0.084 7.06 10.17 12.64
4/2/2021 7:30:00 AM 2.45 36.41 0.084 7.08 4.84 12.69
4/2/2021 7:45:00 AM 2.41 36.338 0.084 7.08 4.61 12.68
4/2/2021 8:00:00 AM 2.37 36.266 0.083 7.1 4.28 12.85
4/2/2021 8:15:00 AM 2.33 36.194 0.083 7.11 4.1 12.92
4/2/2021 8:30:00 AM 2.31 36.158 0.083 7.12 7.94 13.01
4/2/2021 8:45:00 AM 2.31 36.158 0.083 7.15 4.21 13.2
4/2/2021 9:00:00 AM 2.31 36.158 0.083 7.17 4.09 13.22
4/2/2021 9:15:00 AM 2.29 36.122 0.083 7.2 4.09 13.32
4/2/2021 9:30:00 AM 2.33 36.194 0.083 7.24 4.02 13.48
4/2/2021 9:45:00 AM 2.37 36.266 0.083 7.25 4.03 13.45
4/2/2021 10:00:00 AM 2.39 36.302 0.083 7.29 4.01 13.59
4/2/2021 10:15:00 AM 2.43 36.374 0.082 7.31 3.95 13.63
4/2/2021 10:30:00 AM 2.47 36.446 0.082 7.33 3.96 13.61
4/2/2021 10:45:00 AM 2.54 36.572 0.082 7.34 3.9 13.64
4/2/2021 11:00:00 AM 2.62 36.716 0.082 7.36 3.86 13.71
4/2/2021 11:15:00 AM 2.72 36.896 0.082 7.37 3.89 13.6
4/2/2021 11:30:00 AM 2.82 37.076 0.082 7.39 3.9 13.66
4/2/2021 11:45:00 AM 2.92 37.256 0.082 7.4 3.98 13.63
4/2/2021 12:00:00 PM 3.12 37.616 0.082 7.42 3.83 13.63
4/2/2021 12:15:00 PM 3.33 37.994 0.082 7.42 4.17 13.42
4/2/2021 12:30:00 PM 3.54 38.372 0.082 7.45 3.93 13.57
4/2/2021 12:45:00 PM 3.77 38.786 0.082 7.46 4.06 13.52
4/2/2021 1:00:00 PM 4 39.2 0.081 7.46 3.94 13.41
4/2/2021 1:15:00 PM 4.21 39.578 0.081 7.46 3.82 13.43
4/2/2021 1:30:00 PM 4.41 39.938 0.081 7.46 3.85 13.37
4/2/2021 1:45:00 PM 4.62 40.316 0.081 7.46 3.85 13.27
4/2/2021 2:00:00 PM 4.83 40.694 0.081 7.45 4.11 13.26
4/2/2021 2:15:00 PM 5.09 41.162 0.081 7.45 4.03 13.2
4/2/2021 2:30:00 PM 5.32 41.576 0.081 7.49 4.23 13.18
4/2/2021 2:45:00 PM 5.54 41.972 0.081 7.48 4.22 13.09
4/2/2021 3:00:00 PM 5.73 42.314 0.081 7.5 4.43 12.98
4/2/2021 3:15:00 PM 5.88 42.584 0.081 7.47 4.61 12.92
4/2/2021 3:30:00 PM 6.01 42.818 0.081 7.47 4.8 12.86
4/2/2021 3:45:00 PM 6.12 43.016 0.08 7.5 5.11 12.84
4/2/2021 4:00:00 PM 6.21 43.178 0.081 7.48 4.99 12.78
4/2/2021 4:15:00 PM 6.26 43.268 0.081 7.51 4.84 12.75
4/2/2021 4:30:00 PM 6.28 43.304 0.081 7.49 4.66 12.67
4/2/2021 4:45:00 PM 6.27 43.286 0.081 7.43 4.57 12.59
4/2/2021 5:00:00 PM 6.23 43.214 0.081 7.49 4.46 12.65
4/2/2021 5:15:00 PM 6.17 43.106 0.081 7.49 4.33 12.53
4/2/2021 5:30:00 PM 6.08 42.944 0.081 7.5 4.27 12.59
4/2/2021 5:45:00 PM 5.98 42.764 0.081 7.48 4.23 12.59
4/2/2021 6:00:00 PM 5.87 42.566 0.081 7.47 4.23 12.52
4/2/2021 6:15:00 PM 5.76 42.368 0.081 7.46 4.16 12.51
4/2/2021 6:30:00 PM 5.62 42.116 0.081 7.42 4.17 12.49
4/2/2021 6:45:00 PM 5.46 41.828 0.081 7.4 4.31 12.41
4/2/2021 7:00:00 PM 5.29 41.522 0.081 7.38 4.88 12.41
4/2/2021 7:15:00 PM 5.11 41.198 0.081 7.35 4.34 12.39
4/2/2021 7:30:00 PM 4.93 40.874 0.082 7.3 4.17 12.31
4/2/2021 7:45:00 PM 4.76 40.568 0.081 7.27 4.35 12.25
4/2/2021 8:00:00 PM 4.61 40.298 0.082 7.24 4.32 12.19
4/2/2021 8:15:00 PM 4.47 40.046 0.082 7.21 4.26 12.12
4/2/2021 8:30:00 PM 4.35 39.83 0.082 7.17 4.08 12.11
4/2/2021 8:45:00 PM 4.24 39.632 0.082 7.16 4.02 12.02
4/2/2021 9:00:00 PM 4.14 39.452 0.082 7.14 4.02 12.09
4/2/2021 9:15:00 PM 4.04 39.272 0.083 7.12 4.23 12.02
4/2/2021 9:30:00 PM 3.95 39.11 0.083 7.12 3.93 11.98
4/2/2021 9:45:00 PM 3.86 38.948 0.083 7.1 4.01 12.03
4/2/2021 10:00:00 PM 3.76 38.768 0.083 7.09 4.06 12.05
4/2/2021 10:15:00 PM 3.66 38.588 0.083 7.09 4.02 12.06
4/2/2021 10:30:00 PM 3.55 38.39 0.083 7.07 4 12.09
4/2/2021 10:45:00 PM 3.46 38.228 0.084 7.08 4.04 12.25
4/2/2021 11:00:00 PM 3.37 38.066 0.084 7.07 3.97 12.17
4/2/2021 11:15:00 PM 3.28 37.904 0.084 7.08 3.93 12.22
4/2/2021 11:30:00 PM 3.19 37.742 0.084 7.07 3.96 12.18
4/2/2021 11:45:00 PM 3.1 37.58 0.084 7.06 3.95 12.28
4/3/2021 12:00:00 AM 3.01 37.418 0.084 7.06 3.9 12.3
4/3/2021 12:15:00 AM 2.93 37.274 0.084 7.06 3.85 12.32
4/3/2021 12:30:00 AM 2.84 37.112 0.084 7.06 3.9 12.45
4/3/2021 12:45:00 AM 2.76 36.968 0.084 7.05 3.87 12.38
4/3/2021 1:00:00 AM 2.68 36.824 0.084 7.06 3.87 12.46
4/3/2021 1:15:00 AM 2.6 36.68 0.084 7.05 3.96 12.39
4/3/2021 1:30:00 AM 2.52 36.536 0.084 7.05 3.82 12.52
4/3/2021 1:45:00 AM 2.45 36.41 0.084 7.05 3.74 12.47
4/3/2021 2:00:00 AM 2.37 36.266 0.084 7.05 3.79 12.49
4/3/2021 2:15:00 AM 2.3 36.14 0.084 7.06 3.73 12.58
4/3/2021 2:30:00 AM 2.23 36.014 0.084 7.04 3.78 12.56
4/3/2021 2:45:00 AM 2.17 35.906 0.084 7.05 3.86 12.75
4/3/2021 3:00:00 AM 2.09 35.762 0.084 7.05 3.71 12.71
4/3/2021 3:15:00 AM 2.02 35.636 0.084 7.05 3.75 12.7
4/3/2021 3:30:00 AM 1.96 35.528 0.084 7.05 3.64 12.72
4/3/2021 3:45:00 AM 1.9 35.42 0.085 7.05 3.78 12.81
4/3/2021 4:00:00 AM 1.83 35.294 0.085 7.05 3.9 12.76
4/3/2021 4:15:00 AM 1.77 35.186 0.085 7.05 3.75 12.82
4/3/2021 4:30:00 AM 1.71 35.078 0.085 7.05 3.74 12.86
4/3/2021 4:45:00 AM 1.66 34.988 0.085 7.05 3.83 12.93
4/3/2021 5:00:00 AM 1.6 34.88 0.085 7.05 3.84 12.88
4/3/2021 5:15:00 AM 1.55 34.79 0.085 7.05 3.78 12.95
4/3/2021 5:30:00 AM 1.5 34.7 0.085 7.06 3.75 12.96
4/3/2021 5:45:00 AM 1.44 34.592 0.085 7.06 3.64 13.01
4/3/2021 6:00:00 AM 1.4 34.52 0.085 7.05 3.7 13.01
4/3/2021 6:15:00 AM 1.35 34.43 0.085 7.05 3.96 13.07
4/3/2021 6:30:00 AM 1.3 34.34 0.085 7.05 3.87 12.95
4/3/2021 6:45:00 AM 1.25 34.25 0.085 7.05 3.76 13.04
4/3/2021 7:00:00 AM 1.21 34.178 0.085 7.05 3.78 13.18
4/3/2021 7:15:00 AM 1.17 34.106 0.085 7.05 3.7 13.18
4/3/2021 7:30:00 AM 1.13 34.034 0.085 7.05 3.65 13.2
4/3/2021 7:45:00 AM 1.11 33.998 0.085 7.07 3.7 13.28
4/3/2021 8:00:00 AM 1.07 33.926 0.085 7.08 3.67 13.43
4/3/2021 8:15:00 AM 1.06 33.908 0.085 7.09 3.78 13.49
4/3/2021 8:30:00 AM 1.05 33.89 0.085 7.11 3.71 13.59
4/3/2021 8:45:00 AM 1.05 33.89 0.085 7.12 3.66 13.58
4/3/2021 9:00:00 AM 1.07 33.926 0.085 7.14 3.85 13.73
4/3/2021 9:15:00 AM 1.11 33.998 0.085 7.14 3.79 13.8
4/3/2021 9:30:00 AM 1.16 34.088 0.084 7.17 3.63 13.77
4/3/2021 9:45:00 AM 1.24 34.232 0.084 7.18 3.9 13.81
4/3/2021 10:00:00 AM 1.34 34.412 0.084 7.2 3.91 13.76
4/3/2021 10:15:00 AM 1.46 34.628 0.084 7.21 3.8 13.88
4/3/2021 10:30:00 AM 1.58 34.844 0.084 7.24 3.72 13.92
4/3/2021 10:45:00 AM 1.72 35.096 0.084 7.27 3.59 13.83
4/3/2021 11:00:00 AM 1.88 35.384 0.084 7.28 3.6 13.82
4/3/2021 11:15:00 AM 2.07 35.726 0.084 7.28 3.58 13.73
4/3/2021 11:30:00 AM 2.27 36.086 0.084 7.31 3.66 13.69
4/3/2021 11:45:00 AM 2.5 36.5 0.083 7.32 3.67 13.78
4/3/2021 12:00:00 PM 2.76 36.968 0.083 7.33 3.71 13.74
4/3/2021 12:15:00 PM 3.05 37.49 0.083 7.34 3.8 13.72
4/3/2021 12:30:00 PM 3.37 38.066 0.083 7.36 3.93 13.65
4/3/2021 12:45:00 PM 3.71 38.678 0.083 7.34 3.92 13.65
4/3/2021 1:00:00 PM 4.04 39.272 0.082 7.38 4.31 13.58
4/3/2021 1:15:00 PM 4.38 39.884 0.082 7.38 3.85 13.52
4/3/2021 1:30:00 PM 4.72 40.496 0.082 7.4 3.91 13.45
4/3/2021 1:45:00 PM 5.05 41.09 0.082 7.39 3.97 13.35
4/3/2021 2:00:00 PM 5.37 41.666 0.081 7.44 4.1 13.27
4/3/2021 2:15:00 PM 5.67 42.206 0.082 7.44 4.08 13.13
4/3/2021 2:30:00 PM 5.94 42.692 0.081 7.45 4.54 12.99
4/3/2021 2:45:00 PM 6.19 43.142 0.081 7.46 4.84 12.92
4/3/2021 3:00:00 PM 6.43 43.574 0.081 7.47 5.11 12.88
4/3/2021 3:15:00 PM 6.65 43.97 0.081 7.5 5.55 12.83
4/3/2021 3:30:00 PM 6.81 44.258 0.081 7.51 6.35 12.78
4/3/2021 3:45:00 PM 6.98 44.564 0.081 7.49 5.51 12.69
4/3/2021 4:00:00 PM 7.08 44.744 0.081 7.49 5.15 12.64
4/3/2021 4:15:00 PM 7.13 44.834 0.081 7.53 5.14 12.68
4/3/2021 4:30:00 PM 7.13 44.834 0.081 7.51 4.81 12.51
4/3/2021 4:45:00 PM 7.11 44.798 0.08 7.52 4.97 12.45
4/3/2021 5:00:00 PM 7.04 44.672 0.081 7.53 4.52 12.32
4/3/2021 5:15:00 PM 6.94 44.492 0.08 7.51 4.42 12.27
4/3/2021 5:30:00 PM 6.87 44.366 0.08 7.46 4.38 12.13
4/3/2021 5:45:00 PM 6.78 44.204 0.08 7.46 4.46 12.18
4/3/2021 6:00:00 PM 6.69 44.042 0.08 7.47 4.17 12.22
4/3/2021 6:15:00 PM 6.59 43.862 0.08 7.45 4.23 12.2
4/3/2021 6:30:00 PM 6.5 43.7 0.08 7.44 4.19 12.21
4/3/2021 6:45:00 PM 6.42 43.556 0.08 7.41 6.76 12.26
4/3/2021 7:00:00 PM 6.36 43.448 0.08 7.4 4.67 12.14
4/3/2021 7:15:00 PM 6.29 43.322 0.08 7.39 5.04 12.14
4/3/2021 7:30:00 PM 6.2 43.16 0.08 7.37 4.8 12.08
4/3/2021 7:45:00 PM 6.09 42.962 0.08 7.33 7.31 12.08
4/3/2021 8:00:00 PM 5.96 42.728 0.08 7.28 7.47 11.84
4/3/2021 8:15:00 PM 5.81 42.458 0.081 7.23 10.47 11.9
4/3/2021 8:30:00 PM 5.73 42.314 0.081 7.19 8.34 11.77
4/3/2021 8:45:00 PM 5.65 42.17 0.081 7.17 5.93 11.78
4/3/2021 9:00:00 PM 5.54 41.972 0.081 7.14 10.77 11.75
4/3/2021 9:15:00 PM 5.43 41.774 0.081 7.12 8.19 11.67
4/3/2021 9:30:00 PM 5.33 41.594 0.082 7.1 8.93 11.73
4/3/2021 9:45:00 PM 5.25 41.45 0.082 7.09 16.33 11.68
4/3/2021 10:00:00 PM 5.15 41.27 0.082 7.08 6.02 11.73
4/3/2021 10:15:00 PM 5.06 41.108 0.082 7.07 11.44 11.75
4/3/2021 10:30:00 PM 4.96 40.928 0.083 7.07 9.17 11.81
4/3/2021 10:45:00 PM 4.89 40.802 0.082 7.06 5.02 11.8
4/3/2021 11:00:00 PM 4.81 40.658 0.082 7.06 5.51 11.83
4/3/2021 11:15:00 PM 4.74 40.532 0.082 7.06 6.43 11.88
4/3/2021 11:30:00 PM 4.69 40.442 0.083 7.07 5.73 11.86
4/3/2021 11:45:00 PM 4.63 40.334 0.083 7.06 4.71 11.83
4/4/2021 12:00:00 AM 4.57 40.226 0.083 7.06 4.52 11.7
4/4/2021 12:15:00 AM 4.54 40.172 0.083 7.06 4.74 11.86
4/4/2021 12:30:00 AM 4.48 40.064 0.083 7.06 4.43 11.91
4/4/2021 12:45:00 AM 4.44 39.992 0.083 7.06 5.32 11.94
4/4/2021 1:00:00 AM 4.4 39.92 0.083 7.05 5.68 11.98
4/4/2021 1:15:00 AM 4.37 39.866 0.083 7.06 4.13 11.92
4/4/2021 1:30:00 AM 4.34 39.812 0.083 7.06 4.74 11.99
4/4/2021 1:45:00 AM 4.3 39.74 0.085 7.06 4.53 11.96
4/4/2021 2:00:00 AM 4.28 39.704 0.083 7.03 4.44 11.94
4/4/2021 2:15:00 AM 4.25 39.65 0.083 7.05 4.13 11.97
4/4/2021 2:30:00 AM 4.23 39.614 0.083 7.05 4.1 11.99
4/4/2021 2:45:00 AM 4.2 39.56 0.083 7.05 4.04 12.01
4/4/2021 3:00:00 AM 4.18 39.524 0.083 7.05 4.28 12.01
4/4/2021 3:15:00 AM 4.16 39.488 0.083 7.05 4.08 12.01
4/4/2021 3:30:00 AM 4.14 39.452 0.083 7.05 3.97 12.01
4/4/2021 3:45:00 AM 4.13 39.434 0.084 7.05 4.08 12.02
4/4/2021 4:00:00 AM 4.11 39.398 0.083 7.05 3.99 12.02
4/4/2021 4:15:00 AM 4.1 39.38 0.083 7.05 4.4 12.02
4/4/2021 4:30:00 AM 4.08 39.344 0.083 7.05 4.29 12.04
4/4/2021 4:45:00 AM 4.07 39.326 0.084 7.05 4.6 12.04
4/4/2021 5:00:00 AM 4.06 39.308 0.083 7.04 4.65 12.03
4/4/2021 5:15:00 AM 4.05 39.29 0.084 7.05 4.62 12.02
4/4/2021 5:30:00 AM 4.04 39.272 0.084 7.05 4.2 12.04
4/4/2021 5:45:00 AM 4.02 39.236 0.083 7.04 4.19 12.03
4/4/2021 6:00:00 AM 4.01 39.218 0.084 7.05 4.5 12.03
4/4/2021 6:15:00 AM 4 39.2 0.083 7.05 3.97 12.05
4/4/2021 6:30:00 AM 3.99 39.182 0.084 7.04 4.02 12.05
4/4/2021 6:45:00 AM 3.98 39.164 0.084 7.04 4.7 12
4/4/2021 7:00:00 AM 3.96 39.128 0.084 7.04 5.32 12
4/4/2021 7:15:00 AM 3.95 39.11 0.084 7.05 6.27 12.01
4/4/2021 7:30:00 AM 3.94 39.092 0.084 7.05 6.88 12.1
4/4/2021 7:45:00 AM 3.93 39.074 0.084 7.07 3.93 12.21
4/4/2021 8:00:00 AM 3.92 39.056 0.083 7.09 3.86 12.38
4/4/2021 8:15:00 AM 3.92 39.056 0.083 7.11 3.94 12.53
4/4/2021 8:30:00 AM 3.92 39.056 0.083 7.13 4 12.59
4/4/2021 8:45:00 AM 3.93 39.074 0.083 7.17 3.72 12.71
4/4/2021 9:00:00 AM 3.95 39.11 0.083 7.19 3.77 12.82
4/4/2021 9:15:00 AM 3.98 39.164 0.083 7.22 3.78 12.91
4/4/2021 9:30:00 AM 4.03 39.254 0.083 7.25 3.72 12.98
4/4/2021 9:45:00 AM 4.1 39.38 0.083 7.29 3.79 13.06
4/4/2021 10:00:00 AM 4.2 39.56 0.082 7.31 3.58 13.12
4/4/2021 10:15:00 AM 4.31 39.758 0.082 7.35 3.8 13.18
4/4/2021 10:30:00 AM 4.44 39.992 0.082 7.38 3.64 13.19
4/4/2021 10:45:00 AM 4.59 40.262 0.082 7.42 3.59 13.21
4/4/2021 11:00:00 AM 4.75 40.55 0.082 7.45 3.63 13.24
4/4/2021 11:15:00 AM 4.93 40.874 0.081 7.48 3.6 13.23
4/4/2021 11:30:00 AM 5.14 41.252 0.081 7.5 3.66 13.21
4/4/2021 11:45:00 AM 5.36 41.648 0.081 7.51 3.59 13.17
4/4/2021 12:00:00 PM 5.61 42.098 0.081 7.54 3.54 13.14
4/4/2021 12:15:00 PM 5.89 42.602 0.081 7.58 3.61 13.1
4/4/2021 12:30:00 PM 6.18 43.124 0.081 7.61 3.58 13.06
4/4/2021 12:45:00 PM 6.47 43.646 0.081 7.64 3.55 12.98
4/4/2021 1:00:00 PM 6.79 44.222 0.08 7.64 3.55 12.89
4/4/2021 1:15:00 PM 7.1 44.78 0.08 7.67 3.59 12.83
4/4/2021 1:30:00 PM 7.38 45.284 0.08 7.67 3.58 12.71
4/4/2021 1:45:00 PM 7.67 45.806 0.08 7.71 3.55 12.63
4/4/2021 2:00:00 PM 7.95 46.31 0.08 7.75 3.64 12.61
4/4/2021 2:15:00 PM 8.19 46.742 0.08 7.79 3.63 12.55
4/4/2021 2:30:00 PM 8.38 47.084 0.08 7.8 3.67 12.5
4/4/2021 2:45:00 PM 8.57 47.426 0.08 7.83 3.67 12.43
4/4/2021 3:00:00 PM 8.77 47.786 0.08 7.85 3.75 12.35
4/4/2021 3:15:00 PM 8.97 48.146 0.08 7.9 3.7 12.31
4/4/2021 3:30:00 PM 9.12 48.416 0.08 7.86 3.69 12.24
4/4/2021 3:45:00 PM 9.22 48.596 0.079 7.88 3.79 12.17
4/4/2021 4:00:00 PM 9.28 48.704 0.079 7.89 4.44 12.03
4/4/2021 4:15:00 PM 9.26 48.668 0.078 7.84 3.94 11.91
4/4/2021 4:30:00 PM 9.19 48.542 0.078 7.79 4.18 11.69
4/4/2021 4:45:00 PM 9.08 48.344 0.078 7.7 4.22 11.75
4/4/2021 5:00:00 PM 8.98 48.164 0.078 7.7 3.97 11.7
4/4/2021 5:15:00 PM 8.97 48.146 0.077 7.72 4.05 11.8
4/4/2021 5:30:00 PM 8.99 48.182 0.077 7.75 4.13 11.9
4/4/2021 5:45:00 PM 9 48.2 0.077 7.71 4.3 11.82
4/4/2021 6:00:00 PM 8.97 48.146 0.077 7.71 4.21 11.72
4/4/2021 6:15:00 PM 8.92 48.056 0.077 7.66 4.34 11.71
4/4/2021 6:30:00 PM 8.83 47.894 0.076 7.61 4.24 11.58
4/4/2021 6:45:00 PM 8.72 47.696 0.077 7.58 4.22 11.52
4/4/2021 7:00:00 PM 8.6 47.48 0.076 7.47 9.1 11.41
4/4/2021 7:15:00 PM 8.46 47.228 0.077 7.45 5.14 11.38
4/4/2021 7:30:00 PM 8.31 46.958 0.077 7.39 4.65 11.32
4/4/2021 7:45:00 PM 8.12 46.616 0.077 7.34 4.53 11.3
4/4/2021 8:00:00 PM 7.98 46.364 0.077 7.27 7.65 11.19
4/4/2021 8:15:00 PM 7.85 46.13 0.078 7.21 5.94 11.12
4/4/2021 8:30:00 PM 7.75 45.95 0.078 7.18 5.52 11.08
4/4/2021 8:45:00 PM 7.65 45.77 0.078 7.14 8.98 10.96
4/4/2021 9:00:00 PM 7.55 45.59 0.078 7.12 6.52 10.93
4/4/2021 9:15:00 PM 7.45 45.41 0.079 7.1 5.29 10.97
4/4/2021 9:30:00 PM 7.36 45.248 0.079 7.09 4.82 10.96
4/4/2021 9:45:00 PM 7.26 45.068 0.079 7.08 4.93 11
4/4/2021 10:00:00 PM 7.17 44.906 0.079 7.07 4.47 10.99
4/4/2021 10:15:00 PM 7.08 44.744 0.079 7.06 4.89 11
4/4/2021 10:30:00 PM 6.99 44.582 0.079 7.06 4.57 11.02
4/4/2021 10:45:00 PM 6.9 44.42 0.079 7.05 4.39 11.06
4/4/2021 11:00:00 PM 6.79 44.222 0.079 7.05 4.9 11.1
4/4/2021 11:15:00 PM 6.7 44.06 0.079 7.05 4.98 11.06
4/4/2021 11:30:00 PM 6.6 43.88 0.08 7.04 5.15 11.12
4/4/2021 11:45:00 PM 6.49 43.682 0.08 7.05 6.36 11.2
4/5/2021 12:00:00 AM 6.41 43.538 0.081 7.04 9.27 11.24
4/5/2021 12:15:00 AM 6.33 43.394 0.081 7.05 5.07 11.26
4/5/2021 12:30:00 AM 6.22 43.196 0.082 7.04 11.45 11.29
4/5/2021 12:45:00 AM 6.13 43.034 0.082 7.04 5.97 11.31
4/5/2021 1:00:00 AM 6.02 42.836 0.082 7.03 12.84 11.35
4/5/2021 1:15:00 AM 5.97 42.746 0.082 7.04 4.86 11.35
4/5/2021 1:30:00 AM 5.86 42.548 0.083 7.04 7.92 11.37
4/5/2021 1:45:00 AM 5.78 42.404 0.083 7.05 14.84 11.43
4/5/2021 2:00:00 AM 5.71 42.278 0.083 7.04 7.57 11.37
4/5/2021 2:15:00 AM 5.61 42.098 0.084 7.04 5.49 11.45
4/5/2021 2:30:00 AM 5.53 41.954 0.085 7.04 4.71 11.45
4/5/2021 2:45:00 AM 5.46 41.828 0.085 7.04 5.68 11.46
4/5/2021 3:00:00 AM 5.38 41.684 0.087 7.03 4.17 11.5
4/5/2021 3:15:00 AM 5.3 41.54 0.088 7.04 5.04 11.56
4/5/2021 3:30:00 AM 5.21 41.378 0.089 7.05 7.68 11.63
4/5/2021 3:45:00 AM 5.14 41.252 0.09 7.04 4.77 11.58
4/5/2021 4:00:00 AM 5.08 41.144 0.092 7.05 4.75 11.63
4/5/2021 4:15:00 AM 5 41 0.093 7.05 4.31 11.66
4/5/2021 4:30:00 AM 4.94 40.892 0.095 7.05 4.89 11.67
4/5/2021 4:45:00 AM 4.87 40.766 0.097 7.04 4.64 11.69
4/5/2021 5:00:00 AM 4.8 40.64 0.099 7.05 4.24 11.7
4/5/2021 5:15:00 AM 4.74 40.532 0.101 7.05 3.83 11.69
4/5/2021 5:30:00 AM 4.67 40.406 0.103 7.05 4.79 11.71
4/5/2021 5:45:00 AM 4.61 40.298 0.104 7.05 3.97 11.75
4/5/2021 6:00:00 AM 4.54 40.172 0.105 7.05 3.83 11.78
4/5/2021 6:15:00 AM 4.47 40.046 0.107 7.05 3.87 11.81
4/5/2021 6:30:00 AM 4.41 39.938 0.107 7.06 4.09 11.81
4/5/2021 6:45:00 AM 4.34 39.812 0.108 7.06 3.96 11.82
4/5/2021 7:00:00 AM 4.28 39.704 0.109 7.06 3.91 11.86
4/5/2021 7:15:00 AM 4.22 39.596 0.109 7.06 3.85 11.93
4/5/2021 7:30:00 AM 4.17 39.506 0.11 7.07 3.76 12.03
4/5/2021 7:45:00 AM 4.13 39.434 0.11 7.08 3.94 12.14
4/5/2021 8:00:00 AM 4.09 39.362 0.111 7.1 4.38 12.26
4/5/2021 8:15:00 AM 4.06 39.308 0.112 7.13 4.65 12.33
4/5/2021 8:30:00 AM 4.04 39.272 0.111 7.14 4.54 12.51
4/5/2021 8:45:00 AM 4.04 39.272 0.111 7.16 4.16 12.59
4/5/2021 9:00:00 AM 4.04 39.272 0.112 7.2 3.79 12.71
4/5/2021 9:15:00 AM 4.07 39.326 0.112 7.23 3.81 12.78
4/5/2021 9:30:00 AM 4.12 39.416 0.112 7.25 3.62 12.86
4/5/2021 9:45:00 AM 4.2 39.56 0.112 7.27 3.95 12.92
4/5/2021 10:00:00 AM 4.3 39.74 0.112 7.32 3.79 12.97
4/5/2021 10:15:00 AM 4.42 39.956 0.112 7.34 3.57 13.01
4/5/2021 10:30:00 AM 4.55 40.19 0.112 7.36 3.67 13.06
4/5/2021 10:45:00 AM 4.71 40.478 0.112 7.4 3.46 13.05
4/5/2021 11:00:00 AM 4.9 40.82 0.111 7.42 3.61 13.09
4/5/2021 11:15:00 AM 5.11 41.198 0.112 7.46 3.45 13.09
4/5/2021 11:30:00 AM 5.32 41.576 0.112 7.48 3.41 13.07
4/5/2021 11:45:00 AM 5.55 41.99 0.111 7.52 3.54 13.06
4/5/2021 12:00:00 PM 5.82 42.476 0.112 7.54 3.68 13.02
4/5/2021 12:15:00 PM 6.11 42.998 0.107 7.54 3.77 12.95
4/5/2021 12:30:00 PM 6.44 43.592 0.1 7.57 3.53 12.92
4/5/2021 12:45:00 PM 6.77 44.186 0.108 7.62 3.46 12.85
4/5/2021 1:00:00 PM 7.1 44.78 0.092 7.64 3.47 12.75
4/5/2021 1:15:00 PM 7.43 45.374 0.089 7.69 3.5 12.69
4/5/2021 1:30:00 PM 7.77 45.986 0.105 7.72 3.45 12.58
4/5/2021 1:45:00 PM 8.08 46.544 0.106 7.76 3.33 12.47
4/5/2021 2:00:00 PM 8.4 47.12 0.098 7.81 3.3 12.5
4/5/2021 2:15:00 PM 8.7 47.66 0.109 7.87 3.18 12.34
4/5/2021 2:30:00 PM 8.96 48.128 0.107 7.89 3.24 12.32
4/5/2021 2:45:00 PM 9.22 48.596 0.09 7.92 3.37 12.18
4/5/2021 3:00:00 PM 9.45 49.01 0.09 7.89 3.32 12.12
4/5/2021 3:15:00 PM 9.66 49.388 0.096 7.93 3.49 12.06
4/5/2021 3:30:00 PM 9.85 49.73 0.095 8.02 3.35 12.11
4/5/2021 3:45:00 PM 10 50 0.091 8.03 3.32 12.06
4/5/2021 4:00:00 PM 10.12 50.216 0.107 8.01 3.58 11.97
4/5/2021 4:15:00 PM 10.22 50.396 0.09 7.99 3.24 11.92
4/5/2021 4:30:00 PM 10.27 50.486 0.105 8.06 3.46 11.89
4/5/2021 4:45:00 PM 10.29 50.522 0.091 8.03 3.25 11.82
4/5/2021 5:00:00 PM 10.28 50.504 0.096 8.02 3.26 11.76
4/5/2021 5:15:00 PM 10.24 50.432 0.106 7.99 3.37 11.71
4/5/2021 5:30:00 PM 10.17 50.306 0.089 8.01 3.28 11.65
4/5/2021 5:45:00 PM 10.09 50.162 0.088 7.97 3.27 11.69
4/5/2021 6:00:00 PM 9.97 49.946 0.103 7.92 3.44 11.57
4/5/2021 6:15:00 PM 9.82 49.676 0.087 7.91 4.34 11.59
4/5/2021 6:30:00 PM 9.67 49.406 0.089 7.84 3.58 11.59
4/5/2021 6:45:00 PM 9.52 49.136 0.106 7.79 3.58 11.51
4/5/2021 7:00:00 PM 9.35 48.83 0.104 7.71 3.5 11.46
4/5/2021 7:15:00 PM 9.19 48.542 0.095 7.63 3.49 11.45
4/5/2021 7:30:00 PM 9.02 48.236 0.094 7.51 3.64 11.3
4/5/2021 7:45:00 PM 8.83 47.894 0.104 7.41 27.07 11.13
4/5/2021 8:00:00 PM 8.65 47.57 0.083 7.35 12.51 10.93
4/5/2021 8:15:00 PM 8.53 47.354 0.088 7.3 7.28 10.92
4/5/2021 8:30:00 PM 8.4 47.12 0.107 7.25 4.44 10.86
4/5/2021 8:45:00 PM 8.3 46.94 0.091 7.21 3.89 10.79
4/5/2021 9:00:00 PM 8.18 46.724 0.087 7.18 3.62 10.76
4/5/2021 9:15:00 PM 8.08 46.544 0.098 7.15 4.59 10.73
4/5/2021 9:30:00 PM 7.98 46.364 0.116 7.14 3.57 10.72
4/5/2021 9:45:00 PM 7.89 46.202 0.102 7.12 3.82 10.74
4/5/2021 10:00:00 PM 7.8 46.04 0.105 7.11 3.89 10.72
4/5/2021 10:15:00 PM 7.68 45.824 0.08 7.1 4.32 10.78
4/5/2021 10:30:00 PM 7.6 45.68 0.093 7.09 3.69 10.78
4/5/2021 10:45:00 PM 7.47 45.446 0.116 7.08 4.32 10.81
4/5/2021 11:00:00 PM 7.35 45.23 0.086 7.08 5.01 10.85
4/5/2021 11:15:00 PM 7.26 45.068 0.088 7.08 4.18 10.85
4/5/2021 11:30:00 PM 7.15 44.87 0.089 7.07 3.72 10.89
4/5/2021 11:45:00 PM 7.03 44.654 0.111 7.07 4.61 10.93
4/6/2021 12:00:00 AM 6.89 44.402 0.111 7.06 14.78 10.95
4/6/2021 12:15:00 AM 6.81 44.258 0.094 7.06 4.63 10.94
4/6/2021 12:30:00 AM 6.72 44.096 0.109 7.06 4.69 10.96
4/6/2021 12:45:00 AM 6.61 43.898 0.111 7.06 3.93 11.01
4/6/2021 1:00:00 AM 6.5 43.7 0.111 7.05 3.89 11.01
4/6/2021 1:15:00 AM 6.38 43.484 0.109 7.06 5.88 11.05
4/6/2021 1:30:00 AM 6.29 43.322 0.109 7.06 5.04 11.1
4/6/2021 1:45:00 AM 6.18 43.124 0.11 7.05 4.62 11.09
4/6/2021 2:00:00 AM 6.09 42.962 0.111 7.06 10.95 11.15
4/6/2021 2:15:00 AM 5.99 42.782 0.109 7.06 11.13 11.16
4/6/2021 2:30:00 AM 5.89 42.602 0.111 7.07 10.4 11.25
4/6/2021 2:45:00 AM 5.8 42.44 0.111 7.07 3.66 11.22
4/6/2021 3:00:00 AM 5.7 42.26 0.111 7.07 3.94 11.24
4/6/2021 3:15:00 AM 5.62 42.116 0.109 7.07 4 11.22
4/6/2021 3:30:00 AM 5.53 41.954 0.111 7.07 3.69 11.3
4/6/2021 3:45:00 AM 5.45 41.81 0.111 7.05 3.62 10.93
4/6/2021 4:00:00 AM 5.37 41.666 0.111 7.05 3.55 11
4/6/2021 4:15:00 AM 5.29 41.522 0.111 7.05 3.65 11.01
4/6/2021 4:30:00 AM 5.21 41.378 0.111 7.05 3.47 10.97
4/6/2021 4:45:00 AM 5.13 41.234 0.111 7.06 3.5 11.16
4/6/2021 5:00:00 AM 5.05 41.09 0.111 7.07 3.64 11.2
4/6/2021 5:15:00 AM 4.97 40.946 0.111 7.06 22.45 11.49
4/6/2021 5:30:00 AM 4.9 40.82 0.111 7.06 7.33 11.5
4/6/2021 5:45:00 AM 4.82 40.676 0.11 7.06 3.94 11.51
4/6/2021 6:00:00 AM 4.75 40.55 0.11 7.06 5.16 11.53
4/6/2021 6:15:00 AM 4.68 40.424 0.111 7.06 4.71 11.53
4/6/2021 6:30:00 AM 4.6 40.28 0.111 7.06 5.09 11.59
4/6/2021 6:45:00 AM 4.53 40.154 0.11 7.06 12.57 11.6
4/6/2021 7:00:00 AM 4.46 40.028 0.111 7.06 7.76 11.54
4/6/2021 7:15:00 AM 4.39 39.902 0.111 7.07 6.52 11.69
4/6/2021 7:30:00 AM 4.34 39.812 0.111 7.08 5.74 11.81
4/6/2021 7:45:00 AM 4.28 39.704 0.111 7.09 5.02 11.93
4/6/2021 8:00:00 AM 4.23 39.614 0.111 7.12 4.81 12.05
4/6/2021 8:15:00 AM 4.19 39.542 0.11 7.13 4.33 12.21
4/6/2021 8:30:00 AM 4.16 39.488 0.11 7.16 3.82 12.35
4/6/2021 8:45:00 AM 4.14 39.452 0.11 7.17 3.61 12.43
4/6/2021 9:00:00 AM 4.14 39.452 0.11 7.2 3.53 12.56
4/6/2021 9:15:00 AM 4.14 39.452 0.11 7.22 3.46 12.68
4/6/2021 9:30:00 AM 4.17 39.506 0.109 7.25 3.71 12.77
4/6/2021 9:45:00 AM 4.24 39.632 0.109 7.28 3.42 12.87
4/6/2021 10:00:00 AM 4.33 39.794 0.109 7.31 3.42 12.92
4/6/2021 10:15:00 AM 4.44 39.992 0.109 7.35 3.72 12.99
4/6/2021 10:30:00 AM 4.57 40.226 0.109 7.38 3.35 12.99
4/6/2021 10:45:00 AM 4.71 40.478 0.109 7.4 3.24 13.07
4/6/2021 11:00:00 AM 4.9 40.82 0.109 7.41 3.23 13.09
4/6/2021 11:15:00 AM 5.1 41.18 0.108 7.43 3.26 13.08
4/6/2021 11:30:00 AM 5.32 41.576 0.107 7.47 3.18 13.06
4/6/2021 11:45:00 AM 5.57 42.026 0.108 7.5 3.22 13.01
4/6/2021 12:00:00 PM 5.84 42.512 0.108 7.52 3.23 13.01
4/6/2021 12:15:00 PM 6.15 43.07 0.107 7.55 3.13 12.95
4/6/2021 12:30:00 PM 6.5 43.7 0.107 7.6 3.11 12.84
4/6/2021 12:45:00 PM 6.85 44.33 0.106 7.62 3.12 12.78
4/6/2021 1:00:00 PM 7.2 44.96 0.105 7.66 3.12 12.65
4/6/2021 1:15:00 PM 7.56 45.608 0.106 7.69 3.06 12.6
4/6/2021 1:30:00 PM 7.89 46.202 0.105 7.72 3.26 12.46
4/6/2021 1:45:00 PM 8.21 46.778 0.105 7.74 4.26 12.48
4/6/2021 2:00:00 PM 8.49 47.282 0.089 7.81 3.4 12.39
4/6/2021 2:15:00 PM 8.8 47.84 0.102 7.86 3.1 12.25
4/6/2021 2:30:00 PM 9.07 48.326 0.083 7.88 3.12 12.25
4/6/2021 2:45:00 PM 9.32 48.776 0.087 7.87 3.08 12.17
4/6/2021 3:00:00 PM 9.55 49.19 0.083 7.91 3.08 12.14
4/6/2021 3:15:00 PM 9.77 49.586 0.084 8.04 3.04 12.16
4/6/2021 3:30:00 PM 9.96 49.928 0.087 8 3.25 12
4/6/2021 3:45:00 PM 10.14 50.252 0.092 8.04 4.57 11.99
4/6/2021 4:00:00 PM 10.27 50.486 0.102 8.09 3.27 11.97
4/6/2021 4:15:00 PM 10.38 50.684 0.086 8.05 3.17 11.96
4/6/2021 4:30:00 PM 10.47 50.846 0.083 8.1 3.35 11.91
4/6/2021 4:45:00 PM 10.52 50.936 0.088 8.09 3.47 11.82
4/6/2021 5:00:00 PM 10.52 50.936 0.083 8.19 3.71 11.78
4/6/2021 5:15:00 PM 10.5 50.9 0.081 8.12 3.24 11.66
4/6/2021 5:30:00 PM 10.45 50.81 0.084 7.99 3.18 11.47
4/6/2021 5:45:00 PM 10.4 50.72 0.087 8.02 3.17 11.5
4/6/2021 6:00:00 PM 10.33 50.594 0.099 7.98 3.23 11.47
4/6/2021 6:15:00 PM 10.24 50.432 0.081 7.98 3.28 11.47
4/6/2021 6:30:00 PM 10.09 50.162 0.097 7.88 3.27 11.35
4/6/2021 6:45:00 PM 9.94 49.892 0.08 7.78 3.96 11.41
4/6/2021 7:00:00 PM 9.79 49.622 0.099 7.74 3.39 11.38
4/6/2021 7:15:00 PM 9.62 49.316 0.088 7.63 3.37 11.23
4/6/2021 7:30:00 PM 9.46 49.028 0.088 7.51 3.85 11.09
4/6/2021 7:45:00 PM 9.3 48.74 0.104 7.42 4.34 10.92
4/6/2021 8:00:00 PM 9.1 48.38 0.109 7.35 5.98 10.82
4/6/2021 8:15:00 PM 8.97 48.146 0.104 7.28 9.4 10.76
4/6/2021 8:30:00 PM 8.85 47.93 0.088 7.24 5.09 10.68
4/6/2021 8:45:00 PM 8.74 47.732 0.11 7.2 3.77 10.57
4/6/2021 9:00:00 PM 8.63 47.534 0.085 7.17 3.71 10.53
4/6/2021 9:15:00 PM 8.52 47.336 0.104 7.14 3.54 10.5
4/6/2021 9:30:00 PM 8.42 47.156 0.075 7.13 3.53 10.51
4/6/2021 9:45:00 PM 8.33 46.994 0.104 7.11 3.51 10.46
4/6/2021 10:00:00 PM 8.23 46.814 0.105 7.1 3.49 10.5
4/6/2021 10:15:00 PM 8.14 46.652 0.105 7.09 3.46 10.48
4/6/2021 10:30:00 PM 8.04 46.472 0.104 7.08 3.46 10.56
4/6/2021 10:45:00 PM 7.92 46.256 0.103 7.07 4.1 10.63
4/6/2021 11:00:00 PM 7.84 46.112 0.105 7.07 3.72 10.57
4/6/2021 11:15:00 PM 7.71 45.878 0.105 7.06 13.36 10.72
4/6/2021 11:30:00 PM 7.63 45.734 0.105 7.06 5.59 10.66
4/6/2021 11:45:00 PM 7.54 45.572 0.105 7.06 9.76 10.73
4/7/2021 12:00:00 AM 7.49 45.482 0.104 7.05 4.12 10.69
4/7/2021 12:15:00 AM 7.41 45.338 0.105 7.05 4.31 10.66
4/7/2021 12:30:00 AM 7.33 45.194 0.105 7.06 4.85 10.76
4/7/2021 12:45:00 AM 7.27 45.086 0.105 7.04 3.47 10.75
4/7/2021 1:00:00 AM 7.19 44.942 0.105 7.05 7.92 10.79
4/7/2021 1:15:00 AM 7.14 44.852 0.105 7.06 4.59 10.82
4/7/2021 1:30:00 AM 7.08 44.744 0.105 7.06 4.79 10.76
4/7/2021 1:45:00 AM 7.03 44.654 0.105 7.06 4.28 10.84
4/7/2021 2:00:00 AM 6.98 44.564 0.105 7.07 4.25 10.83
4/7/2021 2:15:00 AM 6.94 44.492 0.105 7.06 3.87 10.87
4/7/2021 2:30:00 AM 6.89 44.402 0.105 7.06 5.15 10.88
4/7/2021 2:45:00 AM 6.84 44.312 0.105 7.05 4.23 10.82
4/7/2021 3:00:00 AM 6.81 44.258 0.105 7.06 4.09 10.9
4/7/2021 3:15:00 AM 6.77 44.186 0.105 7.06 3.8 10.92
4/7/2021 3:30:00 AM 6.73 44.114 0.105 7.06 3.58 10.92
4/7/2021 3:45:00 AM 6.7 44.06 0.105 7.06 3.49 10.92
4/7/2021 4:00:00 AM 6.67 44.006 0.105 7.06 3.45 10.95
4/7/2021 4:15:00 AM 6.64 43.952 0.106 7.06 3.39 10.88
4/7/2021 4:30:00 AM 6.61 43.898 0.106 7.06 3.74 10.84
4/7/2021 4:45:00 AM 6.59 43.862 0.105 7.07 3.38 10.93
4/7/2021 5:00:00 AM 6.54 43.772 0.105 7.07 12.84 11.04
4/7/2021 5:15:00 AM 6.52 43.736 0.105 7.07 5.34 11.03
4/7/2021 5:30:00 AM 6.5 43.7 0.106 7.07 8.76 11.06
4/7/2021 5:45:00 AM 6.5 43.7 0.105 7.07 7.3 11.04
4/7/2021 6:00:00 AM 6.48 43.664 0.105 7.05 4.61 10.97
4/7/2021 6:15:00 AM 6.46 43.628 0.106 7.07 5.59 11.01
4/7/2021 6:30:00 AM 6.45 43.61 0.106 7.07 4.91 10.94
4/7/2021 6:45:00 AM 6.43 43.574 0.105 7.07 5.04 10.91
4/7/2021 7:00:00 AM 6.42 43.556 0.106 7.08 5.34 10.9
4/7/2021 7:15:00 AM 6.4 43.52 0.105 7.07 5.86 10.92
4/7/2021 7:30:00 AM 6.38 43.484 0.105 7.08 6.86 11.15
4/7/2021 7:45:00 AM 6.38 43.484 0.105 7.08 4.63 11.22
4/7/2021 8:00:00 AM 6.39 43.502 0.105 7.11 6.22 11.31
4/7/2021 8:15:00 AM 6.39 43.502 0.105 7.13 8.71 11.4
4/7/2021 8:30:00 AM 6.4 43.52 0.104 7.13 9.62 11.55
4/7/2021 8:45:00 AM 6.42 43.556 0.104 7.17 4.29 11.64
4/7/2021 9:00:00 AM 6.44 43.592 0.104 7.19 3.64 11.8
4/7/2021 9:15:00 AM 6.48 43.664 0.104 7.23 3.48 11.95
4/7/2021 9:30:00 AM 6.54 43.772 0.104 7.27 3.19 12.12
4/7/2021 9:45:00 AM 6.6 43.88 0.103 7.31 3.68 12.17
4/7/2021 10:00:00 AM 6.67 44.006 0.103 7.35 3.25 12.38
4/7/2021 10:15:00 AM 6.77 44.186 0.103 7.4 3.19 12.42
4/7/2021 10:30:00 AM 6.88 44.384 0.103 7.45 3.39 12.49
4/7/2021 10:45:00 AM 6.99 44.582 0.103 7.51 3.13 12.54
4/7/2021 11:00:00 AM 7.1 44.78 0.103 7.52 3.21 12.56
4/7/2021 11:15:00 AM 7.27 45.086 0.102 7.57 3.04 12.67
4/7/2021 11:30:00 AM 7.47 45.446 0.102 7.6 3.14 12.68
4/7/2021 11:45:00 AM 7.65 45.77 0.102 7.64 3.15 12.66
4/7/2021 12:00:00 PM 7.85 46.13 0.101 7.72 3.13 12.66
4/7/2021 12:15:00 PM 8.13 46.634 0.101 7.78 3.09 12.56
4/7/2021 12:30:00 PM 8.44 47.192 0.1 7.81 3.21 12.6
4/7/2021 12:45:00 PM 8.72 47.696 0.1 7.86 3.18 12.5
4/7/2021 1:00:00 PM 9.02 48.236 0.1 7.86 4.33 12.38
4/7/2021 1:15:00 PM 9.37 48.866 0.099 7.85 6.79 12.22
4/7/2021 1:30:00 PM 9.65 49.37 0.099 7.92 4.99 12.11
4/7/2021 1:45:00 PM 9.95 49.91 0.099 7.99 3.92 12.18
4/7/2021 2:00:00 PM 10.26 50.468 0.098 8.04 3.54 11.96
4/7/2021 2:15:00 PM 10.57 51.026 0.098 8.1 3.73 12.05
4/7/2021 2:30:00 PM 10.84 51.512 0.098 8.12 3.14 11.93
4/7/2021 2:45:00 PM 11.09 51.962 0.083 8.16 3.42 11.9
4/7/2021 3:00:00 PM 11.32 52.376 0.096 8.19 3.2 11.84
4/7/2021 3:15:00 PM 11.53 52.754 0.083 8.23 3.06 11.7
4/7/2021 3:30:00 PM 11.72 53.096 0.083 8.2 3.21 11.71
4/7/2021 3:45:00 PM 11.88 53.384 0.085 8.24 4.4 11.62
4/7/2021 4:00:00 PM 12.05 53.69 0.087 8.28 5.26 11.44
4/7/2021 4:15:00 PM 12.15 53.87 0.086 8.23 3.87 11.52
4/7/2021 4:30:00 PM 12.23 54.014 0.087 8.24 3.35 11.43
4/7/2021 4:45:00 PM 12.3 54.14 0.082 8.27 3.42 11.35
4/7/2021 5:00:00 PM 12.34 54.212 0.085 8.23 3.43 11.29
4/7/2021 5:15:00 PM 12.35 54.23 0.082 8.2 3.85 11.25
4/7/2021 5:30:00 PM 12.34 54.212 0.085 8.25 3.5 11.1
4/7/2021 5:45:00 PM 12.3 54.14 0.085 8.24 3.4 11.25
4/7/2021 6:00:00 PM 12.24 54.032 0.088 8.27 3.2 10.93
4/7/2021 6:15:00 PM 12.16 53.888 0.096 8.22 3.32 10.9
4/7/2021 6:30:00 PM 12.04 53.672 0.084 8.09 3.8 10.85
4/7/2021 6:45:00 PM 11.9 53.42 0.08 8.01 5.4 10.82
4/7/2021 7:00:00 PM 11.75 53.15 0.082 7.83 4.81 10.86
4/7/2021 7:15:00 PM 11.6 52.88 0.094 7.7 4.22 10.58
4/7/2021 7:30:00 PM 11.44 52.592 0.08 7.54 3.84 10.32
4/7/2021 7:45:00 PM 11.29 52.322 0.081 7.51 3.93 10.2
4/7/2021 8:00:00 PM 11.13 52.034 0.098 7.4 4.11 10.29
4/7/2021 8:15:00 PM 10.94 51.692 0.098 7.32 7.41 10.16
4/7/2021 8:30:00 PM 10.84 51.512 0.082 7.25 4.07 10.06
4/7/2021 8:45:00 PM 10.7 51.26 0.1 7.21 4.48 9.9
4/7/2021 9:00:00 PM 10.58 51.044 0.1 7.17 3.89 9.94
4/7/2021 9:15:00 PM 10.45 50.81 0.082 7.14 3.67 9.75
4/7/2021 9:30:00 PM 10.33 50.594 0.1 7.11 3.47 9.77
4/7/2021 9:45:00 PM 10.21 50.378 0.1 7.09 3.77 9.81
4/7/2021 10:00:00 PM 10.09 50.162 0.101 7.08 4.25 9.81
4/7/2021 10:15:00 PM 9.98 49.964 0.084 7.08 3.63 9.83
4/7/2021 10:30:00 PM 9.86 49.748 0.101 7.06 3.57 9.84
4/7/2021 10:45:00 PM 9.75 49.55 0.101 7.07 3.59 9.96
4/7/2021 11:00:00 PM 9.64 49.352 0.101 7.05 3.45 9.84
4/7/2021 11:15:00 PM 9.53 49.154 0.101 7.05 3.28 9.88
4/7/2021 11:30:00 PM 9.42 48.956 0.101 7.04 3.35 9.98
4/7/2021 11:45:00 PM 9.29 48.722 0.099 7.04 3.36 10.06
4/8/2021 12:00:00 AM 9.17 48.506 0.101 7.04 5.67 10.15
4/8/2021 12:15:00 AM 9.06 48.308 0.101 7.05 4.78 10.18
4/8/2021 12:30:00 AM 8.96 48.128 0.101 7.04 4.34 10.06
4/8/2021 12:45:00 AM 8.84 47.912 0.101 7.04 3.99 10.11
4/8/2021 1:00:00 AM 8.75 47.75 0.101 7.04 4.19 10.18
4/8/2021 1:15:00 AM 8.65 47.57 0.101 7.03 4.17 10.23
4/8/2021 1:30:00 AM 8.53 47.354 0.101 7.04 4.08 10.18
4/8/2021 1:45:00 AM 8.4 47.12 0.102 7.04 4.35 10.24
4/8/2021 2:00:00 AM 8.33 46.994 0.101 7.05 3.61 10.37
4/8/2021 2:15:00 AM 8.22 46.796 0.101 7.04 6.84 10.39
4/8/2021 2:30:00 AM 8.14 46.652 0.101 7.04 3.84 10.34
4/8/2021 2:45:00 AM 8.05 46.49 0.101 7.05 4.33 10.43
4/8/2021 3:00:00 AM 7.97 46.346 0.101 7.04 4.02 10.21
4/8/2021 3:15:00 AM 7.88 46.184 0.102 7.04 3.85 10.39
4/8/2021 3:30:00 AM 7.77 45.986 0.101 7.04 5.32 10.55
4/8/2021 3:45:00 AM 7.7 45.86 0.101 7.05 4.72 10.56
4/8/2021 4:00:00 AM 7.63 45.734 0.102 7.05 3.88 10.51
4/8/2021 4:15:00 AM 7.54 45.572 0.102 7.04 5.39 10.55
4/8/2021 4:30:00 AM 7.49 45.482 0.102 7.04 5.05 10.4
4/8/2021 4:45:00 AM 7.42 45.356 0.102 7.04 7.8 10.27
4/8/2021 5:00:00 AM 7.35 45.23 0.102 7.05 4.33 10.42
4/8/2021 5:15:00 AM 7.28 45.104 0.102 7.04 4.4 10.21
4/8/2021 5:30:00 AM 7.19 44.942 0.102 7.03 4.97 10.27
4/8/2021 5:45:00 AM 7.14 44.852 0.102 7.04 4.12 10.33
4/8/2021 6:00:00 AM 7.06 44.708 0.102 7.04 4.2 10.21
4/8/2021 6:15:00 AM 6.96 44.528 0.102 7.04 11.33 10.68
4/8/2021 6:30:00 AM 6.88 44.384 0.102 7.05 9.59 10.84
4/8/2021 6:45:00 AM 6.82 44.276 0.102 7.05 20.4 10.87
4/8/2021 7:00:00 AM 6.77 44.186 0.102 7.05 8.89 10.83
4/8/2021 7:15:00 AM 6.72 44.096 0.102 7.04 10.86 10.85
4/8/2021 7:30:00 AM 6.68 44.024 0.102 7.06 4.96 10.85
4/8/2021 7:45:00 AM 6.62 43.916 0.101 7.05 4.56 10.83
4/8/2021 8:00:00 AM 6.59 43.862 0.102 7.08 4.29 11.05
4/8/2021 8:15:00 AM 6.57 43.826 0.101 7.09 3.79 11.07
4/8/2021 8:30:00 AM 6.55 43.79 0.101 7.12 3.46 11
4/8/2021 8:45:00 AM 6.55 43.79 0.101 7.13 3.48 11.16
4/8/2021 9:00:00 AM 6.57 43.826 0.101 7.16 3.49 11.39
4/8/2021 9:15:00 AM 6.6 43.88 0.101 7.18 3.55 11.24
4/8/2021 9:30:00 AM 6.65 43.97 0.101 7.21 3.33 11.33
4/8/2021 9:45:00 AM 6.73 44.114 0.1 7.22 3.76 11.33
4/8/2021 10:00:00 AM 6.82 44.276 0.1 7.29 3.44 11.77
4/8/2021 10:15:00 AM 6.94 44.492 0.1 7.35 3.19 11.97
4/8/2021 10:30:00 AM 7.1 44.78 0.1 7.36 3.39 12.1
4/8/2021 10:45:00 AM 7.26 45.068 0.1 7.4 3.17 12.14
4/8/2021 11:00:00 AM 7.44 45.392 0.1 7.43 3.15 12.2
4/8/2021 11:15:00 AM 7.65 45.77 0.1 7.46 3.16 12.19
4/8/2021 11:30:00 AM 7.87 46.166 0.1 7.46 3.14 12.16
4/8/2021 11:45:00 AM 8.12 46.616 0.1 7.49 3.23 11.97
4/8/2021 12:00:00 PM 8.41 47.138 0.099 7.54 3.06 11.91
4/8/2021 12:15:00 PM 8.71 47.678 0.099 7.56 3.08 11.89
4/8/2021 12:30:00 PM 9.06 48.308 0.099 7.63 3.27 11.86
4/8/2021 12:45:00 PM 9.43 48.974 0.099 7.6 3.08 11.97
4/8/2021 1:00:00 PM 9.8 49.64 0.098 7.7 2.98 11.94
4/8/2021 1:15:00 PM 10.17 50.306 0.098 7.76 2.99 11.94
4/8/2021 1:30:00 PM 10.56 51.008 0.098 7.8 3.07 11.85
4/8/2021 1:45:00 PM 10.95 51.71 0.098 7.87 6.17 11.8
4/8/2021 2:00:00 PM 11.36 52.448 0.103 7.89 5.45 11.75
4/8/2021 2:15:00 PM 11.66 52.988 0.086 7.92 3.22 11.54
4/8/2021 2:30:00 PM 11.97 53.546 0.097 7.96 10.25 11.55
4/8/2021 2:45:00 PM 12.26 54.068 0.088 7.95 3.39 11.29
4/8/2021 3:00:00 PM 12.57 54.626 0.084 8.05 3.97 11.16
4/8/2021 3:15:00 PM 12.79 55.022 0.083 8.14 9.88 11.33
4/8/2021 3:30:00 PM 13 55.4 0.082 8.08 3.43 11.17
4/8/2021 3:45:00 PM 13.2 55.76 0.081 8.23 4.06 11.27
4/8/2021 4:00:00 PM 13.37 56.066 0.102 8.4 7.76 11.19
4/8/2021 4:15:00 PM 13.47 56.246 0.085 8.26 3.88 10.84
4/8/2021 4:30:00 PM 13.58 56.444 0.088 8.27 6.01 10.99
4/8/2021 4:45:00 PM 13.66 56.588 0.087 8.18 3.5 10.68
4/8/2021 5:00:00 PM 13.71 56.678 0.086 8.34 10.46 10.89
4/8/2021 5:15:00 PM 13.72 56.696 0.086 8.41 4.04 10.92
4/8/2021 5:30:00 PM 13.71 56.678 0.082 8.31 3.37 10.84
4/8/2021 5:45:00 PM 13.67 56.606 0.085 8.2 3.19 10.7
4/8/2021 6:00:00 PM 13.58 56.444 0.086 8.26 11.68 10.57
4/8/2021 6:15:00 PM 13.5 56.3 0.088 8.18 6.54 10.55
4/8/2021 6:30:00 PM 13.38 56.084 0.083 8.05 3.68 10.33
4/8/2021 6:45:00 PM 13.23 55.814 0.089 7.9 3.3 10.09
4/8/2021 7:00:00 PM 13.06 55.508 0.089 7.76 3.55 10
4/8/2021 7:15:00 PM 12.89 55.202 0.083 7.64 3.51 9.9
4/8/2021 7:30:00 PM 12.73 54.914 0.086 7.54 4.24 9.86
4/8/2021 7:45:00 PM 12.56 54.608 0.087 7.5 4.2 9.52
4/8/2021 8:00:00 PM 12.41 54.338 0.086 7.42 4.77 9.42
4/8/2021 8:15:00 PM 12.21 53.978 0.088 7.34 10.51 9.86
4/8/2021 8:30:00 PM 12.1 53.78 0.088 7.3 5.13 9.71
4/8/2021 8:45:00 PM 11.95 53.51 0.088 7.25 3.86 9.37
4/8/2021 9:00:00 PM 11.82 53.276 0.097 7.2 3.61 9.32
4/8/2021 9:15:00 PM 11.69 53.042 0.097 7.18 3.54 9.29
4/8/2021 9:30:00 PM 11.56 52.808 0.087 7.13 3.61 9.33
4/8/2021 9:45:00 PM 11.45 52.61 0.084 7.11 3.67 9.15
4/8/2021 10:00:00 PM 11.34 52.412 0.087 7.09 3.32 9.25
4/8/2021 10:15:00 PM 11.23 52.214 0.098 7.08 3.35 9.29
4/8/2021 10:30:00 PM 11.12 52.016 0.099 7.07 3.36 9.07
4/8/2021 10:45:00 PM 11.02 51.836 0.099 7.05 3.19 9.1
4/8/2021 11:00:00 PM 10.91 51.638 0.085 7.05 3.34 9.24
4/8/2021 11:15:00 PM 10.81 51.458 0.089 7.04 3.35 9.32
4/8/2021 11:30:00 PM 10.7 51.26 0.099 7.03 3.3 9.17
4/8/2021 11:45:00 PM 10.6 51.08 0.098 7.03 3.57 9.53
4/9/2021 12:00:00 AM 10.51 50.918 0.099 7.03 3.4 9.33
4/9/2021 12:15:00 AM 10.4 50.72 0.099 7.05 3.21 9.66
4/9/2021 12:30:00 AM 10.34 50.612 0.099 7.03 3.47 9.33
4/9/2021 12:45:00 AM 10.26 50.468 0.099 7.03 3.26 9.5
4/9/2021 1:00:00 AM 10.18 50.324 0.099 7.04 3.16 9.56
4/9/2021 1:15:00 AM 10.1 50.18 0.098 7.04 3.33 9.66
4/9/2021 1:30:00 AM 9.99 49.982 0.099 7.05 12.86 9.87
4/9/2021 1:45:00 AM 9.94 49.892 0.099 7.06 5.68 9.72
4/9/2021 2:00:00 AM 9.86 49.748 0.098 7.06 6.15 9.87
4/9/2021 2:15:00 AM 9.81 49.658 0.099 7.06 4.13 9.83
4/9/2021 2:30:00 AM 9.75 49.55 0.099 7.04 3.37 9.74
4/9/2021 2:45:00 AM 9.68 49.424 0.099 7.04 3.43 9.71
4/9/2021 3:00:00 AM 9.58 49.244 0.1 7.05 5.04 9.94
4/9/2021 3:15:00 AM 9.54 49.172 0.099 7.06 5.35 9.91
4/9/2021 3:30:00 AM 9.5 49.1 0.099 7.07 12.86 9.87
4/9/2021 3:45:00 AM 9.43 48.974 0.099 7.05 4.99 9.95
4/9/2021 4:00:00 AM 9.36 48.848 0.099 7.06 6.36 9.97
4/9/2021 4:15:00 AM 9.32 48.776 0.099 7.05 4.91 9.94
4/9/2021 4:30:00 AM 9.26 48.668 0.099 7.06 8.11 10.03
4/9/2021 4:45:00 AM 9.19 48.542 0.099 7.06 42.11 10.04
4/9/2021 5:00:00 AM 9.16 48.488 0.099 7.08 190.19 9.93
4/9/2021 5:15:00 AM 9.12 48.416 0.099 7.06 5.39 10
4/9/2021 5:30:00 AM 9.08 48.344 0.099 7.07 4.61 10
4/9/2021 5:45:00 AM 9.05 48.29 0.099 7.07 3.71 9.87
4/9/2021 6:00:00 AM 9.01 48.218 0.099 7.07 3.47 9.83
4/9/2021 6:15:00 AM 8.97 48.146 0.099 7.06 3.91 9.82
4/9/2021 6:30:00 AM 8.92 48.056 0.099 7.06 3.98 9.78
4/9/2021 6:45:00 AM 8.89 48.002 0.1 7.06 4.29 9.77
4/9/2021 7:00:00 AM 8.84 47.912 0.099 7.06 3.42 9.75
4/9/2021 7:15:00 AM 8.81 47.858 0.1 7.04 3.84 9.88
4/9/2021 7:30:00 AM 8.78 47.804 0.1 7.07 3.44 9.82
4/9/2021 7:45:00 AM 8.75 47.75 0.1 7.07 3.7 9.9
4/9/2021 8:00:00 AM 8.73 47.714 0.099 7.08 3.56 9.93
4/9/2021 8:15:00 AM 8.71 47.678 0.099 7.09 3.24 9.98
4/9/2021 8:30:00 AM 8.7 47.66 0.099 7.13 3.39 10.23
4/9/2021 8:45:00 AM 8.71 47.678 0.099 7.15 3.44 10.34
4/9/2021 9:00:00 AM 8.72 47.696 0.099 7.18 4.3 10.69
4/9/2021 9:15:00 AM 8.75 47.75 0.098 7.21 3.21 10.93
4/9/2021 9:30:00 AM 8.78 47.804 0.098 7.24 3.16 11.04
4/9/2021 9:45:00 AM 8.82 47.876 0.102 7.27 3.02 11.15
4/9/2021 10:00:00 AM 8.88 47.984 0.098 7.3 2.78 11.3
4/9/2021 10:15:00 AM 8.96 48.128 0.098 7.34 2.89 11.31
4/9/2021 10:30:00 AM 9.03 48.254 0.097 7.35 3.04 11.39
4/9/2021 10:45:00 AM 9.08 48.344 0.098 7.4 2.93 11.44
4/9/2021 11:00:00 AM 9.13 48.434 0.097 7.42 2.84 11.65
4/9/2021 11:15:00 AM 9.19 48.542 0.097 7.44 2.96 11.47
4/9/2021 11:30:00 AM 9.26 48.668 0.097 7.46 2.84 11.42
4/9/2021 11:45:00 AM 9.33 48.794 0.096 7.53 2.96 11.54
4/9/2021 12:00:00 PM 9.4 48.92 0.096 7.57 2.84 11.56
4/9/2021 12:15:00 PM 9.48 49.064 0.096 7.58 2.89 11.64
4/9/2021 12:30:00 PM 9.56 49.208 0.096 7.63 2.89 11.71
4/9/2021 12:45:00 PM 9.63 49.334 0.096 7.64 2.88 11.54
4/9/2021 1:00:00 PM 9.7 49.46 0.096 7.7 2.8 11.53
4/9/2021 1:15:00 PM 9.78 49.604 0.096 7.71 2.91 11.52
4/9/2021 1:30:00 PM 9.85 49.73 0.095 7.73 2.95 11.53
4/9/2021 1:45:00 PM 9.92 49.856 0.095 7.73 2.81 11.53
4/9/2021 2:00:00 PM 9.99 49.982 0.096 7.77 2.91 11.53
4/9/2021 2:15:00 PM 10.05 50.09 0.095 7.74 2.8 11.41
4/9/2021 2:30:00 PM 10.12 50.216 0.095 7.8 2.86 11.37
4/9/2021 2:45:00 PM 10.19 50.342 0.095 7.81 2.86 11.45
4/9/2021 3:00:00 PM 10.26 50.468 0.095 7.94 2.83 11.23
4/9/2021 3:15:00 PM 10.34 50.612 0.095 7.91 2.88 11.32
4/9/2021 3:30:00 PM 10.43 50.774 0.095 7.96 2.82 11.41
4/9/2021 3:45:00 PM 10.49 50.882 0.094 7.99 2.88 11.4
4/9/2021 4:00:00 PM 10.55 50.99 0.094 8.17 3.6 11.41
4/9/2021 4:15:00 PM 10.6 51.08 0.094 8.04 2.96 11.35
4/9/2021 4:30:00 PM 10.63 51.134 0.094 8.1 2.93 11.45
4/9/2021 4:45:00 PM 10.64 51.152 0.094 8.02 3.5 11.23
4/9/2021 5:00:00 PM 10.65 51.17 0.094 8.09 2.98 11.21
4/9/2021 5:15:00 PM 10.65 51.17 0.094 8 3.91 11.05
4/9/2021 5:30:00 PM 10.64 51.152 0.094 7.97 3.15 10.91
4/9/2021 5:45:00 PM 10.63 51.134 0.094 7.91 3.16 10.83
4/9/2021 6:00:00 PM 10.61 51.098 0.094 7.91 2.97 10.84
4/9/2021 6:15:00 PM 10.6 51.08 0.094 7.86 2.98 10.76
4/9/2021 6:30:00 PM 10.58 51.044 0.094 7.74 3.08 10.69
4/9/2021 6:45:00 PM 10.57 51.026 0.094 7.66 3.11 10.61
4/9/2021 7:00:00 PM 10.54 50.972 0.095 7.61 3.02 10.57
4/9/2021 7:15:00 PM 10.51 50.918 0.095 7.55 3.22 10.31
4/9/2021 7:30:00 PM 10.47 50.846 0.095 7.5 3.2 10.23
4/9/2021 7:45:00 PM 10.43 50.774 0.095 7.44 3.25 10.12
4/9/2021 8:00:00 PM 10.38 50.684 0.095 7.4 3.13 9.97
4/9/2021 8:15:00 PM 10.3 50.54 0.095 7.34 9.08 10.36
4/9/2021 8:30:00 PM 10.25 50.45 0.095 7.32 4.53 10.38
4/9/2021 8:45:00 PM 10.21 50.378 0.095 7.29 3.6 10.22
4/9/2021 9:00:00 PM 10.16 50.288 0.096 7.26 3.12 10.11
4/9/2021 9:15:00 PM 10.11 50.198 0.096 7.23 3.15 9.92
4/9/2021 9:30:00 PM 10.06 50.108 0.096 7.21 3.05 9.9
4/9/2021 9:45:00 PM 9.99 49.982 0.096 7.16 4.64 9.96
4/9/2021 10:00:00 PM 9.93 49.874 0.096 7.16 3.68 9.75
4/9/2021 10:15:00 PM 9.87 49.766 0.096 7.15 3.1 9.63
4/9/2021 10:30:00 PM 9.81 49.658 0.096 7.14 3.14 9.71
4/9/2021 10:45:00 PM 9.75 49.55 0.097 7.13 3.16 9.85
4/9/2021 11:00:00 PM 9.71 49.478 0.097 7.11 3.72 9.95
4/9/2021 11:15:00 PM 9.68 49.424 0.097 7.12 3.26 9.82
4/9/2021 11:30:00 PM 9.63 49.334 0.097 7.11 3 9.72
4/9/2021 11:45:00 PM 9.58 49.244 0.097 7.1 3.03 9.76
4/10/2021 12:00:00 AM 9.54 49.172 0.097 7.11 3.4 9.58
4/10/2021 12:15:00 AM 9.51 49.118 0.097 7.1 3.04 9.75
4/10/2021 12:30:00 AM 9.48 49.064 0.097 7.1 3.19 9.97
4/10/2021 12:45:00 AM 9.46 49.028 0.097 7.09 4.11 9.95
4/10/2021 1:00:00 AM 9.45 49.01 0.097 7.1 3.31 9.85
4/10/2021 1:15:00 AM 9.43 48.974 0.097 7.1 3.09 9.7
4/10/2021 1:30:00 AM 9.42 48.956 0.097 7.11 3.07 9.81
4/10/2021 1:45:00 AM 9.41 48.938 0.097 7.1 3.1 9.75
4/10/2021 2:00:00 AM 9.39 48.902 0.097 7.09 3.26 9.97
4/10/2021 2:15:00 AM 9.38 48.884 0.097 7.1 2.98 9.87
4/10/2021 2:30:00 AM 9.37 48.866 0.098 7.1 3.24 10.05
4/10/2021 2:45:00 AM 9.35 48.83 0.098 7.09 7.85 10.06
4/10/2021 3:00:00 AM 9.34 48.812 0.098 7.08 5.38 10.09
4/10/2021 3:15:00 AM 9.33 48.794 0.098 7.09 3.61 9.9
4/10/2021 3:30:00 AM 9.32 48.776 0.098 7.09 3.7 9.99
4/10/2021 3:45:00 AM 9.3 48.74 0.098 7.1 3.25 10.01
4/10/2021 4:00:00 AM 9.3 48.74 0.098 7.08 3.19 9.89
4/10/2021 4:15:00 AM 9.29 48.722 0.098 7.1 3.58 9.83
4/10/2021 4:30:00 AM 9.28 48.704 0.098 7.09 3.17 9.63
4/10/2021 4:45:00 AM 9.27 48.686 0.098 7.09 4.13 9.74
4/10/2021 5:00:00 AM 9.27 48.686 0.098 7.09 3.31 9.81
4/10/2021 5:15:00 AM 9.26 48.668 0.098 7.08 3.39 9.8
4/10/2021 5:30:00 AM 9.24 48.632 0.098 7.1 8.08 9.82
4/10/2021 5:45:00 AM 9.23 48.614 0.098 7.08 5.26 9.82
4/10/2021 6:00:00 AM 9.22 48.596 0.098 7.07 7.31 9.95
4/10/2021 6:15:00 AM 9.22 48.596 0.098 7.09 3.69 9.8
4/10/2021 6:30:00 AM 9.2 48.56 0.098 7.08 4.78 9.91
4/10/2021 6:45:00 AM 9.2 48.56 0.098 7.07 4.39 9.86
4/10/2021 7:00:00 AM 9.2 48.56 0.099 7.08 6.2 9.77
4/10/2021 7:15:00 AM 9.19 48.542 0.098 7.08 4.57 9.81
4/10/2021 7:30:00 AM 9.19 48.542 0.099 7.08 3.61 9.65
4/10/2021 7:45:00 AM 9.19 48.542 0.099 7.08 3.43 9.46
4/10/2021 8:00:00 AM 9.19 48.542 0.098 7.1 3.47 9.46
4/10/2021 8:15:00 AM 9.2 48.56 0.098 7.1 3.24 9.57
4/10/2021 8:30:00 AM 9.22 48.596 0.098 7.12 3.08 9.7
4/10/2021 8:45:00 AM 9.24 48.632 0.098 7.13 2.94 9.96
4/10/2021 9:00:00 AM 9.28 48.704 0.098 7.16 2.94 10.24
4/10/2021 9:15:00 AM 9.31 48.758 0.098 7.19 3.02 10.55
4/10/2021 9:30:00 AM 9.35 48.83 0.098 7.24 3.05 10.78
4/10/2021 9:45:00 AM 9.4 48.92 0.097 7.28 2.94 10.98
4/10/2021 10:00:00 AM 9.46 49.028 0.097 7.32 2.87 11.16
4/10/2021 10:15:00 AM 9.54 49.172 0.097 7.35 2.96 11.28
4/10/2021 10:30:00 AM 9.63 49.334 0.097 7.4 3 11.37
4/10/2021 10:45:00 AM 9.72 49.496 0.096 7.44 2.98 11.39
4/10/2021 11:00:00 AM 9.83 49.694 0.096 7.44 2.93 11.39
4/10/2021 11:15:00 AM 9.94 49.892 0.096 7.49 2.9 11.47
4/10/2021 11:30:00 AM 10.06 50.108 0.096 7.53 2.84 11.57
4/10/2021 11:45:00 AM 10.19 50.342 0.096 7.59 2.75 11.63
4/10/2021 12:00:00 PM 10.34 50.612 0.096 7.65 2.8 11.65
4/10/2021 12:15:00 PM 10.52 50.936 0.095 7.67 3.26 11.61
4/10/2021 12:30:00 PM 10.77 51.386 0.095 7.73 2.94 11.75
4/10/2021 12:45:00 PM 11.05 51.89 0.095 7.8 2.93 11.71
4/10/2021 1:00:00 PM 11.35 52.43 0.095 7.89 2.9 11.69
4/10/2021 1:15:00 PM 11.64 52.952 0.094 7.97 2.76 11.66
4/10/2021 1:30:00 PM 11.94 53.492 0.093 8.06 2.79 11.58
4/10/2021 1:45:00 PM 12.25 54.05 0.094 8.1 2.83 11.51
4/10/2021 2:00:00 PM 12.55 54.59 0.084 8.08 6.64 11.34
4/10/2021 2:15:00 PM 12.79 55.022 0.083 8.34 20.27 11.39
4/10/2021 2:30:00 PM 13.06 55.508 0.083 8.16 6.42 11.27
4/10/2021 2:45:00 PM 13.27 55.886 0.084 8.26 3.23 11.11
4/10/2021 3:00:00 PM 13.44 56.192 0.082 8.3 3.56 11.01
4/10/2021 3:15:00 PM 13.61 56.498 0.08 8.47 4.46 11.14
4/10/2021 3:30:00 PM 13.74 56.732 0.084 8.43 4.93 11.1
4/10/2021 3:45:00 PM 13.86 56.948 0.084 8.38 6.24 10.96
4/10/2021 4:00:00 PM 13.94 57.092 0.082 8.4 4.62 10.91
4/10/2021 4:15:00 PM 14.05 57.29 0.085 8.53 4.88 10.92
4/10/2021 4:30:00 PM 14.12 57.416 0.092 8.66 4.18 10.89
4/10/2021 4:45:00 PM 14.18 57.524 0.082 8.51 3.64 10.83
4/10/2021 5:00:00 PM 14.2 57.56 0.08 8.76 3.82 10.82
4/10/2021 5:15:00 PM 14.2 57.56 0.08 8.32 3.19 10.63
4/10/2021 5:30:00 PM 14.18 57.524 0.083 8.46 4.15 10.49
4/10/2021 5:45:00 PM 14.14 57.452 0.098 8.57 6.31 10.5
4/10/2021 6:00:00 PM 14.08 57.344 0.086 8.54 4.09 10.5
4/10/2021 6:15:00 PM 14.02 57.236 0.082 8.44 3.25 10.14
4/10/2021 6:30:00 PM 13.94 57.092 0.082 8.39 3.29 10.2
4/10/2021 6:45:00 PM 13.86 56.948 0.084 8.24 3.19 9.83
4/10/2021 7:00:00 PM 13.77 56.786 0.085 8.2 3.25 9.88
4/10/2021 7:15:00 PM 13.67 56.606 0.083 8.02 3.21 9.65
4/10/2021 7:30:00 PM 13.56 56.408 0.092 7.86 3.28 9.47
4/10/2021 7:45:00 PM 13.42 56.156 0.084 7.77 5.96 9.83
4/10/2021 8:00:00 PM 13.28 55.904 0.082 7.57 10.36 9.47
4/10/2021 8:15:00 PM 13.21 55.778 0.084 7.53 5.06 9.48
4/10/2021 8:30:00 PM 13.1 55.58 0.085 7.44 3.87 9.18
4/10/2021 8:45:00 PM 13 55.4 0.093 7.37 3.56 9.12
4/10/2021 9:00:00 PM 12.89 55.202 0.078 7.29 3.5 9.01
4/10/2021 9:15:00 PM 12.79 55.022 0.094 7.25 4.1 8.8
4/10/2021 9:30:00 PM 12.68 54.824 0.094 7.19 4.46 9.12
4/10/2021 9:45:00 PM 12.59 54.662 0.094 7.18 3.32 8.89
4/10/2021 10:00:00 PM 12.5 54.5 0.094 7.14 3.44 8.85
4/10/2021 10:15:00 PM 12.4 54.32 0.094 7.14 3.08 8.83
4/10/2021 10:30:00 PM 12.31 54.158 0.093 7.12 3.3 8.68
4/10/2021 10:45:00 PM 12.22 53.996 0.095 7.11 3.25 8.61
4/10/2021 11:00:00 PM 12.13 53.834 0.095 7.09 3.15 8.81
4/10/2021 11:15:00 PM 12.04 53.672 0.095 7.08 3.32 8.81
4/10/2021 11:30:00 PM 11.95 53.51 0.095 7.07 3.3 8.89
4/10/2021 11:45:00 PM 11.87 53.366 0.094 7.07 3.25 8.78
4/11/2021 12:00:00 AM 11.76 53.168 0.095 7.06 4.42 8.99
4/11/2021 12:15:00 AM 11.71 53.078 0.095 7.05 3.26 8.95
4/11/2021 12:30:00 AM 11.63 52.934 0.095 7.05 3.71 9.11
4/11/2021 12:45:00 AM 11.56 52.808 0.096 7.05 3.07 8.97
4/11/2021 1:00:00 AM 11.48 52.664 0.096 7.05 3.25 9.11
4/11/2021 1:15:00 AM 11.41 52.538 0.096 7.04 3.32 8.86
4/11/2021 1:30:00 AM 11.34 52.412 0.096 7.05 3.29 9
4/11/2021 1:45:00 AM 11.28 52.304 0.096 7.04 3.59 9.06
4/11/2021 2:00:00 AM 11.21 52.178 0.096 7.04 3.23 9.04
4/11/2021 2:15:00 AM 11.15 52.07 0.096 7.04 3.15 9.11
4/11/2021 2:30:00 AM 11.08 51.944 0.095 7.05 3.41 9.19
4/11/2021 2:45:00 AM 11.02 51.836 0.096 7.04 3.14 9.16
4/11/2021 3:00:00 AM 10.96 51.728 0.096 7.04 3.42 9.08
4/11/2021 3:15:00 AM 10.9 51.62 0.096 7.04 3.54 9.21
4/11/2021 3:30:00 AM 10.84 51.512 0.096 7.03 3.29 9.15
4/11/2021 3:45:00 AM 10.78 51.404 0.096 7.04 3.14 9.2
4/11/2021 4:00:00 AM 10.68 51.224 0.096 7.03 6.61 9.49
4/11/2021 4:15:00 AM 10.65 51.17 0.096 7.04 3.53 9.43
4/11/2021 4:30:00 AM 10.59 51.062 0.096 7.04 3.7 9.46
4/11/2021 4:45:00 AM 10.56 51.008 0.097 7.04 3.33 9.24
4/11/2021 5:00:00 AM 10.5 50.9 0.096 7.03 3.53 9.21
4/11/2021 5:15:00 AM 10.47 50.846 0.096 7.03 3.92 9.33
4/11/2021 5:30:00 AM 10.43 50.774 0.097 7.04 3.32 9.26
4/11/2021 5:45:00 AM 10.39 50.702 0.097 7.03 3.49 9.19
4/11/2021 6:00:00 AM 10.34 50.612 0.097 7.02 4.02 9.35
4/11/2021 6:15:00 AM 10.31 50.558 0.097 7.03 3.5 9.25
4/11/2021 6:30:00 AM 10.29 50.522 0.097 7.02 3.52 9.13
4/11/2021 6:45:00 AM 10.26 50.468 0.097 7.01 3.61 8.97
4/11/2021 7:00:00 AM 10.23 50.414 0.097 7.01 4.15 8.86
4/11/2021 7:15:00 AM 10.21 50.378 0.097 7.01 4.36 8.86
4/11/2021 7:30:00 AM 10.18 50.324 0.098 7.01 4.61 8.84
4/11/2021 7:45:00 AM 10.16 50.288 0.098 7.02 4.81 8.78
4/11/2021 8:00:00 AM 10.15 50.27 0.097 7.03 4.12 8.9
4/11/2021 8:15:00 AM 10.15 50.27 0.097 7.05 3.95 9.21
4/11/2021 8:30:00 AM 10.17 50.306 0.097 7.09 3.91 9.41
4/11/2021 8:45:00 AM 10.19 50.342 0.097 7.13 3.52 9.83
4/11/2021 9:00:00 AM 10.21 50.378 0.097 7.16 3.37 9.99
4/11/2021 9:15:00 AM 10.23 50.414 0.097 7.17 3.79 10.11
4/11/2021 9:30:00 AM 10.25 50.45 0.097 7.2 3.11 10.21
4/11/2021 9:45:00 AM 10.28 50.504 0.096 7.24 3.16 10.31
4/11/2021 10:00:00 AM 10.31 50.558 0.096 7.25 3.07 10.43
4/11/2021 10:15:00 AM 10.34 50.612 0.096 7.28 3.1 10.48
4/11/2021 10:30:00 AM 10.37 50.666 0.096 7.3 3.07 10.5
4/11/2021 10:45:00 AM 10.4 50.72 0.096 7.31 2.96 10.59
4/11/2021 11:00:00 AM 10.43 50.774 0.096 7.33 2.99 10.61
4/11/2021 11:15:00 AM 10.47 50.846 0.095 7.36 2.97 10.61
4/11/2021 11:30:00 AM 10.51 50.918 0.095 7.37 2.97 10.66
4/11/2021 11:45:00 AM 10.55 50.99 0.094 7.39 2.94 10.72
4/11/2021 12:00:00 PM 10.59 51.062 0.095 7.41 2.97 10.8
4/11/2021 12:15:00 PM 10.64 51.152 0.094 7.44 3.02 10.81
4/11/2021 12:30:00 PM 10.68 51.224 0.094 7.46 3.19 10.81
4/11/2021 12:45:00 PM 10.74 51.332 0.094 7.49 3.13 10.96
4/11/2021 1:00:00 PM 10.81 51.458 0.094 7.5 3.18 10.85
4/11/2021 1:15:00 PM 10.88 51.584 0.093 7.54 3.16 10.98
4/11/2021 1:30:00 PM 10.95 51.71 0.093 7.55 3.2 10.94
4/11/2021 1:45:00 PM 11.01 51.818 0.093 7.58 3.14 11
4/11/2021 2:00:00 PM 11.06 51.908 0.093 7.61 3.29 10.96
4/11/2021 2:15:00 PM 11.11 51.998 0.093 7.65 3.3 10.97
4/11/2021 2:30:00 PM 11.16 52.088 0.092 7.72 3.51 11.02
4/11/2021 2:45:00 PM 11.22 52.196 0.092 7.74 3.68 11.01
4/11/2021 3:00:00 PM 11.28 52.304 0.092 7.73 3.52 11.03
4/11/2021 3:15:00 PM 11.34 52.412 0.091 7.79 3.5 11.06
4/11/2021 3:30:00 PM 11.41 52.538 0.091 7.91 5.21 10.91
4/11/2021 3:45:00 PM 11.48 52.664 0.091 7.88 3.87 10.92
4/11/2021 4:00:00 PM 11.54 52.772 0.091 7.96 4.98 10.96
4/11/2021 4:15:00 PM 11.6 52.88 0.091 7.93 6.27 10.95
4/11/2021 4:30:00 PM 11.65 52.97 0.091 7.93 5.94 10.88
4/11/2021 4:45:00 PM 11.69 53.042 0.091 8.03 5.45 10.85
4/11/2021 5:00:00 PM 11.71 53.078 0.09 7.94 5.2 10.76
4/11/2021 5:15:00 PM 11.72 53.096 0.09 7.79 6.33 10.6
4/11/2021 5:30:00 PM 11.71 53.078 0.09 7.75 7.22 10.47
4/11/2021 5:45:00 PM 11.7 53.06 0.09 7.67 6.84 10.37
4/11/2021 6:00:00 PM 11.69 53.042 0.091 7.54 7.41 10.19
4/11/2021 6:15:00 PM 11.67 53.006 0.091 7.49 9.9 10.11
4/11/2021 6:30:00 PM 11.64 52.952 0.091 7.47 12.19 10.06
4/11/2021 6:45:00 PM 11.62 52.916 0.092 7.45 9.26 9.96
4/11/2021 7:00:00 PM 11.6 52.88 0.093 7.4 10.37 9.65
4/11/2021 7:15:00 PM 11.58 52.844 0.093 7.35 10.42 9.57
4/11/2021 7:30:00 PM 11.55 52.79 0.093 7.29 11.04 8.96
4/11/2021 7:45:00 PM 11.51 52.718 0.094 7.26 12.67 9.58
4/11/2021 8:00:00 PM 11.47 52.646 0.094 7.22 12.23 9.65
4/11/2021 8:15:00 PM 11.42 52.556 0.094 7.25 11.93 9.77
4/11/2021 8:30:00 PM 11.38 52.484 0.094 7.24 12.31 9.81
4/11/2021 8:45:00 PM 11.35 52.43 0.094 7.23 12.88 9.81
4/11/2021 9:00:00 PM 11.31 52.358 0.094 7.22 13.45 9.82
4/11/2021 9:15:00 PM 11.27 52.286 0.093 7.22 12.97 9.83
4/11/2021 9:30:00 PM 11.24 52.232 0.093 7.22 14.49 9.83
4/11/2021 9:45:00 PM 11.21 52.178 0.093 7.21 13.26 9.85
4/11/2021 10:00:00 PM 11.18 52.124 0.093 7.21 12.78 9.86
4/11/2021 10:15:00 PM 11.15 52.07 0.094 7.21 13.31 9.88
4/11/2021 10:30:00 PM 11.12 52.016 0.095 7.21 13 9.89
4/11/2021 10:45:00 PM 11.09 51.962 0.095 7.21 12.26 9.9
4/11/2021 11:00:00 PM 11.06 51.908 0.095 7.2 12.27 9.9
4/11/2021 11:15:00 PM 11.03 51.854 0.095 7.21 12.01 9.91
4/11/2021 11:30:00 PM 11 51.8 0.095 7.2 11.99 9.93
4/11/2021 11:45:00 PM 10.97 51.746 0.095 7.2 10.65 9.93
4/12/2021 12:00:00 AM 10.94 51.692 0.095 7.2 10.65 9.94
4/12/2021 12:15:00 AM 10.9 51.62 0.094 7.19 10.71 9.95
4/12/2021 12:30:00 AM 10.87 51.566 0.095 7.2 10.9 9.95
4/12/2021 12:45:00 AM 10.83 51.494 0.095 7.19 9.63 9.96
4/12/2021 1:00:00 AM 10.8 51.44 0.094 7.19 10.37 9.98
4/12/2021 1:15:00 AM 10.76 51.368 0.094 7.19 9.07 9.98
4/12/2021 1:30:00 AM 10.73 51.314 0.094 7.19 9.14 9.99
4/12/2021 1:45:00 AM 10.69 51.242 0.094 7.19 9.6 10
4/12/2021 2:00:00 AM 10.66 51.188 0.094 7.19 8.99 10.01
4/12/2021 2:15:00 AM 10.62 51.116 0.093 7.19 8.49 10.02
4/12/2021 2:30:00 AM 10.59 51.062 0.093 7.19 8.64 10.02
4/12/2021 2:45:00 AM 10.56 51.008 0.093 7.19 8.27 10.03
4/12/2021 3:00:00 AM 10.52 50.936 0.093 7.19 8.8 10.04
4/12/2021 3:15:00 AM 10.49 50.882 0.093 7.18 13.62 10.04
4/12/2021 3:30:00 AM 10.45 50.81 0.093 7.18 9.57 10.03
4/12/2021 3:45:00 AM 10.41 50.738 0.093 7.18 8.14 10.06
4/12/2021 4:00:00 AM 10.38 50.684 0.093 7.17 9.69 10.04
4/12/2021 4:15:00 AM 10.34 50.612 0.093 7.18 8.42 10.01
4/12/2021 4:30:00 AM 10.3 50.54 0.093 7.18 7.98 10.07
4/12/2021 4:45:00 AM 10.28 50.504 0.093 7.17 9.47 10.02
4/12/2021 5:00:00 AM 10.24 50.432 0.093 7.17 7.35 10.06
4/12/2021 5:15:00 AM 10.21 50.378 0.093 7.18 8.93 10.07
4/12/2021 5:30:00 AM 10.17 50.306 0.093 7.17 7.03 10.11
4/12/2021 5:45:00 AM 10.15 50.27 0.093 7.17 8.4 10
4/12/2021 6:00:00 AM 10.1 50.18 0.093 7.18 7.15 10.09
4/12/2021 6:15:00 AM 10.08 50.144 0.094 7.17 6.5 10.08
4/12/2021 6:30:00 AM 10.05 50.09 0.094 7.17 6.63 10.07
4/12/2021 6:45:00 AM 10 50 0.094 7.17 6.55 10.14
4/12/2021 7:00:00 AM 9.98 49.964 0.094 7.17 6.07 10.1
4/12/2021 7:15:00 AM 9.94 49.892 0.094 7.17 5.77 10.14
4/12/2021 7:30:00 AM 9.9 49.82 0.094 7.17 5.88 10.14
4/12/2021 7:45:00 AM 9.88 49.784 0.094 7.17 5.57 10.13
4/12/2021 8:00:00 AM 9.82 49.676 0.094 7.16 5.55 10.07
4/12/2021 8:15:00 AM 9.77 49.586 0.094 7.2 5.36 10.26
4/12/2021 8:30:00 AM 9.72 49.496 0.094 7.21 5.16 10.37
4/12/2021 8:45:00 AM 9.68 49.424 0.094 7.23 5.15 10.43
4/12/2021 9:00:00 AM 9.65 49.37 0.094 7.24 5.02 10.47
4/12/2021 9:15:00 AM 9.62 49.316 0.094 7.26 4.95 10.5
4/12/2021 9:30:00 AM 9.58 49.244 0.094 7.28 4.83 10.66
4/12/2021 9:45:00 AM 9.57 49.226 0.094 7.29 4.71 10.66
4/12/2021 10:00:00 AM 9.56 49.208 0.095 7.21 4.78 10.18
4/12/2021 10:15:00 AM 9.52 49.136 0.095 7.32 4.68 10.53
4/12/2021 10:30:00 AM 9.5 49.1 0.095 7.32 4.65 10.82
4/12/2021 10:45:00 AM 9.48 49.064 0.095 7.26 4.59 10.72
4/12/2021 11:00:00 AM 9.47 49.046 0.095 7.34 4.5 10.75
4/12/2021 11:15:00 AM 9.45 49.01 0.095 7.31 4.37 10.74
4/12/2021 11:30:00 AM 9.44 48.992 0.096 7.33 4.8 10.61
4/12/2021 11:45:00 AM 9.43 48.974 0.095 7.37 4.45 10.78
4/12/2021 12:00:00 PM 9.43 48.974 0.095 7.39 4.24 10.74
4/12/2021 12:15:00 PM 9.42 48.956 0.094 7.52 4.35 11.28
4/12/2021 12:30:00 PM 9.42 48.956 0.094 7.61 4.54 11.43
4/12/2021 12:45:00 PM 9.43 48.974 0.094 7.67 4.4 11.44
4/12/2021 1:00:00 PM 9.45 49.01 0.096 7.7 4.36 11.47
4/12/2021 1:15:00 PM 9.49 49.082 0.096 7.73 4.48 11.5
4/12/2021 1:30:00 PM 9.51 49.118 0.097 7.76 4.27 11.52
4/12/2021 1:45:00 PM 9.54 49.172 0.097 7.78 4.17 11.52
4/12/2021 2:00:00 PM 9.55 49.19 0.098 7.8 4.24 11.52
4/12/2021 2:15:00 PM 9.57 49.226 0.101 7.81 4.43 11.53
4/12/2021 2:30:00 PM 9.59 49.262 0.109 7.82 4.41 11.54
4/12/2021 2:45:00 PM 9.58 49.244 0.095 7.82 4.77 11.53
4/12/2021 3:00:00 PM 9.57 49.226 0.11 7.81 4.89 11.51
4/12/2021 3:15:00 PM 9.56 49.208 0.11 7.79 5.36 11.48
4/12/2021 3:30:00 PM 9.56 49.208 0.107 7.75 5.61 11.4
4/12/2021 3:45:00 PM 9.56 49.208 0.089 7.67 5.86 11.21
4/12/2021 4:00:00 PM 9.56 49.208 0.096 7.51 6.23 10.8
4/12/2021 4:15:00 PM 9.55 49.19 0.1 7.58 5.69 11.02
4/12/2021 4:30:00 PM 9.55 49.19 0.1 7.53 5.41 11.01
4/12/2021 4:45:00 PM 9.55 49.19 0.096 7.52 5.24 11.1
4/12/2021 5:00:00 PM 9.56 49.208 0.094 7.54 5.02 11.07
4/12/2021 5:15:00 PM 9.56 49.208 0.096 7.49 4.74 10.87
4/12/2021 5:30:00 PM 9.56 49.208 0.095 7.45 4.98 10.83
4/12/2021 5:45:00 PM 9.54 49.172 0.095 7.43 4.76 10.74
4/12/2021 6:00:00 PM 9.54 49.172 0.094 7.38 4.94 10.38
4/12/2021 6:15:00 PM 9.52 49.136 0.093 7.36 4.55 10.41
4/12/2021 6:30:00 PM 9.5 49.1 0.092 7.35 4.5 10.4
4/12/2021 6:45:00 PM 9.49 49.082 0.096 7.25 5.13 9.91
4/12/2021 7:00:00 PM 9.46 49.028 0.03 7.21 4.47 10.11
4/12/2021 7:15:00 PM 9.44 48.992 0.091 7.24 4.37 10.18
4/12/2021 7:30:00 PM 9.41 48.938 0.091 7.23 4.4 10.11
4/12/2021 7:45:00 PM 9.36 48.848 0.091 7.2 8.6 10.15
4/12/2021 8:00:00 PM 9.34 48.812 0.09 7.18 5.95 10.13
4/12/2021 8:15:00 PM 9.3 48.74 0.09 7.17 6.97 10.1
4/12/2021 8:30:00 PM 9.27 48.686 0.09 7.19 7.81 10.3
4/12/2021 8:45:00 PM 9.25 48.65 0.09 7.19 5.28 10.24
4/12/2021 9:00:00 PM 9.22 48.596 0.09 7.17 4.55 10.26
4/12/2021 9:15:00 PM 9.19 48.542 0.09 7.17 4.42 10.28
4/12/2021 9:30:00 PM 9.15 48.47 0.09 7.16 4.43 10.27
4/12/2021 9:45:00 PM 9.11 48.398 0.09 7.15 5.72 10.14
4/12/2021 10:00:00 PM 9.08 48.344 0.09 7.15 5.65 10.3
4/12/2021 10:15:00 PM 9.05 48.29 0.09 7.15 5.07 10.07
4/12/2021 10:30:00 PM 9.03 48.254 0.09 7.15 4.51 10.23
4/12/2021 10:45:00 PM 8.99 48.182 0.09 7.14 4.58 10.25
4/12/2021 11:00:00 PM 8.96 48.128 0.09 7.14 4.67 10.29
4/12/2021 11:15:00 PM 8.94 48.092 0.09 7.14 4.75 10.27
4/12/2021 11:30:00 PM 8.91 48.038 0.09 7.14 4.91 10.3
4/12/2021 11:45:00 PM 8.88 47.984 0.09 7.14 5.06 10.27
4/13/2021 12:00:00 AM 8.83 47.894 0.09 7.11 12.93 10.32
4/13/2021 12:15:00 AM 8.82 47.876 0.09 7.13 6.38 10.33
4/13/2021 12:30:00 AM 8.77 47.786 0.09 7.14 6 10.45
4/13/2021 12:45:00 AM 8.74 47.732 0.09 7.15 5.45 10.45
4/13/2021 1:00:00 AM 8.72 47.696 0.09 7.14 5.58 10.49
4/13/2021 1:15:00 AM 8.7 47.66 0.09 7.14 5.73 10.48
4/13/2021 1:30:00 AM 8.66 47.588 0.09 7.15 5.76 10.56
4/13/2021 1:45:00 AM 8.65 47.57 0.09 7.14 6.37 10.51
4/13/2021 2:00:00 AM 8.63 47.534 0.09 7.15 5.73 10.55
4/13/2021 2:15:00 AM 8.61 47.498 0.09 7.13 5.63 10.45
4/13/2021 2:30:00 AM 8.56 47.408 0.09 7.13 6.94 10.56
4/13/2021 2:45:00 AM 8.53 47.354 0.09 7.15 6.53 10.6
4/13/2021 3:00:00 AM 8.51 47.318 0.09 7.16 5.97 10.62
4/13/2021 3:15:00 AM 8.48 47.264 0.089 7.16 5.38 10.63
4/13/2021 3:30:00 AM 8.45 47.21 0.09 7.15 7.36 10.62
4/13/2021 3:45:00 AM 8.42 47.156 0.089 7.15 11.01 10.65
4/13/2021 4:00:00 AM 8.39 47.102 0.089 7.15 6.1 10.67
4/13/2021 4:15:00 AM 8.37 47.066 0.089 7.15 5.66 10.65
4/13/2021 4:30:00 AM 8.33 46.994 0.09 7.15 5.67 10.68
4/13/2021 4:45:00 AM 8.29 46.922 0.089 7.15 5.22 10.7
4/13/2021 5:00:00 AM 8.25 46.85 0.089 7.15 5.47 10.7
4/13/2021 5:15:00 AM 8.22 46.796 0.089 7.16 5.9 10.71
4/13/2021 5:30:00 AM 8.19 46.742 0.09 7.15 4.94 10.73
4/13/2021 5:45:00 AM 8.17 46.706 0.09 7.13 5.02 10.58
4/13/2021 6:00:00 AM 8.16 46.688 0.09 7.14 4.64 10.64
4/13/2021 6:15:00 AM 8.13 46.634 0.09 7.13 4.59 10.56
4/13/2021 6:30:00 AM 8.09 46.562 0.09 7.13 5.05 10.54
4/13/2021 6:45:00 AM 8.06 46.508 0.089 7.15 4.67 10.75
4/13/2021 7:00:00 AM 8.03 46.454 0.089 7.16 4.6 10.8
4/13/2021 7:15:00 AM 8.02 46.436 0.09 7.16 4.69 10.6
4/13/2021 7:30:00 AM 8 46.4 0.09 7.17 4.37 10.74
4/13/2021 7:45:00 AM 7.99 46.382 0.091 7.16 4.35 10.3
4/13/2021 8:00:00 AM 7.98 46.364 0.091 7.18 4.35 10.52
4/13/2021 8:15:00 AM 7.97 46.346 0.09 7.22 4.49 10.9
4/13/2021 8:30:00 AM 7.97 46.346 0.091 7.24 4.26 10.95
4/13/2021 8:45:00 AM 7.98 46.364 0.09 7.29 4.4 11.03
4/13/2021 9:00:00 AM 8 46.4 0.09 7.3 4.13 10.75
4/13/2021 9:15:00 AM 8.02 46.436 0.09 7.32 4.21 11.26
4/13/2021 9:30:00 AM 8.05 46.49 0.09 7.35 4.11 11.18
4/13/2021 9:45:00 AM 8.1 46.58 0.09 7.39 4.2 11.07
4/13/2021 10:00:00 AM 8.18 46.724 0.09 7.4 4.07 11.11
4/13/2021 10:15:00 AM 8.27 46.886 0.089 7.41 3.93 10.95
4/13/2021 10:30:00 AM 8.38 47.084 0.089 7.45 4.13 11.16
4/13/2021 10:45:00 AM 8.5 47.3 0.089 7.46 4.25 11.12
4/13/2021 11:00:00 AM 8.64 47.552 0.089 7.5 4.58 11.22
4/13/2021 11:15:00 AM 8.82 47.876 0.089 7.47 4.49 11.17
4/13/2021 11:30:00 AM 9.04 48.272 0.089 7.51 4.2 11.14
4/13/2021 11:45:00 AM 9.3 48.74 0.089 7.57 3.94 11.25
4/13/2021 12:00:00 PM 9.56 49.208 0.089 7.57 3.94 11.2
4/13/2021 12:15:00 PM 9.84 49.712 0.089 7.62 3.71 11.07
4/13/2021 12:30:00 PM 10.14 50.252 0.089 7.59 3.73 10.75
4/13/2021 12:45:00 PM 10.48 50.864 0.089 7.68 3.76 10.93
4/13/2021 1:00:00 PM 10.81 51.458 0.089 7.71 3.65 10.84
4/13/2021 1:15:00 PM 11.12 52.016 0.089 7.65 3.63 10.91
4/13/2021 1:30:00 PM 11.41 52.538 0.089 7.72 4.33 10.87
4/13/2021 1:45:00 PM 11.77 53.186 0.088 7.74 9.42 11.03
4/13/2021 2:00:00 PM 12.03 53.654 0.088 7.81 4.27 11.05
4/13/2021 2:15:00 PM 12.28 54.104 0.088 7.81 3.77 10.56
4/13/2021 2:30:00 PM 12.56 54.608 0.088 7.8 3.61 10.53
4/13/2021 2:45:00 PM 12.83 55.094 0.088 7.9 3.63 10.84
4/13/2021 3:00:00 PM 13.04 55.472 0.089 7.8 3.46 10.33
4/13/2021 3:15:00 PM 13.26 55.868 0.088 7.82 5.55 10.43
4/13/2021 3:30:00 PM 13.41 56.138 0.088 7.9 4.41 10.63
4/13/2021 3:45:00 PM 13.57 56.426 0.088 7.78 3.88 10.23
4/13/2021 4:00:00 PM 13.67 56.606 0.088 7.95 3.8 10.39
4/13/2021 4:15:00 PM 13.75 56.75 0.088 7.92 3.62 10.17
4/13/2021 4:30:00 PM 13.81 56.858 0.089 7.89 3.6 10.51
4/13/2021 4:45:00 PM 13.82 56.876 0.088 7.93 3.45 10.35
4/13/2021 5:00:00 PM 13.81 56.858 0.088 7.9 3.46 10.45
4/13/2021 5:15:00 PM 13.77 56.786 0.089 7.86 3.62 10.42
4/13/2021 5:30:00 PM 13.71 56.678 0.088 7.83 3.82 10.47
4/13/2021 5:45:00 PM 13.62 56.516 0.089 7.62 3.45 10.22
4/13/2021 6:00:00 PM 13.5 56.3 0.09 7.67 3.63 10.08
4/13/2021 6:15:00 PM 13.37 56.066 0.09 7.56 3.72 9.99
4/13/2021 6:30:00 PM 13.22 55.796 0.09 7.46 3.67 9.94
4/13/2021 6:45:00 PM 13.06 55.508 0.09 7.39 3.54 9.95
4/13/2021 7:00:00 PM 12.88 55.184 0.09 7.48 4.38 10
4/13/2021 7:15:00 PM 12.71 54.878 0.09 7.4 3.85 9.88
4/13/2021 7:30:00 PM 12.55 54.59 0.091 7.38 4.67 9.96
4/13/2021 7:45:00 PM 12.33 54.194 0.091 7.29 410.63 9.8
4/13/2021 8:00:00 PM 12.21 53.978 0.091 7.24 4.28 9.71
4/13/2021 8:15:00 PM 12.04 53.672 0.091 7.21 8.62 9.72
4/13/2021 8:30:00 PM 11.93 53.474 0.091 7.2 10.79 9.68
4/13/2021 8:45:00 PM 11.79 53.222 0.092 7.17 5.74 9.64
4/13/2021 9:00:00 PM 11.66 52.988 0.092 7.15 4.55 9.65
4/13/2021 9:15:00 PM 11.51 52.718 0.092 7.12 4.7 9.47
4/13/2021 9:30:00 PM 11.38 52.484 0.092 7.12 4.28 9.56
4/13/2021 9:45:00 PM 11.27 52.286 0.092 7.11 3.99 9.62
4/13/2021 10:00:00 PM 11.14 52.052 0.092 7.09 3.91 9.47
4/13/2021 10:15:00 PM 11.01 51.818 0.092 7.1 3.95 9.72
4/13/2021 10:30:00 PM 10.88 51.584 0.093 7.07 3.89 9.56
4/13/2021 10:45:00 PM 10.74 51.332 0.093 7.08 3.82 9.52
4/13/2021 11:00:00 PM 10.61 51.098 0.093 7.08 3.72 9.67
4/13/2021 11:15:00 PM 10.47 50.846 0.093 7.06 4.48 9.82
4/13/2021 11:30:00 PM 10.37 50.666 0.093 7.06 3.69 9.73
4/13/2021 11:45:00 PM 10.23 50.414 0.093 7.07 4.11 9.86
4/14/2021 12:00:00 AM 10.1 50.18 0.093 7.08 5 9.88
4/14/2021 12:15:00 AM 10.01 50.018 0.093 7.09 3.8 9.92
4/14/2021 12:30:00 AM 9.9 49.82 0.093 7.08 3.86 10.04
4/14/2021 12:45:00 AM 9.78 49.604 0.093 7.08 4.06 9.98
4/14/2021 1:00:00 AM 9.7 49.46 0.093 7.09 3.73 9.93
4/14/2021 1:15:00 AM 9.6 49.28 0.093 7.08 3.65 9.93
4/14/2021 1:30:00 AM 9.5 49.1 0.093 7.08 3.64 10.04
4/14/2021 1:45:00 AM 9.41 48.938 0.093 7.09 3.6 10.01
4/14/2021 2:00:00 AM 9.31 48.758 0.093 7.08 3.52 10.06
4/14/2021 2:15:00 AM 9.23 48.614 0.093 7.09 3.58 10.12
4/14/2021 2:30:00 AM 9.14 48.452 0.093 7.08 3.48 10.04
4/14/2021 2:45:00 AM 9.03 48.254 0.093 7.09 3.59 10.15
4/14/2021 3:00:00 AM 8.91 48.038 0.093 7.07 12.86 10.21
4/14/2021 3:15:00 AM 8.85 47.93 0.094 7.08 6.04 10.19
4/14/2021 3:30:00 AM 8.77 47.786 0.093 7.08 4.29 10.18
4/14/2021 3:45:00 AM 8.67 47.606 0.094 7.06 4.29 10.24
4/14/2021 4:00:00 AM 8.57 47.426 0.094 7.07 10.03 10.34
4/14/2021 4:15:00 AM 8.54 47.372 0.094 7.09 5.41 10.37
4/14/2021 4:30:00 AM 8.46 47.228 0.094 7.08 4.75 10.38
4/14/2021 4:45:00 AM 8.43 47.174 0.094 7.08 5 10.36
4/14/2021 5:00:00 AM 8.37 47.066 0.094 7.07 7.32 10.23
4/14/2021 5:15:00 AM 8.31 46.958 0.094 7.07 4.58 10.33
4/14/2021 5:30:00 AM 8.26 46.868 0.094 7.07 4.5 10.42
4/14/2021 5:45:00 AM 8.22 46.796 0.094 7.06 3.87 10.25
4/14/2021 6:00:00 AM 8.16 46.688 0.094 7.07 4.1 10.29
4/14/2021 6:15:00 AM 8.1 46.58 0.094 7.07 3.91 10.31
4/14/2021 6:30:00 AM 8.06 46.508 0.094 7.06 3.51 10.31
4/14/2021 6:45:00 AM 7.99 46.382 0.094 7.06 6.41 10.37
4/14/2021 7:00:00 AM 7.95 46.31 0.094 7.09 4.89 10.45
4/14/2021 7:15:00 AM 7.91 46.238 0.094 7.08 4.95 10.19
4/14/2021 7:30:00 AM 7.87 46.166 0.094 7.06 6.55 10.33
4/14/2021 7:45:00 AM 7.84 46.112 0.094 7.11 5.52 10.64
4/14/2021 8:00:00 AM 7.82 46.076 0.093 7.12 4.41 10.74
4/14/2021 8:15:00 AM 7.81 46.058 0.094 7.13 3.76 10.68
4/14/2021 8:30:00 AM 7.81 46.058 0.093 7.17 3.62 11.1
4/14/2021 8:45:00 AM 7.82 46.076 0.093 7.21 3.62 11.04
4/14/2021 9:00:00 AM 7.85 46.13 0.093 7.19 3.47 11.22
4/14/2021 9:15:00 AM 7.88 46.184 0.093 7.25 3.48 11.35
4/14/2021 9:30:00 AM 7.93 46.274 0.093 7.29 3.37 11.51
4/14/2021 9:45:00 AM 8.03 46.454 0.093 7.27 3.22 11.3
4/14/2021 10:00:00 AM 8.16 46.688 0.093 7.28 3.31 11.62
4/14/2021 10:15:00 AM 8.28 46.904 0.093 7.31 3.26 11.52
4/14/2021 10:30:00 AM 8.42 47.156 0.093 7.38 3.17 11.57
4/14/2021 10:45:00 AM 8.61 47.498 0.093 7.36 3.2 11.58
4/14/2021 11:00:00 AM 8.81 47.858 0.092 7.39 3.17 11.63
4/14/2021 11:15:00 AM 9.01 48.218 0.092 7.52 3.21 11.8
4/14/2021 11:30:00 AM 9.19 48.542 0.092 7.49 3.13 11.45
4/14/2021 11:45:00 AM 9.38 48.884 0.092 7.47 3.17 11.41
4/14/2021 12:00:00 PM 9.57 49.226 0.091 7.47 3.16 11.46
4/14/2021 12:15:00 PM 9.73 49.514 0.092 7.57 3.11 11.2
4/14/2021 12:30:00 PM 9.96 49.928 0.091 7.65 3.13 11.38
4/14/2021 12:45:00 PM 10.19 50.342 0.091 7.65 3.16 11.23
4/14/2021 1:00:00 PM 10.39 50.702 0.091 7.65 3.16 11.08
4/14/2021 1:15:00 PM 10.53 50.954 0.091 7.58 3.09 11.16
4/14/2021 1:30:00 PM 10.68 51.224 0.091 7.61 3.11 11.04
4/14/2021 1:45:00 PM 10.81 51.458 0.091 7.54 3.02 10.86
4/14/2021 2:00:00 PM 10.87 51.566 0.091 7.64 3.16 10.91
4/14/2021 2:15:00 PM 10.87 51.566 0.091 7.51 3.14 10.97
4/14/2021 2:30:00 PM 10.86 51.548 0.091 7.51 4.19 10.72
4/14/2021 2:45:00 PM 10.83 51.494 0.09 7.51 5.01 10.75
4/14/2021 3:00:00 PM 10.83 51.494 0.091 7.43 3.24 10.6
4/14/2021 3:15:00 PM 10.85 51.53 0.091 7.45 3.09 10.58
4/14/2021 3:30:00 PM 10.87 51.566 0.091 7.39 3.24 10.43
4/14/2021 3:45:00 PM 10.89 51.602 0.091 7.46 3.09 10.36
4/14/2021 4:00:00 PM 10.9 51.62 0.092 7.5 3.29 10.49
4/14/2021 4:15:00 PM 10.91 51.638 0.092 7.44 3.18 10.41
4/14/2021 4:30:00 PM 10.92 51.656 0.091 7.44 3.06 10.36
4/14/2021 4:45:00 PM 10.95 51.71 0.091 7.42 3.13 10.37
4/14/2021 5:00:00 PM 10.96 51.728 0.091 7.46 4.67 10.58
4/14/2021 5:15:00 PM 10.97 51.746 0.091 7.47 3.95 10.66
4/14/2021 5:30:00 PM 11 51.8 0.091 7.43 3.25 10.65
4/14/2021 5:45:00 PM 11.05 51.89 0.091 7.42 5.43 10.67
4/14/2021 6:00:00 PM 11.09 51.962 0.09 7.45 3.58 10.57
4/14/2021 6:15:00 PM 11.12 52.016 0.091 7.48 3.2 10.83
4/14/2021 6:30:00 PM 11.11 51.998 0.091 7.44 3.23 10.65
4/14/2021 6:45:00 PM 11.07 51.926 0.09 7.44 3.18 10.53
4/14/2021 7:00:00 PM 11.04 51.872 0.091 7.43 3.26 10.55
4/14/2021 7:15:00 PM 11 51.8 0.091 7.41 3.14 10.31
4/14/2021 7:30:00 PM 10.95 51.71 0.091 7.36 3.24 10.17
4/14/2021 7:45:00 PM 10.88 51.584 0.091 7.33 3.5 9.91
4/14/2021 8:00:00 PM 10.81 51.458 0.091 7.29 3.53 10.13
4/14/2021 8:15:00 PM 10.71 51.278 0.091 7.24 4.76 10.05
4/14/2021 8:30:00 PM 10.63 51.134 0.091 7.23 3.99 10.07
4/14/2021 8:45:00 PM 10.58 51.044 0.091 7.21 3.52 9.99
4/14/2021 9:00:00 PM 10.52 50.936 0.091 7.18 3.31 9.87
4/14/2021 9:15:00 PM 10.45 50.81 0.091 7.16 3.29 9.76
4/14/2021 9:30:00 PM 10.37 50.666 0.092 7.14 3.35 9.79
4/14/2021 9:45:00 PM 10.3 50.54 0.092 7.12 3.33 9.76
4/14/2021 10:00:00 PM 10.22 50.396 0.092 7.11 3.29 9.85
4/14/2021 10:15:00 PM 10.13 50.234 0.092 7.1 3.97 9.85
4/14/2021 10:30:00 PM 10.07 50.126 0.092 7.1 3.3 9.81
4/14/2021 10:45:00 PM 10 50 0.092 7.1 3.36 9.84
4/14/2021 11:00:00 PM 9.94 49.892 0.092 7.1 3.34 9.82
4/14/2021 11:15:00 PM 9.86 49.748 0.092 7.09 3.36 9.78
4/14/2021 11:30:00 PM 9.8 49.64 0.092 7.09 3.37 9.86
4/14/2021 11:45:00 PM 9.72 49.496 0.092 7.08 3.36 9.8
4/15/2021 12:00:00 AM 9.64 49.352 0.092 7.09 3.72 9.85
4/15/2021 12:15:00 AM 9.58 49.244 0.092 7.09 3.38 10
4/15/2021 12:30:00 AM 9.52 49.136 0.092 7.09 3.59 9.93
4/15/2021 12:45:00 AM 9.47 49.046 0.092 7.09 3.67 9.95
4/15/2021 1:00:00 AM 9.44 48.992 0.092 7.08 3.38 10
4/15/2021 1:15:00 AM 9.4 48.92 0.092 7.08 3.22 9.96
4/15/2021 1:30:00 AM 9.36 48.848 0.092 7.09 3.24 10.09
4/15/2021 1:45:00 AM 9.33 48.794 0.093 7.08 3.27 10.02
4/15/2021 2:00:00 AM 9.29 48.722 0.092 7.09 3.25 10.07
4/15/2021 2:15:00 AM 9.25 48.65 0.092 7.08 3.87 9.98
4/15/2021 2:30:00 AM 9.21 48.578 0.093 7.07 4 10.02
4/15/2021 2:45:00 AM 9.18 48.524 0.092 7.07 3.45 10.04
4/15/2021 3:00:00 AM 9.14 48.452 0.092 7.08 3.36 10
4/15/2021 3:15:00 AM 9.11 48.398 0.092 7.08 3.35 10.07
4/15/2021 3:30:00 AM 9.08 48.344 0.093 7.08 3.25 9.98
4/15/2021 3:45:00 AM 9.05 48.29 0.092 7.02 3.27 9.9
4/15/2021 4:00:00 AM 9.02 48.236 0.092 7.08 3.32 10.08
4/15/2021 4:15:00 AM 8.99 48.182 0.092 7.07 3.28 9.98
4/15/2021 4:30:00 AM 8.96 48.128 0.092 7.08 3.43 10.08
4/15/2021 4:45:00 AM 8.94 48.092 0.092 7.07 3.4 10.03
4/15/2021 5:00:00 AM 8.9 48.02 0.092 7.06 3.29 9.97
4/15/2021 5:15:00 AM 8.88 47.984 0.092 7.08 3.48 10.01
4/15/2021 5:30:00 AM 8.85 47.93 0.093 7.06 3.7 9.96
4/15/2021 5:45:00 AM 8.82 47.876 0.092 7.07 3.51 10.06
4/15/2021 6:00:00 AM 8.79 47.822 0.093 7.07 3.44 9.92
4/15/2021 6:15:00 AM 8.76 47.768 0.092 7.06 4.04 9.85
4/15/2021 6:30:00 AM 8.73 47.714 0.092 7.06 4 9.97
4/15/2021 6:45:00 AM 8.7 47.66 0.093 7.07 4.07 10.01
4/15/2021 7:00:00 AM 8.66 47.588 0.092 7.07 4.14 10.09
4/15/2021 7:15:00 AM 8.64 47.552 0.093 7.08 4.32 10.12
4/15/2021 7:30:00 AM 8.62 47.516 0.093 7.08 4.04 10.07
4/15/2021 7:45:00 AM 8.6 47.48 0.093 7.11 3.77 10.22
4/15/2021 8:00:00 AM 8.58 47.444 0.092 7.1 3.44 10.16
4/15/2021 8:15:00 AM 8.56 47.408 0.092 7.11 3.36 10.38
4/15/2021 8:30:00 AM 8.55 47.39 0.092 7.13 3.36 10.45
4/15/2021 8:45:00 AM 8.55 47.39 0.092 7.15 3.18 10.43
4/15/2021 9:00:00 AM 8.56 47.408 0.092 7.16 3.18 10.6
4/15/2021 9:15:00 AM 8.57 47.426 0.092 7.19 3.18 10.75
4/15/2021 9:30:00 AM 8.58 47.444 0.092 7.21 3.16 10.81
4/15/2021 9:45:00 AM 8.59 47.462 0.091 7.25 3.23 11.02
4/15/2021 10:00:00 AM 8.61 47.498 0.091 7.26 3.07 11
4/15/2021 10:15:00 AM 8.63 47.534 0.091 7.28 3.12 11.1
4/15/2021 10:30:00 AM 8.67 47.606 0.091 7.29 3.09 11.14
4/15/2021 10:45:00 AM 8.73 47.714 0.091 7.3 3.09 11.19
4/15/2021 11:00:00 AM 8.8 47.84 0.091 7.36 3.11 11.42
4/15/2021 11:15:00 AM 8.85 47.93 0.09 7.38 3.06 11.34
4/15/2021 11:30:00 AM 8.89 48.002 0.09 7.37 3.12 11.33
4/15/2021 11:45:00 AM 8.93 48.074 0.09 7.39 3.78 11.39
4/15/2021 12:00:00 PM 8.97 48.146 0.091 7.42 3.06 11.34
4/15/2021 12:15:00 PM 9.02 48.236 0.091 7.43 3.1 11.31
4/15/2021 12:30:00 PM 9.09 48.362 0.09 7.4 3.13 11.27
4/15/2021 12:45:00 PM 9.14 48.452 0.09 7.47 3.11 11.36
4/15/2021 1:00:00 PM 9.17 48.506 0.09 7.47 3.09 11.36
4/15/2021 1:15:00 PM 9.17 48.506 0.09 7.46 3.17 11.2
4/15/2021 1:30:00 PM 9.17 48.506 0.09 7.47 3.07 11.24
4/15/2021 1:45:00 PM 9.17 48.506 0.09 7.43 3.1 11.17
4/15/2021 2:00:00 PM 9.17 48.506 0.09 7.41 3.08 11.09
4/15/2021 2:15:00 PM 9.18 48.524 0.089 7.39 3.14 11.01
4/15/2021 2:30:00 PM 9.22 48.596 0.089 7.4 3.11 11.09
4/15/2021 2:45:00 PM 9.26 48.668 0.089 7.44 3.13 11.26
4/15/2021 3:00:00 PM 9.34 48.812 0.089 7.44 3.17 11.26
4/15/2021 3:15:00 PM 9.42 48.956 0.089 7.51 3.01 11.34
4/15/2021 3:30:00 PM 9.53 49.154 0.089 7.55 3.04 11.48
4/15/2021 3:45:00 PM 9.63 49.334 0.089 7.56 3.07 11.41
4/15/2021 4:00:00 PM 9.73 49.514 0.089 7.6 3.02 11.42
4/15/2021 4:15:00 PM 9.8 49.64 0.088 7.59 3.17 11.3
4/15/2021 4:30:00 PM 9.8 49.64 0.088 7.62 3.22 11.29
4/15/2021 4:45:00 PM 9.78 49.604 0.089 7.56 3.13 11.1
4/15/2021 5:00:00 PM 9.73 49.514 0.089 7.52 3.14 10.96
4/15/2021 5:15:00 PM 9.68 49.424 0.088 7.48 4.46 10.84
4/15/2021 5:30:00 PM 9.6 49.28 0.088 7.46 3.52 10.84
4/15/2021 5:45:00 PM 9.51 49.118 0.088 7.46 3.44 10.87
4/15/2021 6:00:00 PM 9.43 48.974 0.088 7.4 3.3 10.65
4/15/2021 6:15:00 PM 9.35 48.83 0.089 7.37 3.19 10.55
4/15/2021 6:30:00 PM 9.26 48.668 0.089 7.33 3.24 9.95
4/15/2021 6:45:00 PM 9.17 48.506 0.089 7.3 3.21 10.36
4/15/2021 7:00:00 PM 9.1 48.38 0.089 7.28 3.2 10.33
4/15/2021 7:15:00 PM 9.02 48.236 0.089 7.26 3.43 10.35
4/15/2021 7:30:00 PM 8.94 48.092 0.089 7.23 3.46 10.34
4/15/2021 7:45:00 PM 8.88 47.984 0.089 7.21 3.45 10.22
4/15/2021 8:00:00 PM 8.83 47.894 0.089 7.18 3.71 10.12
4/15/2021 8:15:00 PM 8.74 47.732 0.089 7.18 8.53 10.23
4/15/2021 8:30:00 PM 8.7 47.66 0.089 7.19 4.38 10.36
4/15/2021 8:45:00 PM 8.67 47.606 0.089 7.18 3.35 10.37
4/15/2021 9:00:00 PM 8.63 47.534 0.089 7.16 3.44 10.26
4/15/2021 9:15:00 PM 8.58 47.444 0.089 7.15 3.53 10.25
4/15/2021 9:30:00 PM 8.53 47.354 0.089 7.15 3.61 10.3
4/15/2021 9:45:00 PM 8.47 47.246 0.089 7.14 4.34 10.29
4/15/2021 10:00:00 PM 8.42 47.156 0.089 7.15 3.73 10.35
4/15/2021 10:15:00 PM 8.37 47.066 0.089 7.13 3.47 10.32
4/15/2021 10:30:00 PM 8.3 46.94 0.089 7.12 3.53 10.36
4/15/2021 10:45:00 PM 8.23 46.814 0.089 7.11 3.68 10.3
4/15/2021 11:00:00 PM 8.16 46.688 0.089 7.11 3.47 10.31
4/15/2021 11:15:00 PM 8.12 46.616 0.089 7.11 3.49 10.34
4/15/2021 11:30:00 PM 8.06 46.508 0.089 7.12 3.55 10.37
4/15/2021 11:45:00 PM 8.02 46.436 0.09 7.12 3.36 10.42
4/16/2021 12:00:00 AM 7.96 46.328 0.09 7.11 3.3 10.34
4/16/2021 12:15:00 AM 7.88 46.184 0.09 7.11 3.43 10.42
4/16/2021 12:30:00 AM 7.81 46.058 0.09 7.11 3.85 10.43
4/16/2021 12:45:00 AM 7.73 45.914 0.09 7.11 3.95 10.46
4/16/2021 1:00:00 AM 7.66 45.788 0.09 7.11 3.69 10.5
4/16/2021 1:15:00 AM 7.59 45.662 0.09 7.11 3.6 10.51
4/16/2021 1:30:00 AM 7.51 45.518 0.09 7.11 3.78 10.49
4/16/2021 1:45:00 AM 7.45 45.41 0.09 7.11 3.4 10.49
4/16/2021 2:00:00 AM 7.36 45.248 0.09 7.1 4.13 10.5
4/16/2021 2:15:00 AM 7.33 45.194 0.09 7.11 3.39 10.39
4/16/2021 2:30:00 AM 7.27 45.086 0.09 7.1 3.42 10.57
4/16/2021 2:45:00 AM 7.21 44.978 0.09 7.08 3.3 10.5
4/16/2021 3:00:00 AM 7.17 44.906 0.09 7.1 3.21 10.64
4/16/2021 3:15:00 AM 7.11 44.798 0.09 7.09 3.37 10.57
4/16/2021 3:30:00 AM 7.07 44.726 0.09 7.12 3.31 10.61
4/16/2021 3:45:00 AM 7.03 44.654 0.09 7.1 3.21 10.69
4/16/2021 4:00:00 AM 6.98 44.564 0.09 7.08 3.29 10.54
4/16/2021 4:15:00 AM 6.94 44.492 0.09 7.09 3.64 10.57
4/16/2021 4:30:00 AM 6.9 44.42 0.09 7.09 3.67 10.59
4/16/2021 4:45:00 AM 6.87 44.366 0.09 7.09 3.43 10.69
4/16/2021 5:00:00 AM 6.83 44.294 0.09 7.09 3.53 10.68
4/16/2021 5:15:00 AM 6.8 44.24 0.09 7.09 3.74 10.66
4/16/2021 5:30:00 AM 6.76 44.168 0.09 7.1 3.82 10.72
4/16/2021 5:45:00 AM 6.73 44.114 0.091 7.1 3.77 10.78
4/16/2021 6:00:00 AM 6.71 44.078 0.09 7.1 3.23 10.73
4/16/2021 6:15:00 AM 6.68 44.024 0.09 7.09 3.15 10.7
4/16/2021 6:30:00 AM 6.66 43.988 0.091 7.11 3.34 10.76
4/16/2021 6:45:00 AM 6.63 43.934 0.091 7.12 3.75 10.83
4/16/2021 7:00:00 AM 6.6 43.88 0.091 7.11 3.86 10.77
4/16/2021 7:15:00 AM 6.58 43.844 0.091 7.11 3.64 10.84
4/16/2021 7:30:00 AM 6.57 43.826 0.09 7.12 3.55 10.86
4/16/2021 7:45:00 AM 6.56 43.808 0.09 7.13 3.34 10.86
4/16/2021 8:00:00 AM 6.55 43.79 0.09 7.14 3.31 11.05
4/16/2021 8:15:00 AM 6.54 43.772 0.09 7.17 3.2 11.13
4/16/2021 8:30:00 AM 6.53 43.754 0.09 7.18 3.18 11.23
4/16/2021 8:45:00 AM 6.52 43.736 0.09 7.19 3.19 11.29
4/16/2021 9:00:00 AM 6.53 43.754 0.09 7.21 3.17 11.36
4/16/2021 9:15:00 AM 6.56 43.808 0.089 7.24 3.11 11.49
4/16/2021 9:30:00 AM 6.6 43.88 0.089 7.26 3.13 11.68
4/16/2021 9:45:00 AM 6.65 43.97 0.089 7.31 3.11 11.84
4/16/2021 10:00:00 AM 6.71 44.078 0.089 7.33 2.95 11.85
4/16/2021 10:15:00 AM 6.77 44.186 0.089 7.36 3.07 12.01
4/16/2021 10:30:00 AM 6.85 44.33 0.088 7.4 3.17 12.01
4/16/2021 10:45:00 AM 6.92 44.456 0.088